FR9058 / EI-DCL 7700 Squawk Report (21st of June, 2022)

Aircraft B738 Reg No. EI-DCL Age 17 years old
Model 737 Jet engines 2 First flight 10-09-04
Registered 01-10-04 Rollout 01-09-04 Delivered 01-10-04
Construction No. 33806 Line No. 1576 Series 8AS
ADSHEX 4CA242 Airline name Ryanair Owner N/A
Airfield based Dublin~Co Dublin~EI First tracked N/A

Flight history for EI-DCL

Route Flight No Date Playback
Manchester (MAN) - Riga Intl (RIX) FR4096 2022-06-28 05:44:00
Faro (FAO) - Manchester (MAN) FR9131 2022-06-28 05:26:00
Manchester (MAN) - Faro (FAO) FR9130 2022-06-27 20:24:00
Krakow John Paul I (KRK) - Manchester (MAN) FR2142 2022-06-27 16:57:00
Manchester (MAN) - Krakow John Paul I (KRK) FR4530 2022-06-27 12:43:00
Barajas (MAD) - Manchester (MAN) FR3186 2022-06-27 09:56:00
Fiumicino (FCO) - Barajas (MAD) FR9601 2022-06-26 21:24:00
Barajas (MAD) - Fiumicino (FCO) FR9602 2022-06-26 18:53:00
Ibiza (IBZ) - Barajas (MAD) FR2067 2022-06-26 15:43:00
Barajas (MAD) - Ibiza (IBZ) FR2066 2022-06-26 13:09:00
Stansted (STN) - Barajas (MAD) FR5994 2022-06-26 09:35:00
Barajas (MAD) - Stansted (STN) FR5993 2022-06-26 07:26:00
Gran Canaria (LPA) - Barajas (MAD) FR2012 2022-06-26 00:22:00
Barajas (MAD) - Gran Canaria (LPA) FR2011 2022-06-25 20:16:00
Budapest Ferenc Liszt (BUD) - Barajas (MAD) FR8367 2022-06-25 15:46:00
???? N/A 2022-06-25 12:07:00
Liverpool (LPL) - Alicante (ALC) FR9898 2022-06-25 07:57:00
Ciampino (CIA) - Dublin (DUB) FR9435 2022-06-25 00:26:00
Dublin (DUB) - Ciampino (CIA) FR9434 2022-06-24 20:14:00
Marcillac (RDZ) - Dublin (DUB) FR7085 2022-06-24 16:03:00
Time Lat Lon Altitude Heading Speed Vertical Rate
2022-06-21 18:04:28 GMT 36.988407 -2.101613 6,100 126 251 -256
2022-06-21 18:03:32 GMT 37.039894 -2.119048 7,250 206 217 -1280
2022-06-21 18:03:26 GMT 37.045212 -2.115803 7,400 206 216 -1280
2022-06-21 18:03:13 GMT 37.057117 -2.108897 7,650 205 217 -896
2022-06-21 18:03:05 GMT 37.064484 -2.104525 7,800 208 217 -1536
2022-06-21 18:02:56 GMT 37.072620 -2.098986 7,975 206 220 -832
2022-06-21 18:02:45 GMT 37.082886 -2.095408 8,175 182 229 -1280
2022-06-21 18:02:38 GMT 37.090588 -2.096597 8,375 163 237 -1664
2022-06-21 18:02:35 GMT 37.093613 -2.097732 8,450 160 238 -1792
2022-06-21 18:02:25 GMT 37.104042 -2.102807 8,750 158 238 -1664
2022-06-21 18:02:18 GMT 37.111725 -2.106395 8,975 159 234 -2048
2022-06-21 18:02:15 GMT 37.114239 -2.107584 9,050 159 233 -1984
2022-06-21 18:02:05 GMT 37.124405 -2.112355 9,225 159 237 -448
2022-06-21 18:01:55 GMT 37.135372 -2.117495 9,300 159 244 -512
2022-06-21 18:01:42 GMT 37.148529 -2.123692 9,400 159 249 -512
2022-06-21 18:01:34 GMT 37.157856 -2.128123 9,475 159 255 -512
2022-06-21 18:01:25 GMT 37.167912 -2.132900 9,575 159 262 -512
2022-06-21 18:01:22 GMT 37.171234 -2.134503 9,600 159 263 -512
2022-06-21 18:01:15 GMT 37.179794 -2.138536 9,675 159 269 -640
2022-06-21 18:01:12 GMT 37.182808 -2.139946 9,700 159 271 -768
2022-06-21 18:01:04 GMT 37.191746 -2.144125 9,850 159 272 -1664
2022-06-21 18:01:01 GMT 37.195129 -2.145665 9,925 159 272 -1600
2022-06-21 18:00:51 GMT 37.206924 -2.151171 10,200 159 271 -1472
2022-06-21 18:00:44 GMT 37.216187 -2.155541 10,400 159 272 -1408
2022-06-21 18:00:40 GMT 37.219986 -2.157294 10,475 159 273 -1408
2022-06-21 18:00:33 GMT 37.228245 -2.161202 10,625 159 274 -1472
2022-06-21 18:00:30 GMT 37.232071 -2.163021 10,700 159 274 -1536
2022-06-21 18:00:20 GMT 37.243977 -2.168606 10,950 159 276 -1472
2022-06-21 18:00:13 GMT 37.252171 -2.172487 11,125 159 276 -1408
2022-06-21 18:00:10 GMT 37.256378 -2.174416 11,200 159 276 -1472
2022-06-21 18:00:03 GMT 37.264229 -2.178159 11,375 159 277 -1536
2022-06-21 17:59:59 GMT 37.269241 -2.180494 11,475 159 278 -1600
2022-06-21 17:59:53 GMT 37.276566 -2.183942 11,625 159 279 -1536
2022-06-21 17:59:46 GMT 37.284805 -2.187832 11,825 159 279 -1536
2022-06-21 17:59:39 GMT 37.294327 -2.192298 12,025 159 279 -1600
2022-06-21 17:59:27 GMT 37.307709 -2.198579 12,300 159 279 -1536
2022-06-21 17:59:17 GMT 37.319870 -2.204278 12,575 159 279 -1536
2022-06-21 17:59:12 GMT 37.326187 -2.207297 12,700 159 278 -1536
2022-06-21 17:59:06 GMT 37.333733 -2.210819 12,850 159 278 -1536
2022-06-21 17:59:01 GMT 37.340561 -2.214037 13,000 159 278 -1408
2022-06-21 17:58:57 GMT 37.344681 -2.215966 13,075 159 278 -1408
2022-06-21 17:58:52 GMT 37.351135 -2.218946 13,200 159 279 -1472
2022-06-21 17:58:46 GMT 37.357937 -2.222104 13,350 159 280 -1472
2022-06-21 17:58:42 GMT 37.362946 -2.224439 13,450 159 280 -1472
2022-06-21 17:58:35 GMT 37.370728 -2.228121 13,600 159 281 -1536
2022-06-21 17:58:31 GMT 37.375763 -2.230458 13,700 159 281 -1536
2022-06-21 17:58:25 GMT 37.383636 -2.234198 13,875 159 281 -1536
2022-06-21 17:58:22 GMT 37.388214 -2.236361 13,975 159 282 -1536
2022-06-21 17:58:14 GMT 37.397228 -2.240614 14,150 159 283 -1536
2022-06-21 17:58:11 GMT 37.400894 -2.242380 14,225 159 283 -1536
2022-06-21 17:58:04 GMT 37.409332 -2.246465 14,400 159 284 -1600
2022-06-21 17:58:01 GMT 37.413300 -2.248340 14,500 159 284 -1600
2022-06-21 17:57:51 GMT 37.425903 -2.254287 14,750 159 285 -1536
2022-06-21 17:57:40 GMT 37.438568 -2.260258 15,025 159 286 -1600
2022-06-21 17:57:31 GMT 37.450882 -2.266047 15,300 159 287 -1664
2022-06-21 17:57:20 GMT 37.463799 -2.272140 15,575 159 286 -1536
2022-06-21 17:57:10 GMT 37.476837 -2.278436 15,850 158 287 -1536
2022-06-21 17:57:00 GMT 37.489197 -2.284338 16,125 159 286 -1728
2022-06-21 17:56:49 GMT 37.502243 -2.290591 16,400 159 285 -1536
2022-06-21 17:56:45 GMT 37.507648 -2.293157 16,500 158 287 -1536
2022-06-21 17:56:40 GMT 37.514866 -2.296620 16,650 158 287 -1664
2022-06-21 17:56:35 GMT 37.520096 -2.299123 16,775 159 286 -1600
2022-06-21 17:56:28 GMT 37.527786 -2.302805 16,925 159 286 -1600
2022-06-21 17:56:25 GMT 37.532089 -2.304860 17,025 159 286 -1600
2022-06-21 17:56:18 GMT 37.540657 -2.308860 17,200 159 286 -1472
2022-06-21 17:56:15 GMT 37.544891 -2.310831 17,300 159 286 -1536
2022-06-21 17:56:08 GMT 37.553421 -2.314843 17,475 159 286 -1728
2022-06-21 17:56:04 GMT 37.558044 -2.317063 17,600 159 286 -1856
2022-06-21 17:55:57 GMT 37.567062 -2.321388 17,750 158 287 -1856
2022-06-21 17:55:54 GMT 37.570869 -2.323190 17,900 159 285 -1792
2022-06-21 17:55:48 GMT 37.582443 -2.328751 18,325 159 286 -1664
2022-06-21 17:55:44 GMT 37.582443 -2.328751 18,150 159 286 -1664
2022-06-21 17:55:39 GMT 37.595913 -2.335072 18,350 159 285 -1664
2022-06-21 17:55:35 GMT 37.595913 -2.335072 18,450 159 286 -1600
2022-06-21 17:55:28 GMT 37.603363 -2.338452 18,600 160 287 -1344
2022-06-21 17:55:24 GMT 37.607876 -2.340506 18,700 160 288 -1600
2022-06-21 17:55:17 GMT 37.616318 -2.344354 18,900 159 288 -2048
2022-06-21 17:55:12 GMT 37.622589 -2.347313 19,050 159 289 -1600
2022-06-21 17:55:08 GMT 37.629181 -2.350431 19,200 159 291 -1664
2022-06-21 17:55:03 GMT 37.634457 -2.352925 19,325 159 291 -1792
2022-06-21 17:54:57 GMT 37.642136 -2.356626 19,500 158 291 -1728
2022-06-21 17:54:54 GMT 37.646145 -2.358597 19,600 158 291 -1792
2022-06-21 17:54:47 GMT 37.654709 -2.362717 19,775 158 292 -1600
2022-06-21 17:54:43 GMT 37.659439 -2.365041 19,875 159 293 -1536
2022-06-21 17:54:36 GMT 37.668022 -2.369226 20,050 158 296 -1408
2022-06-21 17:54:32 GMT 37.673355 -2.371820 20,150 158 296 -1728
2022-06-21 17:54:28 GMT 37.678070 -2.374099 20,250 159 297 -1728
2022-06-21 17:54:24 GMT 37.684753 -2.377371 20,600 159 298 -1600
2022-06-21 17:54:17 GMT 37.693951 -2.381645 20,600 159 299 -1600
2022-06-21 17:54:12 GMT 37.698990 -2.384033 20,700 159 299 -1664
2022-06-21 17:54:06 GMT 37.707500 -2.388034 20,875 159 300 -1728
2022-06-21 17:54:03 GMT 37.711166 -2.389760 20,950 159 301 -1536
2022-06-21 17:54:00 GMT 37.720459 -2.394026 21,525 159 302 -1024
2022-06-21 17:53:56 GMT 37.720459 -2.394026 21,100 159 303 -1472
2022-06-21 17:53:53 GMT 37.724991 -2.396247 21,200 159 303 -1984
2022-06-21 17:53:50 GMT 37.728516 -2.397883 21,300 159 305 -2240
2022-06-21 17:53:46 GMT 37.733780 -2.400454 21,425 158 305 -1600
2022-06-21 17:53:43 GMT 37.737991 -2.402483 21,600 159 305 -1472
2022-06-21 17:53:39 GMT 37.742786 -2.404812 21,600 159 306 -1472
2022-06-21 17:53:35 GMT 37.747349 -2.406961 21,675 159 307 -1536
2022-06-21 17:53:32 GMT 37.751396 -2.408932 21,850 159 307 -1664
2022-06-21 17:53:29 GMT 37.756145 -2.411141 21,850 159 308 -1664
2022-06-21 17:53:25 GMT 37.761612 -2.413720 21,975 159 309 -1536
2022-06-21 17:53:22 GMT 37.765594 -2.415619 22,050 159 310 -1472
2022-06-21 17:53:18 GMT 37.771133 -2.418278 22,450 159 312 -1472
2022-06-21 17:53:15 GMT 37.775093 -2.420157 22,225 159 313 -1792
2022-06-21 17:53:12 GMT 37.779053 -2.422018 22,300 159 314 -1920
2022-06-21 17:53:07 GMT 37.785801 -2.425232 22,475 159 315 -1856
2022-06-21 17:53:03 GMT 37.792084 -2.428217 22,600 159 315 -1728
2022-06-21 17:52:58 GMT 37.798416 -2.431262 22,725 159 316 -1536
2022-06-21 17:52:55 GMT 37.802628 -2.433296 22,800 159 316 -1536
2022-06-21 17:52:52 GMT 37.806381 -2.435108 23,150 159 316 -1664
2022-06-21 17:52:45 GMT 37.816544 -2.439958 23,075 159 317 -1664
2022-06-21 17:52:42 GMT 37.826523 -2.444692 23,225 159 318 -1728
2022-06-21 17:52:37 GMT 37.826523 -2.444692 23,350 159 318 -1728
2022-06-21 17:52:34 GMT 37.830860 -2.446787 23,375 159 319 -1728
2022-06-21 17:52:28 GMT 37.840714 -2.451529 23,575 159 319 -1600
2022-06-21 17:52:24 GMT 37.844788 -2.453457 23,675 159 321 -1664
2022-06-21 17:52:21 GMT 37.848927 -2.455444 23,750 159 321 -1728
2022-06-21 17:52:18 GMT 37.853073 -2.457490 23,825 159 322 -1728
2022-06-21 17:52:15 GMT 37.863052 -2.462282 23,975 159 323 -1664
2022-06-21 17:52:11 GMT 37.863052 -2.462282 24,025 159 323 -1664
2022-06-21 17:52:07 GMT 37.868614 -2.464938 24,175 159 324 -1792
2022-06-21 17:52:04 GMT 37.877182 -2.469058 24,250 159 324 -1792
2022-06-21 17:52:01 GMT 37.877182 -2.469058 24,475 159 325 -1728
2022-06-21 17:51:54 GMT 37.887936 -2.474252 24,550 159 325 -1664
2022-06-21 17:51:49 GMT 37.894173 -2.477238 24,675 159 326 -1664
2022-06-21 17:51:46 GMT 37.898270 -2.479208 24,750 159 326 -1664
2022-06-21 17:51:42 GMT 37.905392 -2.482671 24,900 159 327 -1728
2022-06-21 17:51:38 GMT 37.909653 -2.484722 24,975 159 328 -1728
2022-06-21 17:51:33 GMT 37.916798 -2.488164 25,125 159 329 -1664
2022-06-21 17:51:30 GMT 37.920502 -2.489923 25,200 159 329 -1728
2022-06-21 17:51:26 GMT 37.926945 -2.493001 25,325 159 330 -1728
2022-06-21 17:51:23 GMT 37.931259 -2.495065 25,400 159 331 -1728
2022-06-21 17:51:19 GMT 37.935745 -2.497180 25,500 159 331 -1728
2022-06-21 17:51:15 GMT 37.941841 -2.500106 25,625 159 332 -1792
2022-06-21 17:51:11 GMT 37.948425 -2.503188 25,750 159 333 -1728
2022-06-21 17:51:03 GMT 37.960464 -2.508915 26,000 159 335 -1728
2022-06-21 17:50:59 GMT 37.965820 -2.511428 26,100 159 335 -1728
2022-06-21 17:50:55 GMT 37.972549 -2.514642 26,225 159 336 -1728
2022-06-21 17:50:52 GMT 37.975433 -2.515986 26,300 159 336 -1728
2022-06-21 17:50:49 GMT 37.979084 -2.517720 26,350 159 337 -1728
2022-06-21 17:50:45 GMT 37.986019 -2.521004 26,575 159 338 -1728
2022-06-21 17:50:40 GMT 37.993561 -2.524587 26,650 159 339 -1792
2022-06-21 17:50:35 GMT 38.001198 -2.528229 26,825 159 341 -1792
2022-06-21 17:50:32 GMT 38.005188 -2.530186 26,875 159 341 -1856
2022-06-21 17:50:29 GMT 38.009674 -2.532290 26,975 159 341 -1856
2022-06-21 17:50:24 GMT 38.016186 -2.535453 27,125 158 342 -1792
2022-06-21 17:50:21 GMT 38.026154 -2.540296 27,300 159 343 -1728
2022-06-21 17:50:18 GMT 38.031006 -2.542692 28,675 158 345 -1792
2022-06-21 17:50:14 GMT 38.031006 -2.542692 27,400 158 345 -1792
2022-06-21 17:50:10 GMT 38.038330 -2.546257 27,550 158 345 -1792
2022-06-21 17:50:07 GMT 38.046204 -2.550114 28,675 158 346 -1728
2022-06-21 17:50:04 GMT 38.046204 -2.550114 27,700 158 346 -1728
2022-06-21 17:50:00 GMT 38.052452 -2.553127 27,875 158 347 -1728
2022-06-21 17:49:57 GMT 38.056870 -2.555256 28,675 159 352 -1856
2022-06-21 17:49:54 GMT 38.061436 -2.557486 28,050 159 349 -1792
2022-06-21 17:49:51 GMT 38.066044 -2.559755 28,100 159 349 -1792
2022-06-21 17:49:47 GMT 38.071381 -2.562327 28,200 159 349 -1792
2022-06-21 17:49:44 GMT 38.077652 -2.565366 28,325 158 350 -1856
2022-06-21 17:49:41 GMT 38.086212 -2.569515 28,500 159 351 -1856
2022-06-21 17:49:38 GMT 38.086212 -2.569515 28,500 159 351 -1856
2022-06-21 17:49:33 GMT 38.093491 -2.573021 28,650 159 352 -1856
2022-06-21 17:49:30 GMT 38.097233 -2.574801 28,825 159 353 -1856
2022-06-21 17:49:27 GMT 38.101845 -2.577070 28,825 159 353 -1856
2022-06-21 17:49:24 GMT 38.106308 -2.579157 28,900 159 354 -1792
2022-06-21 17:49:21 GMT 38.111198 -2.581548 29,000 159 354 -1728
2022-06-21 17:49:18 GMT 38.116741 -2.584235 29,100 159 355 -1728
2022-06-21 17:49:12 GMT 38.125854 -2.588683 29,300 158 356 -1856
2022-06-21 17:49:09 GMT 38.129745 -2.590611 29,900 158 360 -1792
2022-06-21 17:49:06 GMT 38.133732 -2.592594 29,900 158 360 -1792
2022-06-21 17:49:02 GMT 38.140156 -2.595699 29,575 158 358 -1728
2022-06-21 17:48:58 GMT 38.147049 -2.599085 29,700 158 359 -1792
2022-06-21 17:48:52 GMT 38.156494 -2.603700 30,050 158 361 -1792
2022-06-21 17:48:49 GMT 38.161339 -2.606088 30,050 158 361 -1792
2022-06-21 17:48:46 GMT 38.165340 -2.607999 30,050 158 361 -1792
2022-06-21 17:48:43 GMT 38.170715 -2.610655 30,225 159 362 -1856
2022-06-21 17:48:40 GMT 38.175980 -2.613168 30,250 159 362 -1856
2022-06-21 17:48:37 GMT 38.180283 -2.615283 30,350 159 363 -1792
2022-06-21 17:48:34 GMT 38.184891 -2.617433 30,425 159 363 -1792
2022-06-21 17:48:31 GMT 38.189529 -2.619655 30,525 159 364 -1792
2022-06-21 17:48:27 GMT 38.195847 -2.622635 30,650 159 365 -1792
2022-06-21 17:48:22 GMT 38.203651 -2.626389 30,775 159 366 -1792
2022-06-21 17:48:19 GMT 38.208447 -2.628658 30,900 159 367 -1792
2022-06-21 17:48:16 GMT 38.213383 -2.631046 30,975 159 368 -1792
2022-06-21 17:48:11 GMT 38.220646 -2.634510 31,200 159 369 -1792
2022-06-21 17:48:08 GMT 38.226509 -2.637256 31,475 159 371 -1856
2022-06-21 17:48:02 GMT 38.234612 -2.641077 31,450 159 371 -1856
2022-06-21 17:47:59 GMT 38.240936 -2.644023 31,500 159 372 -1856
2022-06-21 17:47:56 GMT 38.245468 -2.646186 31,575 159 372 -1792
2022-06-21 17:47:52 GMT 38.251923 -2.649224 31,725 159 374 -1792
2022-06-21 17:47:49 GMT 38.257645 -2.651971 31,800 159 374 -1792
2022-06-21 17:47:42 GMT 38.268494 -2.657172 32,000 159 375 -1728
2022-06-21 17:47:39 GMT 38.274445 -2.660094 32,100 159 377 -1728
2022-06-21 17:47:36 GMT 38.283554 -2.664535 33,475 158 389 -1792
2022-06-21 17:47:32 GMT 38.283554 -2.664535 32,275 158 378 -1728
2022-06-21 17:47:28 GMT 38.290661 -2.668066 32,400 158 379 -1728
2022-06-21 17:47:25 GMT 38.294952 -2.670145 32,475 158 380 -1728
2022-06-21 17:47:18 GMT 38.307465 -2.676365 32,700 158 382 -1728
2022-06-21 17:47:12 GMT 38.317474 -2.681248 32,875 158 383 -1728
2022-06-21 17:47:08 GMT 38.324734 -2.684844 33,000 158 384 -1728
2022-06-21 17:47:01 GMT 38.334511 -2.689561 33,150 158 386 -1728
2022-06-21 17:46:58 GMT 38.339218 -2.691884 33,250 158 386 -1728
2022-06-21 17:46:55 GMT 38.345215 -2.694806 33,350 158 389 -1792
2022-06-21 17:46:50 GMT 38.353455 -2.698838 33,550 158 389 -1792
2022-06-21 17:46:47 GMT 38.358902 -2.701526 33,675 159 391 -1728
2022-06-21 17:46:44 GMT 38.363327 -2.703652 33,675 159 391 -1728
2022-06-21 17:46:37 GMT 38.376083 -2.709861 33,875 159 392 -1728
2022-06-21 17:46:31 GMT 38.385441 -2.714399 34,025 158 394 -1728
2022-06-21 17:46:28 GMT 38.391037 -2.717129 34,175 159 395 -1728
2022-06-21 17:46:25 GMT 38.395493 -2.719355 34,200 159 395 -1728
2022-06-21 17:46:20 GMT 38.404587 -2.723733 34,350 159 397 -1536
2022-06-21 17:46:17 GMT 38.420425 -2.731416 34,500 159 399 -1152
2022-06-21 17:46:11 GMT 38.420425 -2.731416 34,525 159 399 -960
2022-06-21 17:46:07 GMT 38.427101 -2.734680 34,625 159 400 -960
2022-06-21 17:46:04 GMT 38.431480 -2.736755 34,650 159 400 -960
2022-06-21 17:46:00 GMT 38.439240 -2.740551 34,725 159 400 -960
2022-06-21 17:45:57 GMT 38.444458 -2.743059 34,775 159 400 -960
2022-06-21 17:45:54 GMT 38.448795 -2.745178 34,800 159 400 -960
2022-06-21 17:45:47 GMT 38.461693 -2.751404 34,950 159 401 -1024
2022-06-21 17:45:44 GMT 38.465973 -2.753479 34,975 159 401 -1024
2022-06-21 17:45:39 GMT 38.475723 -2.758225 35,075 158 401 -1024
2022-06-21 17:45:36 GMT 38.479889 -2.760255 35,100 159 402 -1024
2022-06-21 17:45:33 GMT 38.486115 -2.763300 35,175 159 402 -1024
2022-06-21 17:45:30 GMT 38.491470 -2.765928 35,225 158 403 -1024
2022-06-21 17:45:27 GMT 38.496277 -2.768256 35,300 158 403 -1024
2022-06-21 17:45:24 GMT 38.501911 -2.770996 35,325 158 403 -1024
2022-06-21 17:45:19 GMT 38.509369 -2.774645 35,400 158 403 -1024
2022-06-21 17:45:14 GMT 38.518753 -2.779242 35,700 159 404 -1024
2022-06-21 17:45:06 GMT 38.538712 -2.788975 35,675 158 406 -1024
2022-06-21 17:45:03 GMT 38.538712 -2.788975 35,700 158 407 -1024
2022-06-21 17:44:59 GMT 38.545486 -2.792236 35,775 159 408 -1024
2022-06-21 17:44:55 GMT 38.556892 -2.797852 35,875 158 409 -1088
2022-06-21 17:44:48 GMT 38.564667 -2.801633 36,075 158 409 -1088
2022-06-21 17:44:43 GMT 38.573959 -2.806231 36,075 158 410 -1088
2022-06-21 17:44:39 GMT 38.579727 -2.809097 36,125 158 411 -1088
2022-06-21 17:44:35 GMT 38.587055 -2.812683 36,200 158 411 -1088
2022-06-21 17:44:32 GMT 38.592083 -2.815186 36,250 158 413 -1088
2022-06-21 17:44:24 GMT 38.607773 -2.822937 36,675 158 421 -1088
2022-06-21 17:44:21 GMT 38.612000 -2.825039 36,675 158 421 -1088
2022-06-21 17:44:16 GMT 38.621040 -2.829468 36,550 158 421 -1088
2022-06-21 17:44:12 GMT 38.628067 -2.832920 36,625 159 421 -1088
2022-06-21 17:44:06 GMT 38.638824 -2.838135 36,675 159 423 -1088
2022-06-21 17:44:03 GMT 38.644547 -2.840921 36,750 159 425 -1088
2022-06-21 17:44:00 GMT 38.649857 -2.843548 36,800 158 426 -1088
2022-06-21 17:43:54 GMT 38.663864 -2.850415 36,925 159 426 -896
2022-06-21 17:43:50 GMT 38.668671 -2.852743 37,000 159 426 -256
2022-06-21 17:43:46 GMT 38.678299 -2.857422 37,000 159 426 -64
2022-06-21 17:43:43 GMT 38.681992 -2.859252 37,000 159 426 0
2022-06-21 17:43:40 GMT 38.687714 -2.862058 37,000 159 426 0
2022-06-21 17:43:34 GMT 38.699200 -2.867615 37,000 159 426 0
2022-06-21 17:43:31 GMT 38.710648 -2.873223 37,000 159 426 0
2022-06-21 17:43:28 GMT 38.710648 -2.873223 37,000 159 426 0
2022-06-21 17:43:23 GMT 38.719345 -2.877463 37,000 159 425 0
2022-06-21 17:43:20 GMT 38.725296 -2.880388 37,000 159 425 0
2022-06-21 17:43:17 GMT 38.729225 -2.882324 37,000 159 425 0
2022-06-21 17:43:12 GMT 38.738815 -2.887024 37,000 159 425 0
2022-06-21 17:43:08 GMT 38.746124 -2.890564 37,000 158 423 0
2022-06-21 17:43:02 GMT 38.757484 -2.896118 37,000 159 424 0
2022-06-21 17:42:57 GMT 38.766220 -2.900450 37,000 158 423 0
2022-06-21 17:42:50 GMT 38.778259 -2.906361 37,000 158 423 0
2022-06-21 17:42:47 GMT 38.784672 -2.909546 37,000 158 422 0
2022-06-21 17:42:42 GMT 38.794586 -2.914429 37,000 158 422 0
2022-06-21 17:42:36 GMT 38.805542 -2.919856 37,000 158 422 0
2022-06-21 17:42:32 GMT 38.811531 -2.922791 37,000 158 422 0
2022-06-21 17:42:29 GMT 38.817856 -2.925946 37,000 158 421 0
2022-06-21 17:42:26 GMT 38.822517 -2.928223 37,000 158 421 0
2022-06-21 17:42:22 GMT 38.831680 -2.932753 37,000 158 421 0
2022-06-21 17:42:19 GMT 38.836483 -2.935120 37,000 158 421 0
2022-06-21 17:42:15 GMT 38.842758 -2.938246 37,000 158 421 0
2022-06-21 17:42:11 GMT 38.850357 -2.942007 37,000 158 421 0
2022-06-21 17:42:07 GMT 38.862087 -2.947815 37,000 158 420 0
2022-06-21 17:42:01 GMT 38.868839 -2.951111 37,000 158 420 0
2022-06-21 17:41:58 GMT 38.874390 -2.953830 37,000 158 420 0
2022-06-21 17:41:54 GMT 38.881622 -2.957412 37,000 158 420 0
2022-06-21 17:41:51 GMT 38.887226 -2.960144 37,000 158 420 0
2022-06-21 17:41:46 GMT 38.894814 -2.963928 37,000 158 419 0
2022-06-21 17:41:43 GMT 38.901333 -2.967102 37,000 159 418 0
2022-06-21 17:41:40 GMT 38.906124 -2.969482 37,000 159 418 0
2022-06-21 17:41:36 GMT 38.913528 -2.973115 37,000 159 418 0
2022-06-21 17:41:31 GMT 38.924011 -2.978250 37,000 159 418 0
2022-06-21 17:41:28 GMT 38.930473 -2.981445 37,000 158 418 0
2022-06-21 17:41:25 GMT 38.933220 -2.982788 37,000 158 418 0
2022-06-21 17:41:20 GMT 38.942551 -2.987386 37,000 158 417 0
2022-06-21 17:41:17 GMT 38.948956 -2.990601 37,000 158 417 0
2022-06-21 17:41:08 GMT 38.964523 -2.998253 37,000 158 417 0
2022-06-21 17:41:05 GMT 38.969391 -3.000610 37,000 158 417 0
2022-06-21 17:41:01 GMT 38.976559 -3.004150 37,000 158 417 0
2022-06-21 17:40:58 GMT 38.982845 -3.007263 37,000 158 417 0
2022-06-21 17:40:50 GMT 39.002117 -3.016785 37,000 158 417 -64
2022-06-21 17:40:47 GMT 39.002117 -3.016785 37,000 158 417 -64
2022-06-21 17:40:43 GMT 39.009293 -3.020404 37,000 158 417 -64
2022-06-21 17:40:38 GMT 39.023113 -3.027222 37,000 158 415 0
2022-06-21 17:40:35 GMT 39.023113 -3.027222 37,000 158 415 0
2022-06-21 17:40:28 GMT 39.036301 -3.033779 37,000 158 414 0
2022-06-21 17:40:25 GMT 39.041702 -3.036466 37,000 158 413 0
2022-06-21 17:40:18 GMT 39.054722 -3.042847 37,000 158 413 0
2022-06-21 17:40:15 GMT 39.060539 -3.045776 37,000 158 413 0
2022-06-21 17:40:09 GMT 39.070770 -3.050796 37,000 158 413 0
2022-06-21 17:40:04 GMT 39.078552 -3.054677 37,000 158 413 0
2022-06-21 17:40:01 GMT 39.083771 -3.057251 37,000 158 413 0
2022-06-21 17:39:59 GMT 39.093521 -3.062081 37,000 158 413 0
2022-06-21 17:39:53 GMT 39.098877 -3.064768 37,000 158 413 0
2022-06-21 17:39:50 GMT 39.111099 -3.070798 37,000 158 413 0
2022-06-21 17:39:46 GMT 39.111099 -3.070798 37,000 158 413 0
2022-06-21 17:39:42 GMT 39.128082 -3.079277 37,000 158 414 0
2022-06-21 17:39:36 GMT 39.128082 -3.079277 37,000 158 414 0
2022-06-21 17:39:32 GMT 39.143589 -3.087036 37,000 158 414 0
2022-06-21 17:39:28 GMT 39.143589 -3.087036 37,000 158 414 0
2022-06-21 17:39:24 GMT 39.150620 -3.090515 37,000 158 414 0
2022-06-21 17:39:21 GMT 39.156158 -3.093323 37,000 158 415 0
2022-06-21 17:39:16 GMT 39.165329 -3.097961 37,000 158 415 0
2022-06-21 17:39:12 GMT 39.172348 -3.101488 37,000 158 416 0
2022-06-21 17:39:09 GMT 39.177433 -3.104065 37,000 158 416 0
2022-06-21 17:39:06 GMT 39.182972 -3.106934 37,000 158 416 0
2022-06-21 17:39:01 GMT 39.191208 -3.111101 37,000 158 416 0
2022-06-21 17:38:57 GMT 39.198257 -3.114684 37,000 157 416 0
2022-06-21 17:38:53 GMT 39.206680 -3.119042 37,000 158 416 -64
2022-06-21 17:38:49 GMT 39.215324 -3.123474 37,000 159 414 -64
2022-06-21 17:38:46 GMT 39.218956 -3.125183 37,000 165 407 0
2022-06-21 17:38:43 GMT 39.225540 -3.127939 37,000 164 409 0
2022-06-21 17:38:40 GMT 39.228825 -3.129150 37,000 164 409 0
2022-06-21 17:38:35 GMT 39.238834 -3.132202 37,000 172 400 0
2022-06-21 17:38:32 GMT 39.244373 -3.133484 37,000 171 400 0
2022-06-21 17:38:26 GMT 39.253963 -3.134949 37,000 177 395 0
2022-06-21 17:38:23 GMT 39.259689 -3.135437 37,000 181 393 -64
2022-06-21 17:38:20 GMT 39.266144 -3.135641 37,000 181 393 -64
2022-06-21 17:38:16 GMT 39.274063 -3.135223 37,025 185 389 -64
2022-06-21 17:38:10 GMT 39.284176 -3.133789 37,000 191 385 64
2022-06-21 17:38:06 GMT 39.290462 -3.132263 37,000 193 383 64
2022-06-21 17:38:01 GMT 39.299305 -3.129639 37,000 194 383 0
2022-06-21 17:37:59 GMT 39.302704 -3.128601 37,000 194 383 0
2022-06-21 17:37:56 GMT 39.313599 -3.125305 37,000 194 383 0
2022-06-21 17:37:53 GMT 39.313599 -3.125305 37,000 194 383 0
2022-06-21 17:37:50 GMT 39.317825 -3.123998 37,000 194 383 0
2022-06-21 17:37:47 GMT 39.323410 -3.122267 37,000 194 383 0
2022-06-21 17:37:44 GMT 39.329239 -3.120483 37,000 194 383 0
2022-06-21 17:37:41 GMT 39.334732 -3.118835 37,000 194 383 0
2022-06-21 17:37:38 GMT 39.338242 -3.117789 37,000 194 383 0
2022-06-21 17:37:34 GMT 39.346207 -3.115341 37,000 194 383 0
2022-06-21 17:37:31 GMT 39.352661 -3.113370 37,000 194 383 0
2022-06-21 17:37:27 GMT 39.357822 -3.111755 37,000 194 383 0
2022-06-21 17:37:23 GMT 39.365086 -3.109558 37,000 194 383 0
2022-06-21 17:37:20 GMT 39.369835 -3.108093 37,000 194 383 0
2022-06-21 17:37:17 GMT 39.376583 -3.106018 37,000 194 383 0
2022-06-21 17:37:13 GMT 39.381702 -3.104431 37,000 194 383 0
2022-06-21 17:37:10 GMT 39.397392 -3.099670 37,000 194 383 0
2022-06-21 17:37:04 GMT 39.397392 -3.099670 37,000 194 383 64
2022-06-21 17:37:00 GMT 39.404186 -3.097595 37,000 194 383 0
2022-06-21 17:36:57 GMT 39.409031 -3.096069 37,000 194 383 0
2022-06-21 17:36:54 GMT 39.414059 -3.094543 37,000 194 383 0
2022-06-21 17:36:50 GMT 39.423462 -3.091675 37,000 194 383 0
2022-06-21 17:36:45 GMT 39.431839 -3.089050 37,000 194 383 0
2022-06-21 17:36:42 GMT 39.436214 -3.087708 37,000 194 383 0
2022-06-21 17:36:39 GMT 39.441662 -3.086060 37,000 194 383 0
2022-06-21 17:36:34 GMT 39.449982 -3.083456 37,000 194 383 0
2022-06-21 17:36:31 GMT 39.455475 -3.081784 37,000 194 383 0
2022-06-21 17:36:28 GMT 39.459229 -3.080590 37,000 194 383 0
2022-06-21 17:36:25 GMT 39.464752 -3.078918 37,000 194 383 0
2022-06-21 17:36:22 GMT 39.477310 -3.075037 37,000 194 383 0
2022-06-21 17:36:19 GMT 39.477310 -3.075037 37,000 194 383 0
2022-06-21 17:36:16 GMT 39.480789 -3.073963 37,000 194 383 0
2022-06-21 17:36:11 GMT 39.489613 -3.071228 37,000 194 383 0
2022-06-21 17:36:08 GMT 39.495106 -3.069519 37,000 194 383 0
2022-06-21 17:36:04 GMT 39.506516 -3.066021 37,000 194 382 0
2022-06-21 17:36:01 GMT 39.506516 -3.066021 37,000 194 382 0
2022-06-21 17:35:58 GMT 39.512238 -3.064230 37,000 194 382 0
2022-06-21 17:35:53 GMT 39.522079 -3.061125 37,000 194 382 0
2022-06-21 17:35:48 GMT 39.530113 -3.058655 37,000 194 382 0
2022-06-21 17:35:43 GMT 39.537598 -3.056289 37,000 194 382 0
2022-06-21 17:35:40 GMT 39.547714 -3.053124 37,000 194 383 0
2022-06-21 17:35:37 GMT 39.547714 -3.053124 37,000 194 382 0
2022-06-21 17:35:33 GMT 39.554317 -3.051086 37,000 194 382 0
2022-06-21 17:35:30 GMT 39.558792 -3.049661 37,000 194 382 0
2022-06-21 17:35:26 GMT 39.566887 -3.047119 37,000 194 383 0
2022-06-21 17:35:23 GMT 39.571449 -3.045715 37,000 194 383 0
2022-06-21 17:35:20 GMT 39.576508 -3.044109 37,000 194 383 0
2022-06-21 17:35:16 GMT 39.583191 -3.042078 37,000 194 383 0
2022-06-21 17:35:12 GMT 39.591568 -3.039451 37,000 194 383 0
2022-06-21 17:35:09 GMT 39.594955 -3.038436 37,000 194 383 0
2022-06-21 17:35:07 GMT 39.600723 -3.036645 37,000 194 383 0
2022-06-21 17:35:03 GMT 39.607994 -3.034424 37,000 194 383 0
2022-06-21 17:35:00 GMT 39.612259 -3.033062 37,000 194 383 0
2022-06-21 17:34:56 GMT 39.618347 -3.031212 37,000 194 383 0
2022-06-21 17:34:53 GMT 39.628571 -3.028015 37,000 194 383 0
2022-06-21 17:34:50 GMT 39.640915 -3.024226 37,000 194 383 0
2022-06-21 17:34:43 GMT 39.640915 -3.024226 37,000 194 383 0
2022-06-21 17:34:40 GMT 39.646179 -3.022614 37,000 194 383 0
2022-06-21 17:34:35 GMT 39.654694 -3.019986 37,000 194 383 0
2022-06-21 17:34:32 GMT 39.660278 -3.018255 37,000 194 383 -64
2022-06-21 17:34:29 GMT 39.664833 -3.016846 37,000 194 383 -64
2022-06-21 17:34:26 GMT 39.671951 -3.014613 37,000 194 383 0
2022-06-21 17:34:22 GMT 39.677948 -3.012762 37,000 194 383 0
2022-06-21 17:34:19 GMT 39.682011 -3.011536 37,000 194 383 0
2022-06-21 17:34:15 GMT 39.689255 -3.009299 37,000 194 383 0
2022-06-21 17:34:10 GMT 39.697605 -3.006714 37,000 194 383 0
2022-06-21 17:34:05 GMT 39.708435 -3.003328 37,000 194 383 0
2022-06-21 17:34:01 GMT 39.713196 -3.001835 37,000 194 383 -64
2022-06-21 17:33:58 GMT 39.717857 -3.000427 37,000 194 383 0
2022-06-21 17:33:54 GMT 39.725693 -2.997954 37,000 194 383 0
2022-06-21 17:33:49 GMT 39.734436 -2.995267 37,000 194 383 0
2022-06-21 17:33:43 GMT 39.743973 -2.992249 37,000 194 383 64
2022-06-21 17:33:39 GMT 39.751648 -2.989893 37,000 194 383 64
2022-06-21 17:33:31 GMT 39.766434 -2.985236 37,000 194 384 0
2022-06-21 17:33:28 GMT 39.770416 -2.983982 37,000 194 385 0
2022-06-21 17:33:23 GMT 39.778889 -2.981384 37,000 194 385 0
2022-06-21 17:33:20 GMT 39.784054 -2.979736 37,000 194 385 0
2022-06-21 17:33:08 GMT 39.806446 -2.972778 37,000 194 386 0
2022-06-21 17:32:58 GMT 39.822601 -2.967773 37,000 194 387 0
2022-06-21 17:32:50 GMT 39.839638 -2.962463 37,000 194 387 0
2022-06-21 17:32:48 GMT 39.839638 -2.962463 37,000 194 387 0
2022-06-21 17:32:40 GMT 39.859840 -2.956177 37,000 194 388 0
2022-06-21 17:32:37 GMT 39.859840 -2.956177 37,000 194 388 0
2022-06-21 17:32:29 GMT 39.873184 -2.951979 37,000 194 389 0
2022-06-21 17:32:25 GMT 39.879673 -2.949951 37,000 194 390 0
2022-06-21 17:32:20 GMT 39.890053 -2.946655 37,000 194 390 0
2022-06-21 17:32:17 GMT 39.894516 -2.945232 37,000 194 390 0
2022-06-21 17:32:14 GMT 39.899323 -2.943679 37,000 194 390 0
2022-06-21 17:32:08 GMT 39.910862 -2.939941 37,000 194 390 0
2022-06-21 17:32:04 GMT 39.916122 -2.938246 37,000 194 391 0
2022-06-21 17:31:59 GMT 39.925156 -2.935347 37,000 194 391 64
2022-06-21 17:31:57 GMT 39.929031 -2.934143 37,000 194 391 64
2022-06-21 17:31:54 GMT 39.934433 -2.932434 37,000 194 391 0
2022-06-21 17:31:49 GMT 39.948009 -2.928231 37,000 194 391 0
2022-06-21 17:31:46 GMT 39.948009 -2.928231 37,000 194 391 0
2022-06-21 17:31:42 GMT 39.954941 -2.926025 37,000 194 392 0
2022-06-21 17:31:39 GMT 39.960255 -2.924361 37,000 194 393 0
2022-06-21 17:31:37 GMT 39.965698 -2.922668 37,000 194 393 0
2022-06-21 17:31:32 GMT 39.972637 -2.920428 37,000 194 393 0
2022-06-21 17:31:28 GMT 39.979992 -2.918119 37,000 194 393 0
2022-06-21 17:31:25 GMT 39.985245 -2.916504 37,000 194 394 0
2022-06-21 17:31:18 GMT 39.997238 -2.912720 37,000 194 394 0
2022-06-21 17:31:15 GMT 40.003372 -2.910767 37,000 194 394 0
2022-06-21 17:31:08 GMT 40.015884 -2.906820 37,000 194 394 0
2022-06-21 17:31:04 GMT 40.021866 -2.904907 37,000 194 394 0
2022-06-21 17:30:58 GMT 40.031853 -2.901764 37,000 194 395 0
2022-06-21 17:30:54 GMT 40.039719 -2.899292 37,000 194 394 0
2022-06-21 17:30:49 GMT 40.049683 -2.896208 37,000 194 394 0
2022-06-21 17:30:46 GMT 40.054962 -2.894531 37,000 194 394 0
2022-06-21 17:30:43 GMT 40.059448 -2.893127 37,000 194 394 0
2022-06-21 17:30:38 GMT 40.069141 -2.890153 37,000 194 395 0
2022-06-21 17:30:34 GMT 40.076263 -2.887906 37,000 194 395 0
2022-06-21 17:30:28 GMT 40.086456 -2.884785 37,000 194 395 0
2022-06-21 17:30:24 GMT 40.094139 -2.882351 37,000 194 395 0
2022-06-21 17:30:19 GMT 40.104286 -2.879229 37,000 194 396 0
2022-06-21 17:30:14 GMT 40.111908 -2.876770 37,000 194 396 0
2022-06-21 17:30:08 GMT 40.122395 -2.873487 37,000 194 396 0
2022-06-21 17:30:05 GMT 40.127659 -2.871801 37,000 194 396 0
2022-06-21 17:30:02 GMT 40.133198 -2.870053 37,000 194 396 0
2022-06-21 17:29:59 GMT 40.138363 -2.868430 37,000 194 396 0
2022-06-21 17:29:57 GMT 40.141762 -2.867307 37,000 194 396 0
2022-06-21 17:29:52 GMT 40.151321 -2.864319 37,000 194 396 0
2022-06-21 17:29:48 GMT 40.159267 -2.861814 37,000 194 396 0
2022-06-21 17:29:44 GMT 40.165318 -2.859879 37,000 194 396 0
2022-06-21 17:29:39 GMT 40.174026 -2.857117 37,000 194 396 0
2022-06-21 17:29:35 GMT 40.183239 -2.854198 37,000 194 396 0
2022-06-21 17:29:31 GMT 40.187714 -2.852783 37,000 194 396 0
2022-06-21 17:29:29 GMT 40.196369 -2.850016 37,000 194 396 0
2022-06-21 17:29:22 GMT 40.205166 -2.847207 37,000 194 396 0
2022-06-21 17:29:19 GMT 40.209915 -2.845709 37,000 194 396 0
2022-06-21 17:29:16 GMT 40.214767 -2.844177 37,000 194 396 0
2022-06-21 17:29:13 GMT 40.229885 -2.839404 37,000 194 396 0
2022-06-21 17:29:08 GMT 40.229885 -2.839404 37,000 194 396 0
2022-06-21 17:29:06 GMT 40.233284 -2.838280 37,000 194 396 0
2022-06-21 17:29:02 GMT 40.239716 -2.836243 37,000 194 396 0
2022-06-21 17:28:59 GMT 40.245667 -2.834348 37,000 194 396 0
2022-06-21 17:28:53 GMT 40.255722 -2.831164 37,000 194 395 0
2022-06-21 17:28:48 GMT 40.264664 -2.828308 37,000 194 395 0
2022-06-21 17:28:46 GMT 40.268280 -2.827148 37,000 194 395 0
2022-06-21 17:28:43 GMT 40.273830 -2.825359 37,000 194 395 0
2022-06-21 17:28:37 GMT 40.282654 -2.822571 37,000 194 395 0
2022-06-21 17:28:35 GMT 40.287415 -2.821045 37,000 194 395 0
2022-06-21 17:28:32 GMT 40.292824 -2.819366 37,000 194 395 0
2022-06-21 17:28:26 GMT 40.304276 -2.815746 37,000 194 394 0
2022-06-21 17:28:22 GMT 40.310421 -2.813811 37,000 194 393 0
2022-06-21 17:28:18 GMT 40.317123 -2.811751 37,000 194 393 0
2022-06-21 17:28:16 GMT 40.321747 -2.810303 37,000 194 393 0
2022-06-21 17:28:13 GMT 40.328384 -2.808167 37,000 194 393 0
2022-06-21 17:28:08 GMT 40.334747 -2.806213 37,000 194 393 0
2022-06-21 17:28:05 GMT 40.340240 -2.804443 37,000 194 392 -64
2022-06-21 17:28:02 GMT 40.345940 -2.802700 37,000 194 392 -64
2022-06-21 17:27:57 GMT 40.353470 -2.800293 37,000 194 393 -64
2022-06-21 17:27:55 GMT 40.358551 -2.798706 37,000 194 391 -64
2022-06-21 17:27:51 GMT 40.365540 -2.796457 37,000 194 392 -64
2022-06-21 17:27:46 GMT 40.376431 -2.793024 37,000 194 391 0
2022-06-21 17:27:41 GMT 40.382439 -2.791089 37,000 194 391 0
2022-06-21 17:27:37 GMT 40.389679 -2.788757 37,000 194 391 -64
2022-06-21 17:27:35 GMT 40.393845 -2.787476 37,000 194 391 0
2022-06-21 17:27:32 GMT 40.399796 -2.785522 37,000 194 391 0
2022-06-21 17:27:27 GMT 40.407074 -2.783203 37,000 194 390 0
2022-06-21 17:27:24 GMT 40.413116 -2.781250 37,000 194 390 64
2022-06-21 17:27:21 GMT 40.417603 -2.779846 37,000 194 390 64
2022-06-21 17:27:18 GMT 40.423820 -2.777856 37,000 194 390 64
2022-06-21 17:27:15 GMT 40.429871 -2.775879 37,000 194 390 64
2022-06-21 17:27:12 GMT 40.433926 -2.774610 37,000 194 390 64
2022-06-21 17:27:08 GMT 40.441048 -2.772300 37,000 194 390 0
2022-06-21 17:27:05 GMT 40.447330 -2.770303 37,000 194 390 0
2022-06-21 17:27:01 GMT 40.452988 -2.768494 37,000 194 390 0
2022-06-21 17:26:58 GMT 40.458389 -2.766724 37,000 194 390 0
2022-06-21 17:26:54 GMT 40.465717 -2.764435 37,000 194 389 0
2022-06-21 17:26:51 GMT 40.470978 -2.762756 37,000 194 389 0
2022-06-21 17:26:47 GMT 40.477020 -2.760864 37,000 194 389 0
2022-06-21 17:26:44 GMT 40.483921 -2.758692 37,000 194 390 0
2022-06-21 17:26:41 GMT 40.488373 -2.757263 37,000 194 390 0
2022-06-21 17:26:38 GMT 40.493511 -2.755633 37,000 194 389 0
2022-06-21 17:26:34 GMT 40.501190 -2.753235 37,000 194 389 0
2022-06-21 17:26:31 GMT 40.506592 -2.751513 37,000 194 388 0
2022-06-21 17:26:28 GMT 40.511478 -2.749953 37,000 194 388 0
2022-06-21 17:26:23 GMT 40.519115 -2.747518 37,000 194 388 64
2022-06-21 17:26:20 GMT 40.524563 -2.745833 37,000 194 388 64
2022-06-21 17:26:17 GMT 40.529819 -2.744148 37,000 194 388 64
2022-06-21 17:26:11 GMT 40.541656 -2.740417 37,000 194 388 0
2022-06-21 17:26:08 GMT 40.546951 -2.738717 37,000 194 388 0
2022-06-21 17:26:04 GMT 40.555286 -2.736095 37,000 194 388 0
2022-06-21 17:26:01 GMT 40.560036 -2.734597 37,000 194 388 0
2022-06-21 17:25:58 GMT 40.564224 -2.733276 37,000 194 388 0
2022-06-21 17:25:51 GMT 40.575863 -2.729541 37,000 194 388 0
2022-06-21 17:25:48 GMT 40.581215 -2.727855 37,000 194 387 0
2022-06-21 17:25:44 GMT 40.587452 -2.725858 37,000 194 386 0
2022-06-21 17:25:41 GMT 40.598671 -2.722300 37,000 194 386 -64
2022-06-21 17:25:38 GMT 40.598671 -2.722300 37,000 194 386 -64
2022-06-21 17:25:34 GMT 40.605515 -2.720093 37,000 194 386 -64
2022-06-21 17:25:31 GMT 40.612656 -2.717834 37,000 194 385 0
2022-06-21 17:25:28 GMT 40.616035 -2.716744 37,000 194 385 0
2022-06-21 17:25:25 GMT 40.622040 -2.714809 37,000 194 385 0
2022-06-21 17:25:22 GMT 40.625347 -2.713748 37,000 194 384 0
2022-06-21 17:25:18 GMT 40.634171 -2.710938 37,000 194 384 0
2022-06-21 17:25:14 GMT 40.640167 -2.708984 37,000 194 384 0
2022-06-21 17:25:10 GMT 40.646896 -2.706848 37,000 194 384 0
2022-06-21 17:25:07 GMT 40.651474 -2.705383 37,000 194 384 0
2022-06-21 17:25:03 GMT 40.658211 -2.703199 37,000 194 384 0
2022-06-21 17:24:59 GMT 40.666313 -2.700577 37,000 194 384 0
2022-06-21 17:24:57 GMT 40.668182 -2.699951 37,000 194 384 0
2022-06-21 17:24:52 GMT 40.677567 -2.696960 37,000 194 384 0
2022-06-21 17:24:48 GMT 40.685677 -2.694335 37,000 194 384 0
2022-06-21 17:24:46 GMT 40.686607 -2.694022 37,000 194 384 64
2022-06-21 17:24:42 GMT 40.695236 -2.691284 37,000 194 383 64
2022-06-21 17:24:37 GMT 40.703136 -2.688717 37,000 194 384 64
2022-06-21 17:24:30 GMT 40.715656 -2.684722 37,000 194 384 0
2022-06-21 17:24:27 GMT 40.720917 -2.683036 37,000 194 384 0
2022-06-21 17:24:22 GMT 40.728973 -2.680414 37,000 194 384 -64
2022-06-21 17:24:19 GMT 40.734512 -2.678667 37,000 194 383 -64
2022-06-21 17:24:16 GMT 40.739960 -2.676941 37,000 194 383 -64
2022-06-21 17:24:11 GMT 40.748291 -2.674316 37,000 194 383 0
2022-06-21 17:24:07 GMT 40.755615 -2.671997 37,000 194 382 0
2022-06-21 17:24:02 GMT 40.764397 -2.669178 37,000 194 381 0
2022-06-21 17:23:59 GMT 40.769379 -2.667618 37,000 194 381 0
2022-06-21 17:23:56 GMT 40.784184 -2.662811 37,000 194 381 0
2022-06-21 17:23:50 GMT 40.784184 -2.662811 37,000 194 380 0
2022-06-21 17:23:47 GMT 40.789349 -2.661126 37,000 194 381 64
2022-06-21 17:23:41 GMT 40.799561 -2.657837 37,000 194 381 0
2022-06-21 17:23:37 GMT 40.807178 -2.655383 37,000 194 380 0
2022-06-21 17:23:31 GMT 40.817467 -2.652012 37,000 194 380 0
2022-06-21 17:23:27 GMT 40.823566 -2.650015 37,000 194 381 0
2022-06-21 17:23:23 GMT 40.830875 -2.647643 37,000 194 381 0
2022-06-21 17:23:21 GMT 40.834442 -2.646484 37,000 194 381 0
2022-06-21 17:23:17 GMT 40.840836 -2.644397 37,000 194 381 0
2022-06-21 17:23:10 GMT 40.852524 -2.640564 37,000 194 381 0
2022-06-21 17:23:07 GMT 40.858013 -2.638841 37,000 194 381 0
2022-06-21 17:23:03 GMT 40.865231 -2.636469 37,000 194 381 0
2022-06-21 17:22:59 GMT 40.871048 -2.634596 37,000 194 381 0
2022-06-21 17:22:56 GMT 40.876122 -2.632973 37,000 194 381 0
2022-06-21 17:22:50 GMT 40.887497 -2.629272 37,000 194 381 0
2022-06-21 17:22:47 GMT 40.892651 -2.627605 37,000 194 381 0
2022-06-21 17:22:42 GMT 40.900635 -2.625000 37,000 194 381 -64
2022-06-21 17:22:37 GMT 40.909882 -2.622070 37,000 194 381 -64
2022-06-21 17:22:31 GMT 40.919037 -2.619080 37,000 194 381 0
2022-06-21 17:22:27 GMT 40.927780 -2.616272 37,000 194 381 0
2022-06-21 17:22:21 GMT 40.936615 -2.613464 37,000 194 381 0
2022-06-21 17:22:18 GMT 40.941788 -2.611755 37,000 194 381 64
2022-06-21 17:22:15 GMT 40.946789 -2.610189 37,000 194 381 64
2022-06-21 17:22:11 GMT 40.953587 -2.607942 37,000 194 381 0
2022-06-21 17:22:09 GMT 40.957962 -2.606569 37,000 194 382 0
2022-06-21 17:22:05 GMT 40.962708 -2.604980 37,000 194 382 0
2022-06-21 17:22:02 GMT 40.969986 -2.602661 37,000 194 382 0
2022-06-21 17:21:58 GMT 40.976120 -2.600708 37,000 194 382 -64
2022-06-21 17:21:55 GMT 40.980469 -2.599304 37,000 194 382 -64
2022-06-21 17:21:51 GMT 40.988781 -2.596581 37,000 194 381 -64
2022-06-21 17:21:48 GMT 40.994751 -2.594666 37,000 194 381 -64
2022-06-21 17:21:45 GMT 40.998791 -2.593398 37,000 194 381 -64
2022-06-21 17:21:41 GMT 41.005508 -2.591187 37,000 194 381 0
2022-06-21 17:21:38 GMT 41.010891 -2.589465 37,000 194 381 0
2022-06-21 17:21:34 GMT 41.017593 -2.587280 37,000 194 381 64
2022-06-21 17:21:31 GMT 41.023499 -2.585388 37,000 194 381 64
2022-06-21 17:21:26 GMT 41.031235 -2.582848 37,000 194 381 64
2022-06-21 17:21:23 GMT 41.036541 -2.581163 37,000 194 381 64
2022-06-21 17:21:20 GMT 41.041523 -2.579540 37,000 194 381 0
2022-06-21 17:21:17 GMT 41.048134 -2.577355 37,000 194 381 64
2022-06-21 17:21:10 GMT 41.058422 -2.574047 37,000 194 381 0
2022-06-21 17:21:05 GMT 41.067173 -2.571175 37,000 194 381 0
2022-06-21 17:21:00 GMT 41.075821 -2.568359 37,000 194 381 0
2022-06-21 17:20:56 GMT 41.083000 -2.566057 37,000 194 381 0
2022-06-21 17:20:50 GMT 41.093102 -2.562748 37,000 194 381 0
2022-06-21 17:20:46 GMT 41.099949 -2.560501 37,000 194 381 0
2022-06-21 17:20:39 GMT 41.111618 -2.556702 37,000 194 380 0
2022-06-21 17:20:35 GMT 41.118893 -2.554384 37,000 194 380 0
2022-06-21 17:20:30 GMT 41.128574 -2.551200 37,000 194 379 0
2022-06-21 17:20:25 GMT 41.135376 -2.548950 37,000 194 379 0
2022-06-21 17:20:20 GMT 41.144943 -2.545837 37,000 194 379 64
2022-06-21 17:20:15 GMT 41.153156 -2.543148 37,000 194 378 0
2022-06-21 17:20:12 GMT 41.158951 -2.541260 37,000 194 378 0
2022-06-21 17:20:05 GMT 41.170010 -2.537655 37,000 194 378 0
2022-06-21 17:19:59 GMT 41.179226 -2.534596 37,000 194 377 0
2022-06-21 17:19:54 GMT 41.187881 -2.531799 37,000 194 377 -64
2022-06-21 17:19:48 GMT 41.197906 -2.528564 37,000 194 377 0
2022-06-21 17:19:45 GMT 41.205620 -2.526044 37,000 194 376 0
2022-06-21 17:19:38 GMT 41.214752 -2.523071 37,000 194 376 0
2022-06-21 17:19:34 GMT 41.222195 -2.520613 37,000 194 376 0
2022-06-21 17:19:29 GMT 41.230572 -2.517929 37,000 194 376 0
2022-06-21 17:19:23 GMT 41.240524 -2.514648 37,000 194 376 0
2022-06-21 17:19:18 GMT 41.249054 -2.511874 37,000 194 376 64
2022-06-21 17:19:13 GMT 41.258331 -2.508850 37,000 194 377 0
2022-06-21 17:19:09 GMT 41.265392 -2.506568 37,000 194 377 0
2022-06-21 17:19:03 GMT 41.274704 -2.503510 37,000 194 377 0
2022-06-21 17:18:59 GMT 41.282776 -2.500916 37,000 194 377 0
2022-06-21 17:18:53 GMT 41.292114 -2.497892 37,000 194 377 -64
2022-06-21 17:18:48 GMT 41.299622 -2.495422 37,000 194 376 0
2022-06-21 17:18:45 GMT 41.305435 -2.493530 37,000 194 376 0
2022-06-21 17:18:42 GMT 41.310333 -2.491943 37,000 194 376 0
2022-06-21 17:18:39 GMT 41.317474 -2.489624 37,000 194 376 0
2022-06-21 17:18:35 GMT 41.322372 -2.487976 37,000 194 376 0
2022-06-21 17:18:33 GMT 41.327400 -2.486343 37,000 194 376 0
2022-06-21 17:18:28 GMT 41.334778 -2.483948 37,000 194 376 0
2022-06-21 17:18:24 GMT 41.343040 -2.481225 37,000 194 377 0
2022-06-21 17:18:17 GMT 41.352398 -2.478166 37,000 194 377 0
2022-06-21 17:18:14 GMT 41.358265 -2.476293 37,000 194 377 0
2022-06-21 17:18:12 GMT 41.361244 -2.475357 37,000 194 378 0
2022-06-21 17:18:06 GMT 41.371216 -2.472107 37,000 194 378 0
2022-06-21 17:18:03 GMT 41.376480 -2.470398 37,000 194 378 0
2022-06-21 17:17:57 GMT 41.387081 -2.466942 37,000 194 378 0
2022-06-21 17:17:54 GMT 41.391586 -2.465494 37,000 194 379 0
2022-06-21 17:17:52 GMT 41.395042 -2.464323 37,000 194 380 0
2022-06-21 17:17:46 GMT 41.405273 -2.461000 37,000 194 380 0
2022-06-21 17:17:43 GMT 41.409054 -2.459724 37,000 194 380 0
2022-06-21 17:17:36 GMT 41.422852 -2.455195 37,000 194 381 0
2022-06-21 17:17:33 GMT 41.426743 -2.453911 37,000 194 381 0
2022-06-21 17:17:29 GMT 41.433609 -2.451637 37,000 194 381 0
2022-06-21 17:17:25 GMT 41.440475 -2.449376 37,000 195 382 0
2022-06-21 17:17:22 GMT 41.448807 -2.446580 37,000 195 382 0
2022-06-21 17:17:14 GMT 41.460354 -2.442733 37,000 195 383 0
2022-06-21 17:17:11 GMT 41.465988 -2.440881 37,000 195 383 0
2022-06-21 17:17:05 GMT 41.476322 -2.437432 37,000 195 383 0
2022-06-21 17:17:02 GMT 41.481022 -2.435835 37,000 195 383 0
2022-06-21 17:16:54 GMT 41.498108 -2.430086 37,000 195 384 0
2022-06-21 17:16:52 GMT 41.498108 -2.430086 37,000 195 384 0
2022-06-21 17:16:44 GMT 41.512493 -2.425232 37,000 195 385 0
2022-06-21 17:16:41 GMT 41.516144 -2.423983 37,000 195 385 0
2022-06-21 17:16:35 GMT 41.528831 -2.419803 37,000 195 386 0
2022-06-21 17:16:29 GMT 41.537910 -2.416737 37,000 195 386 0
2022-06-21 17:16:23 GMT 41.556747 -2.410500 37,000 194 386 -64
2022-06-21 17:16:19 GMT 41.556747 -2.410500 37,000 194 386 -64
2022-06-21 17:16:13 GMT 41.565285 -2.407667 37,000 194 386 -64
2022-06-21 17:16:11 GMT 41.568878 -2.406505 37,000 194 387 0
2022-06-21 17:16:03 GMT 41.583801 -2.401574 37,000 194 387 64
2022-06-21 17:15:59 GMT 41.590050 -2.399491 37,000 194 387 64
2022-06-21 17:15:54 GMT 41.598846 -2.396616 37,000 194 387 0
2022-06-21 17:15:51 GMT 41.604061 -2.394892 37,000 194 388 0
2022-06-21 17:15:43 GMT 41.616623 -2.390775 37,000 194 388 0
2022-06-21 17:15:40 GMT 41.622265 -2.388952 37,000 194 389 0
2022-06-21 17:15:33 GMT 41.636833 -2.384225 37,000 194 389 -64
2022-06-21 17:15:30 GMT 41.639671 -2.383331 37,000 194 389 0
2022-06-21 17:15:21 GMT 41.658646 -2.377104 37,000 194 389 0
2022-06-21 17:15:13 GMT 41.670547 -2.373234 37,000 194 389 0
2022-06-21 17:15:10 GMT 41.675007 -2.371769 37,000 194 390 0
2022-06-21 17:15:03 GMT 41.688171 -2.367491 37,000 194 390 0
2022-06-21 17:15:00 GMT 41.692928 -2.365893 37,000 194 390 0
2022-06-21 17:14:57 GMT 41.699913 -2.363657 37,000 194 390 0
2022-06-21 17:14:52 GMT 41.706528 -2.361436 37,000 194 390 0
2022-06-21 17:14:49 GMT 41.711700 -2.359751 37,000 194 390 0
2022-06-21 17:14:46 GMT 41.717693 -2.357781 37,000 194 390 0
2022-06-21 17:14:41 GMT 41.726578 -2.354882 37,000 194 389 -64
2022-06-21 17:14:36 GMT 41.735825 -2.351823 37,000 194 389 -64
2022-06-21 17:14:33 GMT 41.740036 -2.350388 37,000 194 389 0
2022-06-21 17:14:31 GMT 41.742004 -2.349763 37,000 194 389 0
2022-06-21 17:14:29 GMT 41.746883 -2.348136 37,000 194 389 0
2022-06-21 17:14:26 GMT 41.754147 -2.345709 37,000 194 389 0
2022-06-21 17:14:22 GMT 41.759125 -2.344083 37,000 194 389 0
2022-06-21 17:14:19 GMT 41.764297 -2.342335 37,000 194 389 0
2022-06-21 17:14:15 GMT 41.772400 -2.339651 37,000 195 389 0
2022-06-21 17:14:12 GMT 41.781563 -2.336575 37,000 195 389 0
2022-06-21 17:14:10 GMT 41.781563 -2.336575 37,000 195 389 0
2022-06-21 17:14:02 GMT 41.794876 -2.332098 37,000 195 389 0
2022-06-21 17:13:58 GMT 41.800884 -2.330060 37,000 195 389 0
2022-06-21 17:13:55 GMT 41.808006 -2.327696 37,000 195 389 0
2022-06-21 17:13:52 GMT 41.812428 -2.326227 37,000 195 389 0
2022-06-21 17:13:49 GMT 41.817078 -2.324607 37,000 195 390 0
2022-06-21 17:13:42 GMT 41.829483 -2.320425 37,000 195 390 0
2022-06-21 17:13:39 GMT 41.834866 -2.318626 37,000 195 390 0
2022-06-21 17:13:31 GMT 41.848160 -2.314120 37,000 195 389 -64
2022-06-21 17:13:29 GMT 41.854065 -2.312123 37,000 195 389 -64
2022-06-21 17:13:23 GMT 41.862900 -2.309126 37,025 194 389 0
2022-06-21 17:13:21 GMT 41.864868 -2.308502 37,025 194 389 0
2022-06-21 17:13:18 GMT 41.871082 -2.306426 37,025 194 389 0
2022-06-21 17:13:11 GMT 41.882858 -2.302510 37,000 194 389 0
2022-06-21 17:13:07 GMT 41.890823 -2.299888 37,000 194 389 64
2022-06-21 17:13:00 GMT 41.901169 -2.296455 37,000 194 389 64
2022-06-21 17:12:57 GMT 41.907814 -2.294226 37,000 194 389 64
2022-06-21 17:12:51 GMT 41.917877 -2.290899 37,000 194 389 64
2022-06-21 17:12:47 GMT 41.925133 -2.288542 37,000 194 389 0
2022-06-21 17:12:40 GMT 41.936909 -2.284645 37,000 194 389 0
2022-06-21 17:12:36 GMT 41.944405 -2.282154 37,000 194 389 0
2022-06-21 17:12:30 GMT 41.954136 -2.278960 37,000 194 389 -64
2022-06-21 17:12:26 GMT 41.961628 -2.276469 37,025 194 389 -128
2022-06-21 17:12:22 GMT 41.970707 -2.273467 37,025 194 388 -128
2022-06-21 17:12:19 GMT 41.974709 -2.272126 37,025 194 388 -64
2022-06-21 17:12:17 GMT 41.979691 -2.270465 37,025 194 387 -64
2022-06-21 17:12:11 GMT 41.988724 -2.267527 37,025 194 386 0
2022-06-21 17:12:08 GMT 41.994774 -2.265483 37,025 194 386 64
2022-06-21 17:11:59 GMT 42.008560 -2.260874 37,000 194 386 128
2022-06-21 17:11:55 GMT 42.016048 -2.258393 37,000 194 386 128
2022-06-21 17:11:49 GMT 42.025635 -2.255131 36,975 195 386 64
2022-06-21 17:11:46 GMT 42.032959 -2.252697 37,000 195 386 0
2022-06-21 17:11:39 GMT 42.042816 -2.249451 37,000 194 386 -64
2022-06-21 17:11:33 GMT 42.054108 -2.245643 37,000 194 385 64
2022-06-21 17:11:29 GMT 42.060013 -2.243645 37,000 194 386 0
2022-06-21 17:11:22 GMT 42.073215 -2.239231 37,000 194 385 64
2022-06-21 17:11:19 GMT 42.077965 -2.237634 37,000 194 385 64
2022-06-21 17:11:15 GMT 42.086655 -2.234781 37,000 194 385 64
2022-06-21 17:11:09 GMT 42.095467 -2.231821 37,000 194 385 0
2022-06-21 17:11:03 GMT 42.105423 -2.228477 37,000 194 386 0
2022-06-21 17:10:59 GMT 42.113342 -2.225855 37,000 194 386 0
2022-06-21 17:10:49 GMT 42.130554 -2.220112 37,000 194 386 0
2022-06-21 17:10:39 GMT 42.149513 -2.213745 37,000 195 386 -64
2022-06-21 17:10:28 GMT 42.166832 -2.207869 37,000 195 385 0
2022-06-21 17:10:24 GMT 42.173355 -2.205693 37,000 195 385 -64
2022-06-21 17:10:22 GMT 42.176468 -2.204631 37,025 195 385 -64
2022-06-21 17:10:18 GMT 42.183544 -2.202184 37,025 195 384 -64
2022-06-21 17:10:16 GMT 42.187126 -2.200970 37,025 195 384 0
2022-06-21 17:10:07 GMT 42.203339 -2.195393 37,000 195 384 0
2022-06-21 17:09:58 GMT 42.219452 -2.189837 37,000 195 383 64
2022-06-21 17:09:51 GMT 42.230713 -2.185905 37,000 195 383 64
2022-06-21 17:09:46 GMT 42.239731 -2.182784 36,975 195 383 0
2022-06-21 17:09:42 GMT 42.246964 -2.180224 37,000 195 382 -64
2022-06-21 17:09:38 GMT 42.253418 -2.178040 37,000 195 382 -128
2022-06-21 17:09:36 GMT 42.261936 -2.175101 37,000 195 382 -128
2022-06-21 17:09:27 GMT 42.272278 -2.171610 37,000 194 382 0
2022-06-21 17:09:16 GMT 42.289673 -2.166054 37,000 193 381 64
2022-06-21 17:09:11 GMT 42.299973 -2.162933 37,000 193 382 64
2022-06-21 17:09:05 GMT 42.308899 -2.160187 37,000 193 383 0
2022-06-21 17:08:55 GMT 42.326553 -2.154853 37,000 193 383 0
2022-06-21 17:08:45 GMT 42.343460 -2.149762 37,000 193 384 0
2022-06-21 17:08:40 GMT 42.354767 -2.146329 37,000 193 384 -64
2022-06-21 17:08:35 GMT 42.360767 -2.144506 37,000 193 384 -64
2022-06-21 17:08:25 GMT 42.379578 -2.138776 37,000 193 384 -64
2022-06-21 17:08:14 GMT 42.397263 -2.133392 37,000 193 384 0
2022-06-21 17:08:03 GMT 42.415047 -2.127898 37,000 194 383 64
2022-06-21 17:07:54 GMT 42.432541 -2.122359 37,000 194 384 128
2022-06-21 17:07:43 GMT 42.450302 -2.116366 37,000 194 385 -64
2022-06-21 17:07:32 GMT 42.472446 -2.111291 37,000 185 387 -64
2022-06-21 17:07:24 GMT 42.483994 -2.111123 37,025 174 390 -64
2022-06-21 17:07:22 GMT 42.487518 -2.111435 37,025 173 391 -64
2022-06-21 17:07:14 GMT 42.503078 -2.115124 37,000 164 396 64
2022-06-21 17:07:03 GMT 42.524258 -2.124258 37,000 161 397 0
2022-06-21 17:06:54 GMT 42.537918 -2.130286 37,000 161 397 0
2022-06-21 17:06:52 GMT 42.541489 -2.131847 37,000 161 397 0
2022-06-21 17:06:45 GMT 42.554398 -2.137590 37,000 161 397 0
2022-06-21 17:06:43 GMT 42.556194 -2.138374 37,000 161 397 0
2022-06-21 17:06:38 GMT 42.564808 -2.142206 37,000 161 398 0
2022-06-21 17:06:32 GMT 42.577190 -2.147699 37,000 161 398 0
2022-06-21 17:06:23 GMT 42.591572 -2.154151 37,000 161 398 -64
2022-06-21 17:06:21 GMT 42.595459 -2.155880 37,000 161 398 -64
2022-06-21 17:06:13 GMT 42.609402 -2.162135 37,000 161 398 -64
2022-06-21 17:06:09 GMT 42.615738 -2.164993 37,000 161 398 0
2022-06-21 17:06:03 GMT 42.626999 -2.170049 37,000 161 398 64
2022-06-21 17:06:01 GMT 42.631329 -2.171972 37,000 161 398 0
2022-06-21 17:05:52 GMT 42.645622 -2.178423 37,000 161 398 64
2022-06-21 17:05:50 GMT 42.650116 -2.180474 37,000 161 398 64
2022-06-21 17:05:42 GMT 42.662933 -2.186217 37,000 161 398 -64
2022-06-21 17:05:39 GMT 42.667919 -2.188451 37,000 161 398 -128
2022-06-21 17:05:32 GMT 42.680054 -2.193957 37,000 161 398 -64
2022-06-21 17:05:30 GMT 42.685982 -2.196627 37,025 161 398 -64
2022-06-21 17:05:25 GMT 42.694267 -2.200332 37,025 161 399 0
2022-06-21 17:05:21 GMT 42.699051 -2.202509 37,025 161 399 0
2022-06-21 17:05:18 GMT 42.705414 -2.205381 37,025 161 399 0
2022-06-21 17:05:12 GMT 42.716240 -2.210232 37,000 161 400 64
2022-06-21 17:05:09 GMT 42.721455 -2.212595 37,000 161 401 128
2022-06-21 17:05:02 GMT 42.734116 -2.218344 37,000 161 402 64
2022-06-21 17:04:58 GMT 42.740479 -2.221236 37,000 161 403 64
2022-06-21 17:04:52 GMT 42.752472 -2.226604 37,000 161 405 0
2022-06-21 17:04:49 GMT 42.759018 -2.229538 37,000 161 405 0
2022-06-21 17:04:42 GMT 42.770187 -2.234594 37,000 161 406 0
2022-06-21 17:04:38 GMT 42.777100 -2.237715 37,000 161 406 -64
2022-06-21 17:04:35 GMT 42.784607 -2.241149 37,000 161 406 -64
2022-06-21 17:04:32 GMT 42.788040 -2.242709 37,000 161 406 -64
2022-06-21 17:04:27 GMT 42.795181 -2.245893 37,025 161 406 0
2022-06-21 17:04:22 GMT 42.806179 -2.250920 37,000 161 407 0
2022-06-21 17:04:18 GMT 42.813080 -2.254050 37,000 161 407 0
2022-06-21 17:04:10 GMT 42.825592 -2.259718 37,000 161 408 64
2022-06-21 17:04:07 GMT 42.831272 -2.262268 37,000 161 408 64
2022-06-21 17:04:03 GMT 42.838814 -2.265734 37,000 161 408 128
2022-06-21 17:04:00 GMT 42.843979 -2.268154 37,000 161 408 64
2022-06-21 17:03:56 GMT 42.851303 -2.271487 37,000 161 409 0
2022-06-21 17:03:53 GMT 42.856613 -2.273914 37,000 161 409 0
2022-06-21 17:03:49 GMT 42.863754 -2.277172 37,000 161 410 0
2022-06-21 17:03:47 GMT 42.867188 -2.278769 37,000 161 410 -64
2022-06-21 17:03:44 GMT 42.874146 -2.281899 37,000 161 410 -64
2022-06-21 17:03:40 GMT 42.879410 -2.284326 37,000 161 409 -64
2022-06-21 17:03:37 GMT 42.886505 -2.287520 37,000 161 409 0
2022-06-21 17:03:31 GMT 42.896622 -2.292119 37,000 161 409 0
2022-06-21 17:03:26 GMT 42.904953 -2.295951 37,000 161 409 0
2022-06-21 17:03:20 GMT 42.915997 -2.300982 37,000 161 408 0
2022-06-21 17:03:16 GMT 42.923443 -2.304382 37,000 161 408 0
2022-06-21 17:03:13 GMT 42.928574 -2.306682 37,000 161 407 64
2022-06-21 17:03:08 GMT 42.937595 -2.310791 37,000 161 407 64
2022-06-21 17:03:06 GMT 42.941025 -2.312367 37,000 161 407 0
2022-06-21 17:02:57 GMT 42.958263 -2.320208 37,000 161 407 0
2022-06-21 17:02:52 GMT 42.967297 -2.324328 37,000 161 407 0
2022-06-21 17:02:48 GMT 42.972698 -2.326747 37,000 161 406 64
2022-06-21 17:02:46 GMT 42.976189 -2.328317 37,000 161 406 64
2022-06-21 17:02:44 GMT 42.979431 -2.329804 37,000 161 406 64
2022-06-21 17:02:37 GMT 42.993256 -2.336064 37,000 161 406 -64
2022-06-21 17:02:35 GMT 42.997147 -2.337852 37,000 161 406 -64
2022-06-21 17:02:30 GMT 43.005936 -2.341854 37,000 161 406 -64
2022-06-21 17:02:26 GMT 43.012436 -2.344815 37,000 161 406 0
2022-06-21 17:02:18 GMT 43.026947 -2.351457 37,000 161 405 0
2022-06-21 17:02:15 GMT 43.031586 -2.353559 37,000 161 405 0
2022-06-21 17:02:07 GMT 43.046082 -2.360208 37,025 161 405 64
2022-06-21 17:02:05 GMT 43.049561 -2.361805 37,000 161 405 64
2022-06-21 17:01:58 GMT 43.062103 -2.367554 37,000 161 405 0
2022-06-21 17:01:53 GMT 43.069244 -2.370823 37,000 161 405 -64
2022-06-21 17:01:49 GMT 43.078880 -2.375205 37,025 161 405 0
2022-06-21 17:01:44 GMT 43.087051 -2.378987 37,000 161 404 0
2022-06-21 17:01:39 GMT 43.097443 -2.383650 37,000 161 404 0
2022-06-21 17:01:35 GMT 43.103302 -2.386333 37,000 161 404 0
2022-06-21 17:01:27 GMT 43.116451 -2.392338 37,000 161 405 0
2022-06-21 17:01:24 GMT 43.121750 -2.394764 37,000 161 405 64
2022-06-21 17:01:18 GMT 43.133579 -2.400186 37,000 161 405 0
2022-06-21 17:01:14 GMT 43.140285 -2.403259 37,000 161 405 0
2022-06-21 17:01:07 GMT 43.152649 -2.408880 37,000 161 405 0
2022-06-21 17:01:03 GMT 43.158096 -2.411435 37,000 161 406 0
2022-06-21 17:00:58 GMT 43.170410 -2.417056 37,000 161 406 0
2022-06-21 17:00:53 GMT 43.176773 -2.419930 37,000 161 406 64
2022-06-21 17:00:47 GMT 43.188400 -2.425296 37,000 161 406 64
2022-06-21 17:00:35 GMT 43.208904 -2.434714 37,000 161 406 0
2022-06-21 17:00:32 GMT 43.214767 -2.437461 37,000 161 406 0
2022-06-21 17:00:24 GMT 43.229507 -2.444203 37,000 161 406 -64
2022-06-21 17:00:12 GMT 43.267548 -2.461704 37,000 161 405 0
2022-06-21 17:00:02 GMT 43.284256 -2.469433 37,000 161 405 0
2022-06-21 16:59:53 GMT 43.284256 -2.469433 37,000 161 404 0
2022-06-21 16:59:45 GMT 43.297398 -2.475521 37,000 161 404 0
2022-06-21 16:59:39 GMT 43.308975 -2.480866 37,000 161 404 0
2022-06-21 16:59:34 GMT 43.319420 -2.485657 37,000 161 404 64
2022-06-21 16:59:29 GMT 43.327057 -2.489170 37,000 161 404 0
2022-06-21 16:59:24 GMT 43.334827 -2.492719 37,000 161 404 0
2022-06-21 16:59:21 GMT 43.339993 -2.495139 37,000 161 404 0
2022-06-21 16:59:17 GMT 43.348045 -2.498866 37,000 161 404 64
2022-06-21 16:59:13 GMT 43.354656 -2.501940 37,000 161 404 64
2022-06-21 16:59:08 GMT 43.363358 -2.505905 37,000 161 404 0
2022-06-21 16:59:05 GMT 43.370682 -2.509354 37,000 161 404 -64
2022-06-21 16:59:02 GMT 43.374210 -2.510965 37,000 161 404 -64
2022-06-21 16:58:51 GMT 43.393902 -2.520120 37,025 161 403 0
2022-06-21 16:58:46 GMT 43.402222 -2.523981 37,000 161 402 0
2022-06-21 16:58:41 GMT 43.411102 -2.528069 37,000 161 402 0
2022-06-21 16:58:31 GMT 43.429001 -2.536373 37,000 161 402 -128
2022-06-21 16:58:24 GMT 43.442688 -2.542746 37,000 161 401 0
2022-06-21 16:58:21 GMT 43.446075 -2.544293 37,000 161 400 0
2022-06-21 16:58:18 GMT 43.453346 -2.547716 37,000 161 400 64
2022-06-21 16:58:10 GMT 43.465080 -2.553144 37,000 161 400 0
2022-06-21 16:58:08 GMT 43.469082 -2.554975 37,000 161 400 0
2022-06-21 16:58:01 GMT 43.481884 -2.560926 37,000 161 400 0
2022-06-21 16:57:56 GMT 43.490402 -2.564915 37,000 161 400 0
2022-06-21 16:57:52 GMT 43.499313 -2.569012 37,000 161 400 0
2022-06-21 16:57:47 GMT 43.506512 -2.572370 37,000 161 400 0
2022-06-21 16:57:41 GMT 43.517395 -2.577380 37,000 161 400 0
2022-06-21 16:57:37 GMT 43.522850 -2.579891 37,000 161 400 0
2022-06-21 16:57:31 GMT 43.533466 -2.584861 37,000 161 400 -64
2022-06-21 16:57:28 GMT 43.539982 -2.587869 37,000 161 400 -64
2022-06-21 16:57:20 GMT 43.555904 -2.595258 37,000 161 400 0
2022-06-21 16:57:16 GMT 43.559769 -2.597024 37,000 161 400 0
2022-06-21 16:57:08 GMT 43.575500 -2.604348 37,000 161 399 0
2022-06-21 16:56:59 GMT 43.590088 -2.611105 37,000 161 398 0
2022-06-21 16:56:56 GMT 43.595123 -2.613469 37,000 161 398 64
2022-06-21 16:56:50 GMT 43.606739 -2.618866 37,000 161 398 64
2022-06-21 16:56:47 GMT 43.611393 -2.621024 37,000 161 399 64
2022-06-21 16:56:40 GMT 43.624512 -2.627138 37,000 161 399 0
2022-06-21 16:56:37 GMT 43.629181 -2.629309 37,000 161 399 0
2022-06-21 16:56:29 GMT 43.642731 -2.635569 37,000 161 399 -64
2022-06-21 16:56:25 GMT 43.648823 -2.638419 37,000 161 399 -64
2022-06-21 16:56:19 GMT 43.660400 -2.643809 37,000 161 397 0
2022-06-21 16:56:16 GMT 43.664555 -2.645743 37,000 161 397 0
2022-06-21 16:56:08 GMT 43.679966 -2.652871 37,000 161 397 0
2022-06-21 16:56:06 GMT 43.682419 -2.654029 37,000 161 397 0
2022-06-21 16:55:59 GMT 43.695839 -2.660195 37,000 161 397 -64
2022-06-21 16:55:57 GMT 43.699051 -2.661634 37,000 160 397 0
2022-06-21 16:55:49 GMT 43.713455 -2.668847 37,000 157 399 0
2022-06-21 16:55:44 GMT 43.723068 -2.674277 37,000 156 401 0
2022-06-21 16:55:39 GMT 43.734898 -2.681776 37,000 154 402 0
2022-06-21 16:55:36 GMT 43.734898 -2.681776 37,000 146 407 0
2022-06-21 16:55:28 GMT 43.747463 -2.690800 37,000 150 405 0
2022-06-21 16:55:25 GMT 43.751610 -2.694005 37,000 149 405 0
2022-06-21 16:55:18 GMT 43.764179 -2.704599 37,000 145 408 0
2022-06-21 16:55:14 GMT 43.770508 -2.710615 37,000 145 410 0
2022-06-21 16:55:06 GMT 43.783127 -2.723040 37,000 144 410 0
2022-06-21 16:54:57 GMT 43.795788 -2.735661 37,000 144 410 64
2022-06-21 16:54:55 GMT 43.799419 -2.739192 37,000 144 411 0
2022-06-21 16:54:47 GMT 43.811195 -2.750898 37,000 144 411 0
2022-06-21 16:54:43 GMT 43.818272 -2.757961 37,000 144 411 -64
2022-06-21 16:54:36 GMT 43.827675 -2.767312 37,000 144 411 0
2022-06-21 16:54:34 GMT 43.831924 -2.771557 37,000 144 411 0
2022-06-21 16:54:27 GMT 43.842361 -2.781904 37,000 144 411 -64
2022-06-21 16:54:24 GMT 43.846527 -2.786056 37,000 144 411 -64
2022-06-21 16:54:15 GMT 43.861240 -2.800664 37,000 144 411 0
2022-06-21 16:54:13 GMT 43.863522 -2.802952 37,000 144 411 0
2022-06-21 16:54:06 GMT 43.875252 -2.814658 37,000 144 410 0
2022-06-21 16:54:04 GMT 43.878185 -2.817601 37,000 144 410 0
2022-06-21 16:53:56 GMT 43.890564 -2.829938 37,000 144 410 0
2022-06-21 16:53:54 GMT 43.895363 -2.834669 37,000 144 409 0
2022-06-21 16:53:46 GMT 43.904938 -2.844245 37,000 144 409 64
2022-06-21 16:53:44 GMT 43.908768 -2.848075 37,000 144 408 0
2022-06-21 16:53:35 GMT 43.921646 -2.860916 37,000 144 408 0
2022-06-21 16:53:31 GMT 43.930252 -2.869539 37,000 144 407 0
2022-06-21 16:53:23 GMT 43.942520 -2.881739 37,000 144 406 0
2022-06-21 16:53:15 GMT 43.953781 -2.892981 37,000 144 406 0
2022-06-21 16:53:11 GMT 43.958405 -2.897644 37,000 144 407 0
2022-06-21 16:53:05 GMT 43.967842 -2.906996 37,000 144 407 -64
2022-06-21 16:53:02 GMT 43.973057 -2.912227 37,000 144 407 0
2022-06-21 16:52:54 GMT 43.984634 -2.923705 37,000 144 407 0
2022-06-21 16:52:52 GMT 43.987629 -2.926679 37,000 144 407 0
2022-06-21 16:52:43 GMT 44.003220 -2.942228 37,000 144 408 -64
2022-06-21 16:52:34 GMT 44.015141 -2.954145 37,000 144 408 0
2022-06-21 16:52:29 GMT 44.022869 -2.961927 37,000 144 408 0
2022-06-21 16:52:24 GMT 44.030502 -2.969578 37,000 143 409 0
2022-06-21 16:52:10 GMT 44.052986 -2.992270 37,000 143 410 -64
2022-06-21 16:52:03 GMT 44.062252 -3.001687 37,000 143 410 64
2022-06-21 16:52:00 GMT 44.068314 -3.007827 37,000 143 410 64
2022-06-21 16:51:43 GMT 44.094086 -3.034015 37,000 143 411 0
2022-06-21 16:51:41 GMT 44.097336 -3.037273 37,000 143 412 0
2022-06-21 16:51:24 GMT 44.122444 -3.062766 37,000 143 412 64
2022-06-21 16:51:14 GMT 44.138489 -3.078982 37,000 143 412 64
2022-06-21 16:51:04 GMT 44.154144 -3.094951 37,000 143 412 -64
2022-06-21 16:50:56 GMT 44.165459 -3.106580 37,000 143 413 0
2022-06-21 16:50:53 GMT 44.169708 -3.110919 37,000 143 413 0
2022-06-21 16:50:46 GMT 44.180912 -3.122537 37,000 143 412 -64
2022-06-21 16:50:37 GMT 44.195763 -3.135927 37,000 150 408 0
2022-06-21 16:50:27 GMT 44.212006 -3.146994 37,000 158 405 0
2022-06-21 16:49:58 GMT 44.265545 -3.161517 37,000 177 401 0
2022-06-21 16:49:56 GMT 44.267715 -3.161643 37,000 178 401 0
2022-06-21 16:47:35 GMT 44.531033 -3.175652 37,000 177 404 0
2022-06-21 16:47:26 GMT 44.566223 -3.177468 37,000 177 405 0
2022-06-21 16:47:16 GMT 44.566223 -3.177468 37,000 177 405 0
2022-06-21 16:46:51 GMT 44.613293 -3.179872 37,000 177 405 0
2022-06-21 16:46:42 GMT 44.630188 -3.180810 37,000 177 405 0
2022-06-21 16:46:30 GMT 44.651688 -3.181981 37,000 177 405 0
2022-06-21 16:46:21 GMT 44.669060 -3.182887 37,000 177 405 -64
2022-06-21 16:46:14 GMT 44.681854 -3.183616 37,000 177 405 -64
2022-06-21 16:46:10 GMT 44.689590 -3.184025 37,000 177 405 64
2022-06-21 16:46:05 GMT 44.699112 -3.184531 37,000 177 405 0
2022-06-21 16:45:59 GMT 44.709869 -3.185120 37,000 177 405 64
2022-06-21 16:45:44 GMT 44.737976 -3.186689 37,000 177 405 0
2022-06-21 16:45:38 GMT 44.748711 -3.187308 37,000 177 405 0
2022-06-21 16:45:35 GMT 44.754318 -3.187605 37,000 177 405 0
2022-06-21 16:45:28 GMT 44.767937 -3.188380 37,000 177 405 -64
2022-06-21 16:45:25 GMT 44.774048 -3.188716 37,000 177 405 0
2022-06-21 16:45:17 GMT 44.789108 -3.189501 37,000 177 405 -64
2022-06-21 16:45:07 GMT 44.807693 -3.190482 37,000 177 404 0
2022-06-21 16:44:55 GMT 44.829758 -3.191659 37,000 177 404 -64
2022-06-21 16:44:46 GMT 44.847244 -3.192575 37,000 177 404 0
2022-06-21 16:44:37 GMT 44.863880 -3.193471 37,000 177 404 0
2022-06-21 16:44:34 GMT 44.868538 -3.193739 37,000 177 404 0
2022-06-21 16:44:24 GMT 44.887810 -3.194677 37,000 177 404 -64
2022-06-21 16:44:12 GMT 44.910015 -3.195816 37,000 177 404 64
2022-06-21 16:44:06 GMT 44.922546 -3.196498 37,000 177 404 64
2022-06-21 16:44:03 GMT 44.927147 -3.196754 37,000 177 404 64
2022-06-21 16:43:56 GMT 44.940739 -3.197490 37,000 177 403 0
2022-06-21 16:43:51 GMT 44.948456 -3.197872 37,000 177 403 0
2022-06-21 16:43:45 GMT 44.960403 -3.198526 37,000 177 403 0
2022-06-21 16:43:41 GMT 44.967041 -3.198918 37,000 177 403 0
2022-06-21 16:43:35 GMT 44.978401 -3.199567 37,000 177 403 0
2022-06-21 16:43:30 GMT 44.988190 -3.200095 37,000 177 403 0
2022-06-21 16:43:24 GMT 44.998928 -3.200706 37,000 177 403 0
2022-06-21 16:43:18 GMT 45.012589 -3.201468 37,000 177 404 0
2022-06-21 16:43:13 GMT 45.021042 -3.201912 37,000 177 404 0
2022-06-21 16:43:09 GMT 45.026722 -3.202247 37,000 177 404 64
2022-06-21 16:43:06 GMT 45.034355 -3.202716 37,000 177 404 0
2022-06-21 16:42:58 GMT 45.048553 -3.203453 37,000 177 404 -64
2022-06-21 16:42:47 GMT 45.073833 -3.204859 37,000 177 405 0
2022-06-21 16:42:44 GMT 45.073833 -3.204859 37,000 177 405 64
2022-06-21 16:42:34 GMT 45.099380 -3.206177 37,000 177 405 0
2022-06-21 16:42:27 GMT 45.106186 -3.206534 37,000 177 405 0
2022-06-21 16:42:16 GMT 45.127350 -3.207681 37,000 177 405 -64
2022-06-21 16:42:04 GMT 45.149059 -3.208879 37,000 177 405 64
2022-06-21 16:41:55 GMT 45.166718 -3.209773 37,000 178 406 0
2022-06-21 16:41:45 GMT 45.186626 -3.210821 37,000 177 406 0
2022-06-21 16:41:33 GMT 45.207458 -3.211866 37,000 177 406 0
2022-06-21 16:41:22 GMT 45.227921 -3.212912 37,000 177 406 0
2022-06-21 16:41:12 GMT 45.246586 -3.213970 37,000 177 406 0
2022-06-21 16:41:01 GMT 45.266838 -3.215109 37,000 177 407 0
2022-06-21 16:40:49 GMT 45.289810 -3.216444 37,000 177 407 0
2022-06-21 16:40:43 GMT 45.300865 -3.217051 37,000 177 407 0
2022-06-21 16:40:39 GMT 45.308121 -3.217490 37,000 177 408 64
2022-06-21 16:40:34 GMT 45.319931 -3.218209 37,000 177 408 0
2022-06-21 16:40:30 GMT 45.326099 -3.218525 37,000 177 408 0
2022-06-21 16:40:22 GMT 45.339981 -3.219321 37,000 177 408 0
2022-06-21 16:40:19 GMT 45.346954 -3.219731 37,000 177 409 0
2022-06-21 16:40:12 GMT 45.358932 -3.220433 37,000 177 409 0
2022-06-21 16:40:08 GMT 45.366486 -3.220891 37,000 177 409 0
2022-06-21 16:40:01 GMT 45.380051 -3.221607 37,000 177 409 0
2022-06-21 16:39:57 GMT 45.387451 -3.222068 37,000 177 409 -64
2022-06-21 16:39:53 GMT 45.396103 -3.222525 37,000 177 409 0
2022-06-21 16:39:47 GMT 45.406727 -3.223081 37,000 177 410 0
2022-06-21 16:39:42 GMT 45.416039 -3.223616 37,000 177 410 0
2022-06-21 16:39:35 GMT 45.429428 -3.224357 37,000 177 410 0
2022-06-21 16:39:31 GMT 45.437073 -3.224749 37,000 177 410 0
2022-06-21 16:39:23 GMT 45.453552 -3.225534 37,000 177 410 0
2022-06-21 16:39:15 GMT 45.467384 -3.226296 37,000 177 411 0
2022-06-21 16:39:11 GMT 45.475857 -3.226698 37,000 177 411 0
2022-06-21 16:39:04 GMT 45.488754 -3.227430 37,000 177 411 0
2022-06-21 16:38:59 GMT 45.496944 -3.227837 37,000 177 411 0
2022-06-21 16:38:54 GMT 45.507980 -3.228476 37,000 177 412 0
2022-06-21 16:38:51 GMT 45.513885 -3.228803 37,000 177 412 0
2022-06-21 16:38:42 GMT 45.530697 -3.229779 37,000 177 412 -64
2022-06-21 16:38:32 GMT 45.550014 -3.230873 37,000 177 413 0
2022-06-21 16:38:21 GMT 45.569458 -3.231990 37,000 177 413 0
2022-06-21 16:38:11 GMT 45.590332 -3.233196 37,000 177 414 0
2022-06-21 16:38:00 GMT 45.610065 -3.234306 37,000 177 415 0
2022-06-21 16:37:47 GMT 45.634552 -3.235675 37,000 177 415 0
2022-06-21 16:37:39 GMT 45.651218 -3.236572 37,000 177 416 0
2022-06-21 16:37:31 GMT 45.666458 -3.237483 37,000 177 416 0
2022-06-21 16:37:26 GMT 45.675007 -3.237946 37,000 177 416 0
2022-06-21 16:37:20 GMT 45.686691 -3.238564 37,000 177 416 0
2022-06-21 16:37:17 GMT 45.693581 -3.238976 37,000 177 417 0
2022-06-21 16:37:10 GMT 45.706238 -3.239694 37,000 177 417 0
2022-06-21 16:37:06 GMT 45.713425 -3.240096 37,000 177 417 0
2022-06-21 16:37:01 GMT 45.725563 -3.240761 37,000 177 417 0
2022-06-21 16:36:56 GMT 45.733658 -3.241168 37,000 177 417 0
2022-06-21 16:36:50 GMT 45.745163 -3.241791 37,000 177 418 0
2022-06-21 16:36:45 GMT 45.754028 -3.242307 37,000 177 418 0
2022-06-21 16:36:40 GMT 45.763924 -3.242821 37,000 177 418 0
2022-06-21 16:36:34 GMT 45.776459 -3.243512 37,000 177 418 0
2022-06-21 16:36:29 GMT 45.785889 -3.243981 37,000 177 418 0
2022-06-21 16:36:22 GMT 45.797974 -3.244651 37,000 177 418 0
2022-06-21 16:36:19 GMT 45.803970 -3.244919 37,000 177 418 0
2022-06-21 16:36:13 GMT 45.816479 -3.245636 37,000 177 419 0
2022-06-21 16:36:09 GMT 45.824112 -3.246058 37,000 177 419 0
2022-06-21 16:36:00 GMT 45.843750 -3.247130 37,000 177 419 0
2022-06-21 16:35:52 GMT 45.856430 -3.247867 37,000 177 419 0
2022-06-21 16:35:48 GMT 45.864578 -3.248336 37,000 177 419 0
2022-06-21 16:35:41 GMT 45.879883 -3.249207 37,000 177 421 64
2022-06-21 16:35:37 GMT 45.885609 -3.249550 37,000 177 419 0
2022-06-21 16:35:29 GMT 45.901344 -3.250443 38,000 177 420 0
2022-06-21 16:35:20 GMT 45.918457 -3.251350 37,000 177 420 0
2022-06-21 16:35:17 GMT 45.923969 -3.251678 37,000 177 420 0
2022-06-21 16:35:08 GMT 45.941799 -3.252640 37,000 177 421 0
2022-06-21 16:35:03 GMT 45.952835 -3.253226 37,000 177 421 0
2022-06-21 16:34:59 GMT 45.960651 -3.253670 37,000 177 421 0
2022-06-21 16:34:51 GMT 45.975594 -3.254562 37,000 177 421 0
2022-06-21 16:34:46 GMT 45.984951 -3.255043 37,000 177 421 0
2022-06-21 16:34:42 GMT 45.993347 -3.255571 37,000 177 422 -64
2022-06-21 16:34:38 GMT 46.000919 -3.256004 37,000 177 422 0
2022-06-21 16:34:32 GMT 46.011486 -3.256691 37,000 177 423 0
2022-06-21 16:34:27 GMT 46.022415 -3.257312 37,000 177 422 0
2022-06-21 16:34:22 GMT 46.031067 -3.257848 37,000 177 422 0
2022-06-21 16:34:16 GMT 46.043289 -3.258585 37,000 177 422 0
2022-06-21 16:34:11 GMT 46.053085 -3.259188 37,000 177 423 0
2022-06-21 16:34:05 GMT 46.065163 -3.259781 37,000 177 423 0
2022-06-21 16:34:02 GMT 46.084167 -3.260796 37,000 177 423 0
2022-06-21 16:33:55 GMT 46.084167 -3.260796 37,000 177 423 0
2022-06-21 16:33:52 GMT 46.090954 -3.261154 37,000 177 423 0
2022-06-21 16:33:44 GMT 46.105011 -3.261841 37,000 177 424 0
2022-06-21 16:33:40 GMT 46.112877 -3.262253 37,000 177 424 0
2022-06-21 16:33:32 GMT 46.149490 -3.264145 37,000 177 424 0
2022-06-21 16:33:22 GMT 46.149490 -3.264145 37,000 177 425 0
2022-06-21 16:33:11 GMT 46.170639 -3.265351 37,000 177 425 0
2022-06-21 16:33:01 GMT 46.190620 -3.266579 37,000 177 426 0
2022-06-21 16:32:51 GMT 46.209751 -3.267746 37,000 177 426 0
2022-06-21 16:32:40 GMT 46.231865 -3.269051 37,000 177 426 0
2022-06-21 16:32:29 GMT 46.253815 -3.270308 37,000 177 427 0
2022-06-21 16:32:19 GMT 46.284760 -3.272117 37,000 177 428 -64
2022-06-21 16:32:09 GMT 46.293549 -3.272653 37,000 177 428 0
2022-06-21 16:31:58 GMT 46.313782 -3.273792 37,000 177 429 0
2022-06-21 16:31:48 GMT 46.335072 -3.275024 37,000 177 429 0
2022-06-21 16:31:41 GMT 46.349037 -3.275780 37,000 177 430 -64
2022-06-21 16:31:37 GMT 46.356159 -3.276192 37,000 177 429 64
2022-06-21 16:31:29 GMT 46.372501 -3.277016 37,000 177 430 0
2022-06-21 16:31:26 GMT 46.377666 -3.277290 37,025 177 429 0
2022-06-21 16:31:20 GMT 46.389538 -3.277977 37,000 177 429 64
2022-06-21 16:31:16 GMT 46.398102 -3.278414 37,000 177 429 64
2022-06-21 16:31:10 GMT 46.419250 -3.279620 37,000 177 430 0
2022-06-21 16:31:05 GMT 46.419250 -3.279620 37,000 177 430 -64
2022-06-21 16:31:00 GMT 46.429619 -3.280174 37,000 177 429 -64
2022-06-21 16:30:54 GMT 46.440701 -3.280792 37,000 177 430 0
2022-06-21 16:30:49 GMT 46.450428 -3.281342 37,000 177 430 0
2022-06-21 16:30:44 GMT 46.461834 -3.281960 37,000 177 429 0
2022-06-21 16:30:39 GMT 46.470448 -3.282509 37,000 177 429 -64
2022-06-21 16:30:32 GMT 46.485352 -3.283304 37,000 177 430 0
2022-06-21 16:30:29 GMT 46.490570 -3.283639 37,000 177 430 -64
2022-06-21 16:30:26 GMT 46.497665 -3.284041 37,000 177 430 -64
2022-06-21 16:30:20 GMT 46.517761 -3.285180 37,000 177 429 -64
2022-06-21 16:30:16 GMT 46.517761 -3.285180 37,000 177 430 0
2022-06-21 16:30:10 GMT 46.529613 -3.285873 37,000 177 430 0
2022-06-21 16:30:05 GMT 46.537853 -3.286354 37,000 177 430 0
2022-06-21 16:29:59 GMT 46.560150 -3.287659 37,000 177 430 0
2022-06-21 16:29:55 GMT 46.560150 -3.287659 37,000 177 430 -64
2022-06-21 16:29:50 GMT 46.569092 -3.288208 37,000 177 429 0
2022-06-21 16:29:45 GMT 46.578140 -3.288731 37,000 177 429 0
2022-06-21 16:29:39 GMT 46.589573 -3.289375 37,000 177 429 128
2022-06-21 16:29:35 GMT 46.598885 -3.289925 37,000 177 430 64
2022-06-21 16:29:29 GMT 46.609818 -3.290606 37,000 177 430 0
2022-06-21 16:29:25 GMT 46.618622 -3.291161 37,000 177 430 0
2022-06-21 16:29:19 GMT 46.629841 -3.291779 37,000 177 429 0
2022-06-21 16:29:14 GMT 46.639568 -3.292397 37,000 177 429 64
2022-06-21 16:29:09 GMT 46.649487 -3.293015 37,000 177 429 0
2022-06-21 16:29:05 GMT 46.659210 -3.293554 37,000 177 429 -64
2022-06-21 16:28:58 GMT 46.671936 -3.294291 37,000 177 429 0
2022-06-21 16:28:54 GMT 46.679901 -3.294760 37,000 177 429 0
2022-06-21 16:28:47 GMT 46.693817 -3.295496 37,000 177 429 0
2022-06-21 16:28:44 GMT 46.699528 -3.295830 37,000 177 429 64
2022-06-21 16:28:37 GMT 46.713455 -3.296635 37,000 177 429 64
2022-06-21 16:28:34 GMT 46.719681 -3.297037 37,000 177 429 0
2022-06-21 16:28:29 GMT 46.729740 -3.297615 37,000 177 429 -64
2022-06-21 16:28:23 GMT 46.741611 -3.298302 37,000 177 429 0
2022-06-21 16:28:19 GMT 46.749573 -3.298782 37,000 177 429 0
2022-06-21 16:28:14 GMT 46.761017 -3.299449 37,000 177 429 64
2022-06-21 16:28:09 GMT 46.769218 -3.299950 37,000 177 429 64
2022-06-21 16:28:03 GMT 46.780426 -3.300588 37,000 177 429 -64
2022-06-21 16:28:00 GMT 46.786583 -3.300980 37,000 177 429 -64
2022-06-21 16:27:56 GMT 46.794914 -3.301460 37,000 177 429 0
2022-06-21 16:27:53 GMT 46.800781 -3.301735 37,000 177 429 0
2022-06-21 16:27:50 GMT 46.806564 -3.302061 37,000 177 429 0
2022-06-21 16:27:46 GMT 46.814281 -3.302490 37,000 177 429 0
2022-06-21 16:27:40 GMT 46.834671 -3.303669 37,000 177 429 0
2022-06-21 16:27:36 GMT 46.834671 -3.303669 37,000 177 429 0
2022-06-21 16:27:30 GMT 46.846725 -3.304344 37,000 177 430 0
2022-06-21 16:27:26 GMT 46.854408 -3.304756 37,000 177 430 64
2022-06-21 16:27:23 GMT 46.862091 -3.305168 37,000 177 430 64
2022-06-21 16:27:19 GMT 46.867584 -3.305511 37,000 177 430 0
2022-06-21 16:27:16 GMT 46.873581 -3.305855 37,000 177 430 -64
2022-06-21 16:27:09 GMT 46.887974 -3.306673 37,000 177 430 0
2022-06-21 16:27:06 GMT 46.893906 -3.307022 37,000 177 430 0
2022-06-21 16:27:01 GMT 46.904572 -3.307571 37,000 177 430 0
2022-06-21 16:26:58 GMT 46.924118 -3.308739 37,000 177 430 0
2022-06-21 16:26:51 GMT 46.929962 -3.309068 37,000 177 430 0
2022-06-21 16:26:48 GMT 46.929962 -3.309068 37,000 177 430 0
2022-06-21 16:26:41 GMT 46.942951 -3.309843 37,000 177 431 64
2022-06-21 16:26:38 GMT 46.954376 -3.310524 37,000 177 431 -64
2022-06-21 16:26:35 GMT 46.954376 -3.310524 37,000 177 431 -64
2022-06-21 16:26:30 GMT 46.966366 -3.311251 37,000 177 430 0
2022-06-21 16:26:26 GMT 46.974468 -3.311744 37,000 177 430 128
2022-06-21 16:26:18 GMT 46.989967 -3.312730 37,000 177 431 -64
2022-06-21 16:26:15 GMT 46.995117 -3.313065 37,000 177 431 0
2022-06-21 16:26:11 GMT 47.003281 -3.313505 37,000 177 431 0
2022-06-21 16:26:07 GMT 47.010452 -3.313927 37,000 177 431 0
2022-06-21 16:26:04 GMT 47.016678 -3.314301 37,000 177 431 0
2022-06-21 16:26:01 GMT 47.023811 -3.314702 37,000 177 431 0
2022-06-21 16:25:57 GMT 47.030457 -3.315125 37,000 177 431 -64
2022-06-21 16:25:54 GMT 47.036179 -3.315468 37,000 177 431 -64
2022-06-21 16:25:51 GMT 47.044575 -3.315899 37,000 177 431 0
2022-06-21 16:25:47 GMT 47.050346 -3.316251 37,000 177 431 0
2022-06-21 16:25:44 GMT 47.055840 -3.316603 37,000 177 431 0
2022-06-21 16:25:40 GMT 47.064743 -3.317116 37,000 177 431 0
2022-06-21 16:25:36 GMT 47.073578 -3.317596 37,000 177 431 0
2022-06-21 16:25:33 GMT 47.077625 -3.317801 37,000 177 431 0
2022-06-21 16:25:28 GMT 47.089554 -3.318489 37,000 177 431 64
2022-06-21 16:25:24 GMT 47.097412 -3.318927 37,000 177 431 0
2022-06-21 16:25:20 GMT 47.104954 -3.319350 37,000 177 431 64
2022-06-21 16:25:17 GMT 47.110336 -3.319656 37,000 177 431 -64
2022-06-21 16:25:14 GMT 47.117432 -3.320068 37,000 177 431 64
2022-06-21 16:25:10 GMT 47.125626 -3.320549 37,000 177 431 64
2022-06-21 16:25:07 GMT 47.129765 -3.320759 37,000 177 431 0
2022-06-21 16:25:04 GMT 47.137260 -3.321181 37,000 177 431 -64
2022-06-21 16:25:00 GMT 47.146107 -3.321744 37,000 177 431 -64
2022-06-21 16:24:57 GMT 47.150948 -3.322026 37,000 177 431 0
2022-06-21 16:24:53 GMT 47.157558 -3.322378 37,000 177 431 0
2022-06-21 16:24:50 GMT 47.163654 -3.322730 37,000 177 431 0
2022-06-21 16:24:47 GMT 47.170544 -3.323153 37,000 177 431 0
2022-06-21 16:24:42 GMT 47.180740 -3.323716 37,000 177 431 0
2022-06-21 16:24:37 GMT 47.190563 -3.324280 37,000 177 431 64
2022-06-21 16:24:32 GMT 47.200665 -3.324843 37,000 177 431 64
2022-06-21 16:24:27 GMT 47.210632 -3.325424 37,000 177 431 -64
2022-06-21 16:24:23 GMT 47.218212 -3.325829 37,000 177 431 -128
2022-06-21 16:24:20 GMT 47.224182 -3.326180 37,000 177 431 0
2022-06-21 16:24:16 GMT 47.230877 -3.326533 37,000 177 431 0
2022-06-21 16:24:12 GMT 47.238976 -3.327026 37,000 177 431 0
2022-06-21 16:24:09 GMT 47.248032 -3.327553 37,000 177 431 0
2022-06-21 16:24:06 GMT 47.251007 -3.327759 37,000 177 432 0
2022-06-21 16:24:03 GMT 47.258015 -3.328153 37,000 177 432 -64
2022-06-21 16:24:00 GMT 47.263138 -3.328435 37,000 177 432 0
2022-06-21 16:23:56 GMT 47.272293 -3.328995 37,000 177 432 -64
2022-06-21 16:23:52 GMT 47.280487 -3.329475 37,000 177 432 0
2022-06-21 16:23:49 GMT 47.286133 -3.329843 37,000 177 432 -64
2022-06-21 16:23:46 GMT 47.293945 -3.330299 37,000 177 431 0
2022-06-21 16:23:41 GMT 47.302425 -3.330829 37,000 177 431 0
2022-06-21 16:23:38 GMT 47.306717 -3.331055 37,000 177 431 64
2022-06-21 16:23:35 GMT 47.320862 -3.331956 37,000 177 431 64
2022-06-21 16:23:31 GMT 47.320862 -3.331956 37,000 177 431 64
2022-06-21 16:23:28 GMT 47.329056 -3.332497 37,000 177 431 0
2022-06-21 16:23:26 GMT 47.331059 -3.332590 37,000 177 431 0
2022-06-21 16:23:22 GMT 47.341370 -3.333252 37,000 177 431 0
2022-06-21 16:23:17 GMT 47.349445 -3.333717 37,000 177 431 0
2022-06-21 16:23:15 GMT 47.353043 -3.333939 37,000 177 431 0
2022-06-21 16:23:11 GMT 47.360943 -3.334421 37,000 177 430 128
2022-06-21 16:23:06 GMT 47.371674 -3.335106 37,000 177 431 64
2022-06-21 16:23:01 GMT 47.389339 -3.336182 37,000 177 430 -64
2022-06-21 16:22:57 GMT 47.389339 -3.336182 37,000 177 430 0
2022-06-21 16:22:54 GMT 47.396229 -3.336534 37,000 177 430 64
2022-06-21 16:22:51 GMT 47.401302 -3.336886 37,000 177 430 -64
2022-06-21 16:22:47 GMT 47.409962 -3.337379 37,000 177 430 -64
2022-06-21 16:22:44 GMT 47.416901 -3.337731 37,000 177 429 0
2022-06-21 16:22:41 GMT 47.421646 -3.338013 37,000 177 430 -64
2022-06-21 16:22:36 GMT 47.431702 -3.338576 37,000 177 429 0
2022-06-21 16:22:33 GMT 47.437149 -3.338858 37,000 177 429 0
2022-06-21 16:22:30 GMT 47.442261 -3.339157 37,000 177 429 -64
2022-06-21 16:22:26 GMT 47.451580 -3.339703 37,000 177 429 0
2022-06-21 16:22:18 GMT 47.465874 -3.340478 37,000 177 429 0
2022-06-21 16:22:15 GMT 47.472622 -3.340900 37,000 177 429 0
2022-06-21 16:22:13 GMT 47.478836 -3.341217 37,000 177 429 0
2022-06-21 16:22:10 GMT 47.483143 -3.341464 37,000 177 430 0
2022-06-21 16:22:07 GMT 47.489567 -3.341816 37,000 177 430 0
2022-06-21 16:22:03 GMT 47.495728 -3.342178 37,000 177 430 0
2022-06-21 16:21:59 GMT 47.503281 -3.342659 37,000 177 430 0
2022-06-21 16:21:56 GMT 47.510696 -3.343071 37,000 177 430 0
2022-06-21 16:21:53 GMT 47.516754 -3.343435 37,000 177 430 0
2022-06-21 16:21:50 GMT 47.521919 -3.343717 37,000 177 430 0
2022-06-21 16:21:45 GMT 47.532394 -3.344307 37,000 177 430 0
2022-06-21 16:21:39 GMT 47.552444 -3.345543 37,000 177 430 0
2022-06-21 16:21:35 GMT 47.552444 -3.345543 37,000 177 430 0
2022-06-21 16:21:30 GMT 47.562698 -3.346230 37,000 177 430 -64
2022-06-21 16:21:27 GMT 47.567543 -3.346534 37,000 177 430 0
2022-06-21 16:21:25 GMT 47.572571 -3.346816 37,000 177 430 64
2022-06-21 16:21:22 GMT 47.583092 -3.347520 37,000 177 430 64
2022-06-21 16:21:19 GMT 47.583092 -3.347520 37,000 177 430 64
2022-06-21 16:21:15 GMT 47.592316 -3.348083 37,000 177 430 64
2022-06-21 16:21:10 GMT 47.600922 -3.348633 37,000 177 431 0
2022-06-21 16:21:07 GMT 47.612549 -3.349388 37,000 177 431 0
2022-06-21 16:21:04 GMT 47.612549 -3.349388 37,000 177 431 0
2022-06-21 16:20:58 GMT 47.625961 -3.350212 37,000 177 431 -64
2022-06-21 16:20:55 GMT 47.632298 -3.350548 37,000 177 431 -64
2022-06-21 16:20:50 GMT 47.642445 -3.351182 37,000 177 431 0
2022-06-21 16:20:45 GMT 47.653244 -3.351816 37,000 177 431 0
2022-06-21 16:20:39 GMT 47.673340 -3.353027 37,000 177 431 -64
2022-06-21 16:20:34 GMT 47.673340 -3.353027 37,000 177 431 0
2022-06-21 16:20:29 GMT 47.683922 -3.353647 37,000 177 431 0
2022-06-21 16:20:24 GMT 47.693886 -3.354281 37,000 177 431 -64
2022-06-21 16:20:18 GMT 47.705063 -3.354950 37,000 177 431 64
2022-06-21 16:20:14 GMT 47.713017 -3.355337 37,000 177 431 0
2022-06-21 16:20:11 GMT 47.718246 -3.355637 37,000 177 431 0
2022-06-21 16:20:07 GMT 47.726257 -3.356117 37,000 177 431 0
2022-06-21 16:20:03 GMT 47.741959 -3.357079 37,000 177 432 64
2022-06-21 16:19:57 GMT 47.747326 -3.357380 37,000 177 432 64
2022-06-21 16:19:54 GMT 47.754044 -3.357765 37,000 177 432 64
2022-06-21 16:19:51 GMT 47.758595 -3.358013 37,000 177 433 128
2022-06-21 16:19:46 GMT 47.770477 -3.358727 37,000 177 433 -64
2022-06-21 16:19:43 GMT 47.774933 -3.358999 37,000 177 433 -128
2022-06-21 16:19:39 GMT 47.789062 -3.359825 37,000 177 433 -128
2022-06-21 16:19:36 GMT 47.789062 -3.359825 37,000 177 433 -64
2022-06-21 16:19:33 GMT 47.794876 -3.360168 37,000 177 433 0
2022-06-21 16:19:29 GMT 47.803001 -3.360690 37,000 177 433 64
2022-06-21 16:19:27 GMT 47.815842 -3.361473 37,000 177 433 0
2022-06-21 16:19:23 GMT 47.815842 -3.361473 37,000 177 433 -64
2022-06-21 16:19:21 GMT 47.818459 -3.361605 37,000 177 434 -64
2022-06-21 16:19:17 GMT 47.826691 -3.362091 37,000 177 434 -64
2022-06-21 16:19:14 GMT 47.833588 -3.362450 37,000 177 433 -64
2022-06-21 16:19:07 GMT 47.847748 -3.363327 37,000 177 434 0
2022-06-21 16:19:03 GMT 47.856400 -3.363788 37,000 177 434 0
2022-06-21 16:18:59 GMT 47.862545 -3.364140 37,000 177 434 0
2022-06-21 16:18:55 GMT 47.877914 -3.365044 37,000 177 434 0
2022-06-21 16:18:52 GMT 47.877914 -3.365044 37,000 177 434 -64
2022-06-21 16:18:49 GMT 47.884331 -3.365408 37,000 177 434 -64
2022-06-21 16:18:47 GMT 47.887264 -3.365619 37,000 177 434 0
2022-06-21 16:18:44 GMT 47.892570 -3.365901 37,000 177 434 0
2022-06-21 16:18:41 GMT 47.898666 -3.366253 37,000 177 434 0
2022-06-21 16:18:37 GMT 47.908585 -3.366898 37,000 177 434 0
2022-06-21 16:18:34 GMT 47.916092 -3.367378 37,000 177 434 0
2022-06-21 16:18:31 GMT 47.919151 -3.367521 37,000 177 434 0
2022-06-21 16:18:25 GMT 47.932800 -3.368408 37,000 177 435 0
2022-06-21 16:18:22 GMT 47.937744 -3.368683 37,000 177 434 0
2022-06-21 16:18:16 GMT 47.949970 -3.369422 37,000 177 435 -128
2022-06-21 16:18:13 GMT 47.954948 -3.369774 37,000 177 435 -128
2022-06-21 16:18:10 GMT 47.962025 -3.370197 37,000 177 435 -64
2022-06-21 16:18:05 GMT 47.971115 -3.370743 37,000 177 435 64
2022-06-21 16:18:03 GMT 47.975155 -3.370972 37,000 177 435 128
2022-06-21 16:18:00 GMT 47.982742 -3.371429 37,000 177 435 64
2022-06-21 16:17:57 GMT 47.990891 -3.371910 37,000 177 436 0
2022-06-21 16:17:52 GMT 47.997780 -3.372310 37,000 177 436 -64
2022-06-21 16:17:49 GMT 48.002609 -3.372597 37,000 177 436 -64
2022-06-21 16:17:45 GMT 48.013233 -3.373296 37,000 177 436 -64
2022-06-21 16:17:42 GMT 48.017284 -3.373507 37,000 177 436 -64
2022-06-21 16:17:39 GMT 48.022495 -3.373859 37,000 177 436 -64
2022-06-21 16:17:35 GMT 48.032505 -3.374493 37,000 177 436 -64
2022-06-21 16:17:32 GMT 48.037628 -3.374794 37,000 177 436 0
2022-06-21 16:17:28 GMT 48.046463 -3.375343 37,000 177 436 64
2022-06-21 16:17:24 GMT 48.060059 -3.376167 37,000 177 436 -64
2022-06-21 16:17:18 GMT 48.066147 -3.376579 37,000 177 436 -64
2022-06-21 16:17:15 GMT 48.072327 -3.376923 37,000 177 435 0
2022-06-21 16:17:12 GMT 48.078220 -3.377310 37,000 177 435 0
2022-06-21 16:17:08 GMT 48.086040 -3.377732 37,000 177 435 64
2022-06-21 16:17:04 GMT 48.093071 -3.378225 37,000 177 435 0
2022-06-21 16:17:01 GMT 48.099354 -3.378578 37,000 177 435 0
2022-06-21 16:16:55 GMT 48.113434 -3.379463 37,000 177 435 0
2022-06-21 16:16:52 GMT 48.117744 -3.379704 37,000 177 435 0
2022-06-21 16:16:49 GMT 48.126892 -3.380287 37,000 177 435 0
2022-06-21 16:16:45 GMT 48.131802 -3.380550 37,000 177 435 0
2022-06-21 16:16:42 GMT 48.139481 -3.381042 37,000 177 435 -64
2022-06-21 16:16:35 GMT 48.151306 -3.381747 37,000 177 435 0
2022-06-21 16:16:32 GMT 48.159164 -3.382210 37,000 177 435 0
2022-06-21 16:16:25 GMT 48.180077 -3.383428 37,000 177 435 0
2022-06-21 16:16:22 GMT 48.180077 -3.383428 37,000 177 435 64
2022-06-21 16:16:18 GMT 48.186081 -3.383789 37,000 177 435 0
2022-06-21 16:16:15 GMT 48.192181 -3.384150 37,000 177 435 0
2022-06-21 16:16:12 GMT 48.198093 -3.384512 37,000 177 435 0
2022-06-21 16:16:09 GMT 48.207214 -3.385090 37,000 177 435 0
2022-06-21 16:16:06 GMT 48.211964 -3.385379 37,000 177 435 0
2022-06-21 16:16:03 GMT 48.216797 -3.385691 37,000 177 435 -64
2022-06-21 16:16:00 GMT 48.221420 -3.385972 37,000 177 435 0
2022-06-21 16:15:56 GMT 48.237522 -3.386969 37,000 177 435 -64
2022-06-21 16:15:53 GMT 48.237522 -3.386969 37,000 177 435 -64
2022-06-21 16:15:44 GMT 48.256561 -3.388126 37,000 177 435 64
2022-06-21 16:15:41 GMT 48.273602 -3.389210 37,000 177 434 64
2022-06-21 16:15:35 GMT 48.273602 -3.389210 37,000 177 435 0
2022-06-21 16:15:31 GMT 48.294361 -3.390439 37,000 177 434 64
2022-06-21 16:15:24 GMT 48.294361 -3.390439 37,000 177 435 64
2022-06-21 16:15:21 GMT 48.300339 -3.390761 37,000 177 434 64
2022-06-21 16:15:18 GMT 48.308468 -3.391234 37,000 177 435 64
2022-06-21 16:15:13 GMT 48.321083 -3.391957 37,000 177 435 0
2022-06-21 16:15:11 GMT 48.321083 -3.391957 37,000 177 435 0
2022-06-21 16:15:07 GMT 48.329464 -3.392462 37,000 177 435 0
2022-06-21 16:15:04 GMT 48.335793 -3.392824 37,000 177 435 0
2022-06-21 16:15:01 GMT 48.341492 -3.393156 37,000 177 435 -64
2022-06-21 16:14:55 GMT 48.355625 -3.394053 37,025 177 434 0
2022-06-21 16:14:51 GMT 48.367588 -3.394775 37,000 177 434 64
2022-06-21 16:14:44 GMT 48.375595 -3.395268 37,000 177 434 64
2022-06-21 16:14:40 GMT 48.383469 -3.395761 37,000 177 435 0
2022-06-21 16:14:34 GMT 48.394135 -3.396395 37,000 177 435 0
2022-06-21 16:14:31 GMT 48.402969 -3.396959 37,000 177 435 0
2022-06-21 16:14:27 GMT 48.410091 -3.397377 37,000 177 435 0
2022-06-21 16:14:24 GMT 48.416153 -3.397733 37,000 177 434 0
2022-06-21 16:14:20 GMT 48.429153 -3.398578 37,000 177 434 0
2022-06-21 16:14:17 GMT 48.429153 -3.398578 37,000 177 434 0
2022-06-21 16:14:13 GMT 48.438210 -3.399184 37,000 177 434 0
2022-06-21 16:14:10 GMT 48.443207 -3.399494 37,000 177 434 0
2022-06-21 16:14:06 GMT 48.451756 -3.400052 37,000 177 434 0
2022-06-21 16:14:03 GMT 48.458038 -3.400480 37,000 177 434 0
2022-06-21 16:14:00 GMT 48.468704 -3.401114 37,000 177 434 0
2022-06-21 16:13:57 GMT 48.468704 -3.401114 37,000 177 434 0
2022-06-21 16:13:54 GMT 48.475964 -3.401570 37,000 177 434 0
2022-06-21 16:13:52 GMT 48.485458 -3.402240 37,000 177 434 0
2022-06-21 16:13:49 GMT 48.495934 -3.402871 37,000 177 434 0
2022-06-21 16:13:44 GMT 48.495934 -3.402871 37,000 177 434 0
2022-06-21 16:13:42 GMT 48.499050 -3.403087 37,000 177 434 64
2022-06-21 16:13:39 GMT 48.505196 -3.403449 37,000 177 434 64
2022-06-21 16:13:36 GMT 48.513390 -3.403955 37,000 177 434 0
2022-06-21 16:13:33 GMT 48.517273 -3.404212 37,000 177 434 0
2022-06-21 16:13:29 GMT 48.525513 -3.404776 37,000 177 434 0
2022-06-21 16:13:26 GMT 48.530685 -3.405057 37,000 177 434 0
2022-06-21 16:13:23 GMT 48.537971 -3.405545 37,000 177 433 -64
2022-06-21 16:13:20 GMT 48.543789 -3.405906 37,000 177 433 -64
2022-06-21 16:13:17 GMT 48.548767 -3.406255 37,000 177 433 -64
2022-06-21 16:13:15 GMT 48.553753 -3.406557 37,000 177 433 -64
2022-06-21 16:13:12 GMT 48.559708 -3.406959 37,000 177 433 0
2022-06-21 16:13:09 GMT 48.577679 -3.408075 37,000 177 433 -64
2022-06-21 16:13:03 GMT 48.577679 -3.408075 37,000 177 433 -64
2022-06-21 16:13:00 GMT 48.585964 -3.408653 37,000 177 433 64
2022-06-21 16:12:56 GMT 48.591320 -3.408942 37,000 177 433 64
2022-06-21 16:12:53 GMT 48.598572 -3.409353 37,000 177 433 0
2022-06-21 16:12:50 GMT 48.604958 -3.409737 37,000 177 432 0
2022-06-21 16:12:47 GMT 48.612175 -3.410243 37,000 177 433 -64
2022-06-21 16:12:41 GMT 48.621231 -3.410762 37,000 177 432 0
2022-06-21 16:12:38 GMT 48.627213 -3.411110 37,000 177 432 0
2022-06-21 16:12:35 GMT 48.636703 -3.411677 37,000 177 432 64
2022-06-21 16:12:33 GMT 48.636703 -3.411677 37,000 177 432 0
2022-06-21 16:12:31 GMT 48.640015 -3.411833 37,000 177 432 0
2022-06-21 16:12:29 GMT 48.645039 -3.412122 37,000 177 432 0
2022-06-21 16:12:26 GMT 48.651535 -3.412523 37,000 177 432 0
2022-06-21 16:12:23 GMT 48.656818 -3.412845 37,000 177 432 0
2022-06-21 16:12:20 GMT 48.668640 -3.413496 37,000 177 431 0
2022-06-21 16:12:17 GMT 48.668640 -3.413496 37,000 177 431 0
2022-06-21 16:12:12 GMT 48.678543 -3.414072 37,000 177 431 0
2022-06-21 16:12:09 GMT 48.691452 -3.414847 37,000 177 431 0
2022-06-21 16:12:06 GMT 48.691452 -3.414847 37,000 177 431 0
2022-06-21 16:12:04 GMT 48.695549 -3.415086 37,000 177 431 0
2022-06-21 16:12:01 GMT 48.701981 -3.415480 37,000 177 431 0
2022-06-21 16:11:58 GMT 48.708771 -3.415881 37,000 177 430 0
2022-06-21 16:11:53 GMT 48.718048 -3.416466 37,000 177 430 0
2022-06-21 16:11:48 GMT 48.727810 -3.417109 37,000 177 430 0
2022-06-21 16:11:46 GMT 48.731720 -3.417326 37,000 177 430 0
2022-06-21 16:11:42 GMT 48.739655 -3.417875 37,000 177 430 0
2022-06-21 16:11:38 GMT 48.747620 -3.418368 37,000 177 430 64
2022-06-21 16:11:36 GMT 48.751465 -3.418650 37,000 177 430 64
2022-06-21 16:11:31 GMT 48.760666 -3.419213 37,000 177 430 0
2022-06-21 16:11:29 GMT 48.765240 -3.419567 37,000 177 430 0
2022-06-21 16:11:26 GMT 48.770096 -3.419847 37,000 177 429 0
2022-06-21 16:11:23 GMT 48.777992 -3.420362 37,000 177 429 0
2022-06-21 16:11:20 GMT 48.782089 -3.420692 37,000 177 429 0
2022-06-21 16:11:17 GMT 48.789677 -3.421157 37,000 177 429 0
2022-06-21 16:11:12 GMT 48.797359 -3.421663 37,000 177 429 -64
2022-06-21 16:11:10 GMT 48.801636 -3.421960 37,000 177 429 -64
2022-06-21 16:11:07 GMT 48.809692 -3.422452 37,000 177 429 0
2022-06-21 16:11:03 GMT 48.816376 -3.422875 37,000 177 429 0
2022-06-21 16:11:00 GMT 48.822876 -3.423298 37,000 177 429 0
2022-06-21 16:10:57 GMT 48.828968 -3.423615 37,000 177 429 0
2022-06-21 16:10:55 GMT 48.834686 -3.424002 37,000 177 429 0
2022-06-21 16:10:51 GMT 48.842842 -3.424482 37,000 177 429 0
2022-06-21 16:10:48 GMT 48.847542 -3.424771 37,000 177 429 0
2022-06-21 16:10:45 GMT 48.851315 -3.424988 37,000 177 429 0
2022-06-21 16:10:41 GMT 48.858391 -3.425421 37,000 177 428 0
2022-06-21 16:10:39 GMT 48.863754 -3.425762 37,000 177 428 0
2022-06-21 16:10:36 GMT 48.870026 -3.426185 37,000 177 428 0
2022-06-21 16:10:31 GMT 48.881947 -3.426867 37,000 177 428 0
2022-06-21 16:10:28 GMT 48.885761 -3.427156 37,000 177 428 0
2022-06-21 16:10:25 GMT 48.890533 -3.427453 37,000 177 428 0
2022-06-21 16:10:21 GMT 48.899494 -3.428023 37,000 177 428 0
2022-06-21 16:10:19 GMT 48.911320 -3.428819 37,000 177 428 0
2022-06-21 16:10:16 GMT 48.911320 -3.428819 37,000 177 428 0
2022-06-21 16:10:12 GMT 48.917137 -3.429180 37,000 177 428 0
2022-06-21 16:10:09 GMT 48.922806 -3.429565 37,000 177 428 0
2022-06-21 16:10:06 GMT 48.930080 -3.430047 37,000 177 428 0
2022-06-21 16:10:01 GMT 48.939018 -3.430626 37,000 177 428 0
2022-06-21 16:09:59 GMT 48.944046 -3.430915 37,000 177 428 0
2022-06-21 16:09:56 GMT 48.950180 -3.431326 37,000 177 428 0
2022-06-21 16:09:54 GMT 48.955078 -3.431608 37,000 177 428 0
2022-06-21 16:09:51 GMT 48.959175 -3.431854 37,000 177 428 64
2022-06-21 16:09:48 GMT 48.965240 -3.432242 37,000 177 428 -64
2022-06-21 16:09:45 GMT 48.969833 -3.432505 37,000 177 428 0
2022-06-21 16:09:43 GMT 48.974213 -3.432722 37,000 177 425 0
2022-06-21 16:09:39 GMT 48.982864 -3.433298 37,000 177 428 -64
2022-06-21 16:09:36 GMT 48.989273 -3.433650 37,000 177 428 -64
2022-06-21 16:09:34 GMT 48.991241 -3.433721 37,000 177 428 -64
2022-06-21 16:09:30 GMT 49.000763 -3.434284 37,000 177 427 -64
2022-06-21 16:09:26 GMT 49.009415 -3.434777 37,000 177 427 -64
2022-06-21 16:09:23 GMT 49.015316 -3.435107 37,000 177 427 0
2022-06-21 16:09:20 GMT 49.020855 -3.435468 37,000 177 427 0
2022-06-21 16:09:17 GMT 49.024769 -3.435685 37,000 177 427 64
2022-06-21 16:09:14 GMT 49.030838 -3.436045 37,000 177 427 64
2022-06-21 16:09:12 GMT 49.035965 -3.436397 37,000 177 427 64
2022-06-21 16:09:09 GMT 49.047112 -3.437131 37,000 177 426 0
2022-06-21 16:09:06 GMT 49.047112 -3.437131 37,000 177 426 0
2022-06-21 16:09:03 GMT 49.054138 -3.437594 37,000 177 426 0
2022-06-21 16:09:00 GMT 49.058945 -3.437876 37,000 177 426 0
2022-06-21 16:08:58 GMT 49.063614 -3.438228 37,000 177 425 0
2022-06-21 16:08:54 GMT 49.071644 -3.438721 37,000 177 425 64
2022-06-21 16:08:50 GMT 49.079651 -3.439227 37,000 177 425 64
2022-06-21 16:08:46 GMT 49.086540 -3.439660 37,000 177 425 -64
2022-06-21 16:08:44 GMT 49.090485 -3.439918 37,000 177 425 -64
2022-06-21 16:08:42 GMT 49.095154 -3.440270 37,000 177 425 0
2022-06-21 16:08:37 GMT 49.104034 -3.440833 37,000 177 425 0
2022-06-21 16:08:34 GMT 49.110329 -3.441178 37,000 177 425 0
2022-06-21 16:08:32 GMT 49.114471 -3.441467 37,000 177 425 -64
2022-06-21 16:08:30 GMT 49.118431 -3.441684 37,000 177 425 -64
2022-06-21 16:08:27 GMT 49.124294 -3.442046 37,000 177 425 -64
2022-06-21 16:08:24 GMT 49.130768 -3.442479 37,000 177 425 0
2022-06-21 16:08:21 GMT 49.142078 -3.443130 37,000 177 425 0
2022-06-21 16:08:18 GMT 49.148643 -3.443563 37,000 177 425 0
2022-06-21 16:08:15 GMT 49.148643 -3.443563 37,000 177 425 0
2022-06-21 16:08:12 GMT 49.152508 -3.443780 37,000 177 425 64
2022-06-21 16:08:09 GMT 49.158649 -3.444214 37,000 177 425 0
2022-06-21 16:08:07 GMT 49.162857 -3.444425 37,000 177 425 0
2022-06-21 16:08:04 GMT 49.173019 -3.445059 37,000 177 425 64
2022-06-21 16:08:02 GMT 49.173019 -3.445059 37,000 177 425 0
2022-06-21 16:08:00 GMT 49.175949 -3.445270 37,000 177 425 0
2022-06-21 16:07:58 GMT 49.180801 -3.445552 37,000 177 425 0
2022-06-21 16:07:55 GMT 49.185516 -3.445834 37,000 177 425 0
2022-06-21 16:07:52 GMT 49.192169 -3.446238 37,000 177 425 0
2022-06-21 16:07:49 GMT 49.198128 -3.446599 37,000 177 425 0
2022-06-21 16:07:46 GMT 49.203899 -3.446960 37,000 177 425 0
2022-06-21 16:07:44 GMT 49.208359 -3.447242 37,000 177 425 0
2022-06-21 16:07:41 GMT 49.214264 -3.447665 37,000 177 425 -64
2022-06-21 16:07:38 GMT 49.220470 -3.448045 37,000 177 425 -64
2022-06-21 16:07:35 GMT 49.224800 -3.448334 37,000 177 425 0
2022-06-21 16:07:32 GMT 49.231087 -3.448767 37,000 177 425 0
2022-06-21 16:07:30 GMT 49.236115 -3.449129 37,000 177 426 0
2022-06-21 16:07:28 GMT 49.244751 -3.449707 37,000 177 426 0
2022-06-21 16:07:25 GMT 49.244751 -3.449707 37,000 177 425 0
2022-06-21 16:07:23 GMT 49.252361 -3.450213 37,000 177 425 0
2022-06-21 16:07:21 GMT 49.252361 -3.450213 37,000 177 425 0
2022-06-21 16:07:19 GMT 49.260498 -3.450763 37,000 177 425 0
2022-06-21 16:07:14 GMT 49.268372 -3.451256 37,000 177 425 0
2022-06-21 16:07:12 GMT 49.271587 -3.451514 37,000 177 425 0
2022-06-21 16:07:08 GMT 49.278397 -3.451890 37,000 177 426 0
2022-06-21 16:07:05 GMT 49.290207 -3.452665 37,000 177 426 0
2022-06-21 16:07:01 GMT 49.296028 -3.453032 37,000 177 426 0
2022-06-21 16:06:59 GMT 49.296028 -3.453032 37,000 177 426 0
2022-06-21 16:06:56 GMT 49.303757 -3.453580 37,000 177 426 0
2022-06-21 16:06:53 GMT 49.307602 -3.453792 37,000 177 426 64
2022-06-21 16:06:51 GMT 49.311493 -3.454073 37,000 177 427 0
2022-06-21 16:06:48 GMT 49.317947 -3.454426 37,000 177 426 0
2022-06-21 16:06:45 GMT 49.324238 -3.454839 37,000 177 427 0
2022-06-21 16:06:42 GMT 49.330765 -3.455271 37,000 177 427 -64
2022-06-21 16:06:40 GMT 49.333874 -3.455417 37,000 177 427 -64
2022-06-21 16:06:37 GMT 49.340576 -3.455851 37,000 177 427 -64
2022-06-21 16:06:34 GMT 49.349564 -3.456429 37,000 177 427 -64
2022-06-21 16:06:32 GMT 49.349564 -3.456429 37,000 177 427 0
2022-06-21 16:06:29 GMT 49.360546 -3.457152 37,000 177 427 0
2022-06-21 16:06:27 GMT 49.366276 -3.457513 37,000 177 427 64
2022-06-21 16:06:24 GMT 49.366276 -3.457513 37,000 177 427 64
2022-06-21 16:06:21 GMT 49.370499 -3.457806 37,000 177 427 64
2022-06-21 16:06:19 GMT 49.376358 -3.458158 37,000 177 427 0
2022-06-21 16:06:15 GMT 49.383869 -3.458597 37,000 177 427 0
2022-06-21 16:06:13 GMT 49.387875 -3.458886 37,000 177 428 0
2022-06-21 16:06:11 GMT 49.392063 -3.459103 37,000 177 428 0
2022-06-21 16:06:08 GMT 49.396271 -3.459355 37,000 177 428 0
2022-06-21 16:06:05 GMT 49.402267 -3.459778 37,000 177 428 0
2022-06-21 16:06:02 GMT 49.408077 -3.460115 37,000 177 428 0
2022-06-21 16:06:00 GMT 49.412704 -3.460341 37,000 177 428 0
2022-06-21 16:05:58 GMT 49.423279 -3.461045 37,000 177 428 0
2022-06-21 16:05:55 GMT 49.423279 -3.461045 37,000 177 428 0
2022-06-21 16:05:52 GMT 49.428097 -3.461287 37,000 177 428 0
2022-06-21 16:05:50 GMT 49.432659 -3.461584 37,000 177 428 0
2022-06-21 16:05:47 GMT 49.438889 -3.461994 37,000 177 428 0
2022-06-21 16:05:44 GMT 49.445831 -3.462475 37,000 177 428 0
2022-06-21 16:05:41 GMT 49.450012 -3.462717 37,000 177 428 0
2022-06-21 16:05:39 GMT 49.462685 -3.463588 37,000 177 428 0
2022-06-21 16:05:35 GMT 49.462685 -3.463588 37,000 177 428 0
2022-06-21 16:05:32 GMT 49.467682 -3.463946 37,000 177 429 0
2022-06-21 16:05:29 GMT 49.475464 -3.464452 37,000 177 429 0
2022-06-21 16:05:26 GMT 49.480282 -3.464776 37,000 177 429 -64
2022-06-21 16:05:23 GMT 49.484802 -3.465030 37,000 177 429 -64
2022-06-21 16:05:21 GMT 49.490662 -3.465464 37,000 177 429 -64
2022-06-21 16:05:18 GMT 49.502720 -3.466187 37,000 177 429 0
2022-06-21 16:05:15 GMT 49.502720 -3.466187 37,000 177 429 0
2022-06-21 16:05:12 GMT 49.508057 -3.466548 37,000 177 429 64
2022-06-21 16:05:08 GMT 49.515427 -3.467003 37,000 177 429 64
2022-06-21 16:05:05 GMT 49.521332 -3.467415 37,000 177 429 0
2022-06-21 16:05:01 GMT 49.529392 -3.467894 37,000 177 429 0
2022-06-21 16:04:58 GMT 49.534931 -3.468191 37,000 177 429 0
2022-06-21 16:04:56 GMT 49.539822 -3.468562 37,000 177 429 0
2022-06-21 16:04:53 GMT 49.546692 -3.469005 37,000 177 429 0
2022-06-21 16:04:48 GMT 49.556763 -3.469656 37,000 177 430 0
2022-06-21 16:04:44 GMT 49.562164 -3.470047 37,000 177 430 0
2022-06-21 16:04:41 GMT 49.575851 -3.470937 37,000 177 430 -64
2022-06-21 16:04:38 GMT 49.575851 -3.470937 37,000 177 430 -64
2022-06-21 16:04:36 GMT 49.579948 -3.471234 37,000 177 430 0
2022-06-21 16:04:32 GMT 49.587982 -3.471752 37,000 177 430 0
2022-06-21 16:04:30 GMT 49.592098 -3.472051 37,000 177 430 0
2022-06-21 16:04:27 GMT 49.597321 -3.472402 37,000 177 430 0
2022-06-21 16:04:24 GMT 49.605148 -3.472908 37,000 177 430 0
2022-06-21 16:04:21 GMT 49.609497 -3.473198 37,000 177 430 0
2022-06-21 16:04:19 GMT 49.614025 -3.473535 37,000 177 430 0
2022-06-21 16:04:16 GMT 49.619892 -3.473907 37,000 177 431 64
2022-06-21 16:04:13 GMT 49.624779 -3.474278 37,000 177 431 0
2022-06-21 16:04:10 GMT 49.630966 -3.474715 37,000 177 431 0
2022-06-21 16:04:07 GMT 49.639023 -3.475317 37,000 177 430 0
2022-06-21 16:04:04 GMT 49.648659 -3.475985 37,000 177 431 0
2022-06-21 16:04:01 GMT 49.648659 -3.475985 37,000 177 431 0
2022-06-21 16:03:57 GMT 49.655689 -3.476505 37,000 177 431 0
2022-06-21 16:03:54 GMT 49.670059 -3.477534 37,000 177 431 64
2022-06-21 16:03:51 GMT 49.670059 -3.477534 37,000 177 431 64
2022-06-21 16:03:47 GMT 49.676685 -3.478064 37,000 177 431 0
2022-06-21 16:03:45 GMT 49.680862 -3.478329 37,000 177 431 0
2022-06-21 16:03:42 GMT 49.686584 -3.478691 37,000 177 431 0
2022-06-21 16:03:39 GMT 49.692627 -3.479124 37,000 177 431 0
2022-06-21 16:03:36 GMT 49.698624 -3.479558 37,000 177 431 0
2022-06-21 16:03:34 GMT 49.702332 -3.479775 37,000 177 431 0
2022-06-21 16:03:30 GMT 49.710846 -3.480353 37,000 177 431 0
2022-06-21 16:03:27 GMT 49.716953 -3.480736 37,000 177 432 64
2022-06-21 16:03:23 GMT 49.724350 -3.481220 37,000 177 432 0
2022-06-21 16:03:20 GMT 49.729660 -3.481582 37,000 177 432 0
2022-06-21 16:03:17 GMT 49.737202 -3.481998 37,000 177 432 0
2022-06-21 16:03:15 GMT 49.740738 -3.482232 37,000 177 432 -64
2022-06-21 16:03:13 GMT 49.743988 -3.482449 37,000 177 432 -64
2022-06-21 16:03:10 GMT 49.750443 -3.482811 37,000 177 432 -64
2022-06-21 16:03:07 GMT 49.756847 -3.483186 37,000 177 433 0
2022-06-21 16:03:04 GMT 49.762711 -3.483533 37,000 177 433 0
2022-06-21 16:03:01 GMT 49.768387 -3.483822 37,000 177 433 0
2022-06-21 16:02:59 GMT 49.772690 -3.484112 37,000 177 434 0
2022-06-21 16:02:56 GMT 49.777561 -3.484373 37,000 177 434 0
2022-06-21 16:02:54 GMT 49.781799 -3.484596 37,000 177 435 0
2022-06-21 16:02:52 GMT 49.786102 -3.484834 37,000 177 436 0
2022-06-21 16:02:49 GMT 49.792511 -3.485196 37,000 177 436 0
2022-06-21 16:02:46 GMT 49.797638 -3.485485 37,000 177 436 0
2022-06-21 16:02:43 GMT 49.802982 -3.485858 37,000 177 436 0
2022-06-21 16:02:40 GMT 49.810520 -3.486303 37,000 177 437 0
2022-06-21 16:02:37 GMT 49.818481 -3.486823 37,000 177 438 64
2022-06-21 16:02:34 GMT 49.827072 -3.487364 37,000 177 439 0
2022-06-21 16:02:32 GMT 49.832474 -3.487726 37,000 177 439 0
2022-06-21 16:02:29 GMT 49.832474 -3.487726 37,000 177 439 0
2022-06-21 16:02:26 GMT 49.842785 -3.488382 37,000 177 439 0
2022-06-21 16:02:24 GMT 49.842785 -3.488382 37,000 177 439 0
2022-06-21 16:02:22 GMT 49.846508 -3.488605 37,000 177 439 0
2022-06-21 16:02:19 GMT 49.858749 -3.489388 37,000 177 440 0
2022-06-21 16:02:16 GMT 49.858749 -3.489388 37,000 177 440 0
2022-06-21 16:02:13 GMT 49.865269 -3.489792 37,000 177 440 0
2022-06-21 16:02:10 GMT 49.875320 -3.490472 37,000 177 441 0
2022-06-21 16:02:07 GMT 49.877335 -3.490617 37,000 177 441 0
2022-06-21 16:02:04 GMT 49.889568 -3.491351 37,000 177 441 -64
2022-06-21 16:02:01 GMT 49.889568 -3.491351 37,000 177 441 -64
2022-06-21 16:01:59 GMT 49.894272 -3.491701 37,000 177 441 0
2022-06-21 16:01:56 GMT 49.901505 -3.492134 37,000 177 441 0
2022-06-21 16:01:53 GMT 49.904930 -3.492390 37,000 177 441 0
2022-06-21 16:01:51 GMT 49.908417 -3.492568 37,000 177 441 0
2022-06-21 16:01:48 GMT 49.921829 -3.493436 37,000 177 441 0
2022-06-21 16:01:45 GMT 49.921829 -3.493436 37,000 177 441 0
2022-06-21 16:01:43 GMT 49.932072 -3.494098 37,000 177 442 0
2022-06-21 16:01:40 GMT 49.932072 -3.494098 37,000 177 442 0
2022-06-21 16:01:38 GMT 49.944580 -3.494881 37,000 177 442 -64
2022-06-21 16:01:34 GMT 49.949615 -3.495170 37,000 177 442 64
2022-06-21 16:01:32 GMT 49.949615 -3.495170 37,000 177 442 0
2022-06-21 16:01:29 GMT 49.954788 -3.495532 37,000 177 442 0
2022-06-21 16:01:26 GMT 49.962021 -3.495965 37,000 177 442 0
2022-06-21 16:01:24 GMT 49.965454 -3.496182 37,000 177 442 0
2022-06-21 16:01:21 GMT 49.970802 -3.496547 37,000 177 442 0
2022-06-21 16:01:18 GMT 49.976994 -3.496919 37,000 177 442 -64
2022-06-21 16:01:15 GMT 49.983509 -3.497364 37,000 177 442 -64
2022-06-21 16:01:12 GMT 49.988708 -3.497700 37,000 177 442 -64
2022-06-21 16:01:09 GMT 49.995758 -3.498134 37,000 177 442 -64
2022-06-21 16:01:06 GMT 50.001713 -3.498552 37,000 177 442 0
2022-06-21 16:01:03 GMT 50.007935 -3.498929 37,000 177 442 0
2022-06-21 16:01:00 GMT 50.013977 -3.499362 37,000 177 442 0
2022-06-21 16:00:58 GMT 50.018143 -3.499651 37,000 177 442 64
2022-06-21 16:00:56 GMT 50.022491 -3.499868 37,000 177 442 0
2022-06-21 16:00:54 GMT 50.027618 -3.500230 37,000 177 442 0
2022-06-21 16:00:51 GMT 50.032104 -3.500519 37,000 177 442 0
2022-06-21 16:00:48 GMT 50.038696 -3.500952 37,000 177 442 0
2022-06-21 16:00:45 GMT 50.050545 -3.501744 37,000 177 442 0
2022-06-21 16:00:43 GMT 50.050545 -3.501744 37,000 177 442 0
2022-06-21 16:00:40 GMT 50.054688 -3.502041 37,000 177 442 0
2022-06-21 16:00:37 GMT 50.060974 -3.502486 37,000 177 442 0
2022-06-21 16:00:33 GMT 50.067631 -3.503006 37,000 182 442 64
2022-06-21 16:00:31 GMT 50.081635 -3.504060 37,000 177 442 0
2022-06-21 16:00:28 GMT 50.081635 -3.504060 37,000 177 442 0
2022-06-21 16:00:25 GMT 50.085552 -3.504342 37,000 177 442 0
2022-06-21 16:00:23 GMT 50.088638 -3.504566 37,000 177 442 0
2022-06-21 16:00:21 GMT 50.094406 -3.505000 37,000 177 442 0
2022-06-21 16:00:18 GMT 50.100868 -3.505455 37,000 177 442 0
2022-06-21 16:00:16 GMT 50.104778 -3.505752 37,000 177 442 0
2022-06-21 16:00:13 GMT 50.114975 -3.506494 37,000 177 442 0
2022-06-21 16:00:11 GMT 50.114975 -3.506494 37,000 177 442 0
2022-06-21 16:00:08 GMT 50.121689 -3.506952 37,000 177 442 0
2022-06-21 16:00:05 GMT 50.126770 -3.507313 37,000 179 442 0
2022-06-21 16:00:02 GMT 50.131210 -3.507458 37,000 181 442 0
2022-06-21 15:59:59 GMT 50.141277 -3.507459 37,000 182 442 64
2022-06-21 15:59:57 GMT 50.141277 -3.507459 37,000 182 442 64
2022-06-21 15:59:54 GMT 50.147934 -3.507163 37,000 182 442 64
2022-06-21 15:59:52 GMT 50.153378 -3.506866 37,000 182 442 0
2022-06-21 15:59:49 GMT 50.158447 -3.506590 37,000 182 442 0
2022-06-21 15:59:46 GMT 50.165359 -3.506229 37,000 182 442 0
2022-06-21 15:59:44 GMT 50.171490 -3.505975 37,000 182 442 0
2022-06-21 15:59:41 GMT 50.174698 -3.505795 37,000 182 441 0
2022-06-21 15:59:38 GMT 50.181702 -3.505434 37,000 182 442 0
2022-06-21 15:59:35 GMT 50.186245 -3.505158 37,000 182 441 0
2022-06-21 15:59:32 GMT 50.199783 -3.504494 37,000 182 441 0
2022-06-21 15:59:29 GMT 50.199783 -3.504494 37,000 182 441 0
2022-06-21 15:59:27 GMT 50.203053 -3.504342 37,000 182 441 64
2022-06-21 15:59:24 GMT 50.209660 -3.503971 37,000 182 441 0
2022-06-21 15:59:22 GMT 50.222626 -3.503338 37,000 182 441 0
2022-06-21 15:59:18 GMT 50.222626 -3.503338 37,000 182 441 0
2022-06-21 15:59:14 GMT 50.230499 -3.502976 37,000 182 441 0
2022-06-21 15:59:12 GMT 50.234482 -3.502759 37,000 182 441 64
2022-06-21 15:59:10 GMT 50.238617 -3.502560 37,000 182 441 64
2022-06-21 15:59:07 GMT 50.242264 -3.502326 37,000 182 441 64
2022-06-21 15:59:05 GMT 50.254440 -3.501675 37,000 182 441 64
2022-06-21 15:59:02 GMT 50.260403 -3.501372 37,000 182 441 0
2022-06-21 15:59:00 GMT 50.264236 -3.501169 37,000 182 441 0
2022-06-21 15:58:57 GMT 50.270504 -3.500853 37,000 182 441 0
2022-06-21 15:58:54 GMT 50.270504 -3.500853 37,000 182 441 0
2022-06-21 15:58:52 GMT 50.275066 -3.500630 37,000 183 441 64
2022-06-21 15:58:50 GMT 50.281490 -3.500259 37,000 183 441 0
2022-06-21 15:58:46 GMT 50.286713 -3.500013 37,000 183 441 0
2022-06-21 15:58:43 GMT 50.293781 -3.499591 37,000 183 441 0
2022-06-21 15:58:41 GMT 50.297832 -3.499368 37,000 183 441 0
2022-06-21 15:58:37 GMT 50.305790 -3.498923 37,000 183 441 0
2022-06-21 15:58:35 GMT 50.308445 -3.498774 37,000 183 441 0
2022-06-21 15:58:32 GMT 50.319397 -3.498134 37,000 183 441 0
2022-06-21 15:58:30 GMT 50.319397 -3.498134 37,000 183 441 64
2022-06-21 15:58:28 GMT 50.323883 -3.497917 37,000 183 441 64
2022-06-21 15:58:26 GMT 50.326584 -3.497772 37,000 183 441 64
2022-06-21 15:58:24 GMT 50.332672 -3.497411 37,000 183 441 0
2022-06-21 15:58:22 GMT 50.336842 -3.497141 37,000 183 441 0
2022-06-21 15:58:19 GMT 50.342926 -3.496833 37,000 183 441 -64
2022-06-21 15:58:16 GMT 50.353088 -3.496254 37,000 183 441 -64
2022-06-21 15:58:13 GMT 50.353088 -3.496254 37,000 183 441 -64
2022-06-21 15:58:11 GMT 50.358025 -3.495879 37,000 184 441 0
2022-06-21 15:58:08 GMT 50.365147 -3.495137 37,000 185 441 0
2022-06-21 15:58:06 GMT 50.370163 -3.494447 37,000 186 441 0
2022-06-21 15:58:03 GMT 50.374924 -3.493725 37,000 187 441 0
2022-06-21 15:58:00 GMT 50.379765 -3.492910 37,000 188 440 64
2022-06-21 15:57:57 GMT 50.386559 -3.491500 37,000 188 441 0
2022-06-21 15:57:54 GMT 50.392960 -3.489966 37,000 190 441 0
2022-06-21 15:57:52 GMT 50.397221 -3.488827 37,000 191 440 0
2022-06-21 15:57:49 GMT 50.403969 -3.486897 37,000 193 440 0
2022-06-21 15:57:46 GMT 50.408798 -3.485340 37,000 197 441 0
2022-06-21 15:57:43 GMT 50.414024 -3.483557 37,000 194 440 0
2022-06-21 15:57:41 GMT 50.423309 -3.479919 37,000 196 441 0
2022-06-21 15:57:39 GMT 50.423309 -3.479919 37,000 196 441 0
2022-06-21 15:57:36 GMT 50.434647 -3.474946 37,000 197 440 0
2022-06-21 15:57:33 GMT 50.434647 -3.474946 37,000 198 441 0
2022-06-21 15:57:31 GMT 50.438370 -3.473125 37,000 199 441 0
2022-06-21 15:57:28 GMT 50.444565 -3.469898 37,000 199 441 0
2022-06-21 15:57:25 GMT 50.451454 -3.466335 37,000 199 441 0
2022-06-21 15:57:22 GMT 50.456295 -3.463811 37,000 199 441 0
2022-06-21 15:57:20 GMT 50.459366 -3.462178 37,000 199 441 0
2022-06-21 15:57:17 GMT 50.464859 -3.459357 37,000 199 441 0
2022-06-21 15:57:15 GMT 50.467896 -3.457730 37,000 199 441 0
2022-06-21 15:57:13 GMT 50.473377 -3.454903 37,000 199 441 0
2022-06-21 15:57:10 GMT 50.478825 -3.452008 37,000 199 441 0
2022-06-21 15:57:07 GMT 50.490559 -3.445921 37,000 199 441 0
2022-06-21 15:57:05 GMT 50.490559 -3.445921 37,000 199 441 0
2022-06-21 15:57:02 GMT 50.493484 -3.444431 37,000 199 441 0
2022-06-21 15:57:00 GMT 50.498428 -3.441829 37,000 199 441 0
2022-06-21 15:56:57 GMT 50.509922 -3.435900 37,000 199 441 0
2022-06-21 15:56:55 GMT 50.509922 -3.435900 37,000 199 441 0
2022-06-21 15:56:52 GMT 50.514542 -3.433517 37,000 199 441 0
2022-06-21 15:56:50 GMT 50.523239 -3.429035 37,000 199 441 0
2022-06-21 15:56:47 GMT 50.523239 -3.429035 37,000 199 441 0
2022-06-21 15:56:45 GMT 50.527752 -3.426695 37,000 199 441 0
2022-06-21 15:56:42 GMT 50.539124 -3.420796 37,000 199 441 64
2022-06-21 15:56:39 GMT 50.539124 -3.420796 37,000 199 441 64
2022-06-21 15:56:36 GMT 50.550514 -3.414818 37,000 199 441 0
2022-06-21 15:56:33 GMT 50.550514 -3.414818 37,000 199 441 0
2022-06-21 15:56:30 GMT 50.555546 -3.412220 37,000 199 441 0
2022-06-21 15:56:28 GMT 50.560730 -3.409520 37,000 199 441 0
2022-06-21 15:56:25 GMT 50.566910 -3.406340 37,000 199 441 0
2022-06-21 15:56:22 GMT 50.571884 -3.403757 37,000 199 441 -64
2022-06-21 15:56:19 GMT 50.578171 -3.400485 37,000 199 441 0
2022-06-21 15:56:16 GMT 50.583847 -3.397522 37,000 199 441 0
2022-06-21 15:56:13 GMT 50.595253 -3.391658 37,000 199 441 0
2022-06-21 15:56:10 GMT 50.595253 -3.391658 37,000 199 441 0
2022-06-21 15:56:07 GMT 50.601353 -3.388466 37,000 199 440 0
2022-06-21 15:56:04 GMT 50.612572 -3.382676 37,000 199 440 0
2022-06-21 15:56:01 GMT 50.612572 -3.382676 37,000 199 440 0
2022-06-21 15:55:58 GMT 50.619507 -3.379019 37,000 199 439 0
2022-06-21 15:55:55 GMT 50.622711 -3.377429 37,000 199 439 0
2022-06-21 15:55:52 GMT 50.630215 -3.373545 37,000 199 439 0
2022-06-21 15:55:50 GMT 50.637360 -3.369839 37,000 199 439 0
2022-06-21 15:55:48 GMT 50.637360 -3.369839 37,000 199 439 64
2022-06-21 15:55:45 GMT 50.642223 -3.367384 37,000 199 439 64
2022-06-21 15:55:42 GMT 50.652092 -3.362262 37,000 199 439 64
2022-06-21 15:55:40 GMT 50.652092 -3.362262 37,000 199 439 64
2022-06-21 15:55:38 GMT 50.657181 -3.359648 37,000 199 439 0
2022-06-21 15:55:36 GMT 50.659866 -3.358253 37,000 199 440 0
2022-06-21 15:55:34 GMT 50.664616 -3.355804 37,000 199 439 0
2022-06-21 15:55:31 GMT 50.670853 -3.352537 37,000 199 439 0
2022-06-21 15:55:28 GMT 50.676636 -3.349494 37,000 199 439 0
2022-06-21 15:55:26 GMT 50.679699 -3.347855 37,000 199 439 -64
2022-06-21 15:55:23 GMT 50.685516 -3.344803 37,000 199 439 -64
2022-06-21 15:55:21 GMT 50.689911 -3.342516 37,000 199 439 0
2022-06-21 15:55:18 GMT 50.694809 -3.339918 37,000 199 439 0
2022-06-21 15:55:15 GMT 50.702698 -3.335800 37,000 199 439 0
2022-06-21 15:55:12 GMT 50.707123 -3.333460 37,000 199 439 0
2022-06-21 15:55:09 GMT 50.715912 -3.328857 37,000 199 439 0
2022-06-21 15:55:07 GMT 50.715912 -3.328857 37,000 199 439 0
2022-06-21 15:55:05 GMT 50.719780 -3.326797 37,000 199 439 0
2022-06-21 15:55:02 GMT 50.725784 -3.323669 37,000 199 439 0
2022-06-21 15:55:00 GMT 50.729370 -3.321805 37,000 199 438 0
2022-06-21 15:54:57 GMT 50.736725 -3.317947 37,000 199 438 0
2022-06-21 15:54:54 GMT 50.742462 -3.314902 37,000 199 438 64
2022-06-21 15:54:51 GMT 50.746490 -3.312749 37,000 199 438 64
2022-06-21 15:54:49 GMT 50.751480 -3.310089 37,000 199 438 64
2022-06-21 15:54:47 GMT 50.754414 -3.308563 37,000 199 438 64
2022-06-21 15:54:45 GMT 50.758987 -3.306142 37,000 199 438 0
2022-06-21 15:54:43 GMT 50.762604 -3.304287 37,000 199 438 0
2022-06-21 15:54:41 GMT 50.769592 -3.300552 37,000 199 438 -64
2022-06-21 15:54:39 GMT 50.775192 -3.297606 37,000 199 438 0
2022-06-21 15:54:37 GMT 50.775192 -3.297606 37,000 199 438 -64
2022-06-21 15:54:34 GMT 50.780045 -3.295008 37,000 199 438 -64
2022-06-21 15:54:32 GMT 50.784210 -3.292847 37,000 199 438 0
2022-06-21 15:54:30 GMT 50.787422 -3.291092 37,000 199 438 0
2022-06-21 15:54:27 GMT 50.793457 -3.287956 37,000 199 438 64
2022-06-21 15:54:25 GMT 50.797211 -3.285951 37,000 199 438 0
2022-06-21 15:54:22 GMT 50.802971 -3.282928 37,000 199 437 0
2022-06-21 15:54:20 GMT 50.807018 -3.280716 37,000 199 437 0
2022-06-21 15:54:17 GMT 50.812744 -3.277740 37,000 199 437 0
2022-06-21 15:54:15 GMT 50.816750 -3.275604 37,000 199 437 -64
2022-06-21 15:54:12 GMT 50.822708 -3.272476 37,000 199 437 -64
2022-06-21 15:54:10 GMT 50.825729 -3.270808 37,000 199 437 -128
2022-06-21 15:54:07 GMT 50.832321 -3.267319 37,000 199 437 0
2022-06-21 15:54:05 GMT 50.836899 -3.264944 37,000 199 437 0
2022-06-21 15:54:02 GMT 50.843750 -3.261261 37,000 199 436 0
2022-06-21 15:54:00 GMT 50.843750 -3.261261 37,000 199 436 0
2022-06-21 15:53:57 GMT 50.849522 -3.258209 37,000 199 437 0
2022-06-21 15:53:55 GMT 50.860928 -3.252182 37,000 199 436 0
2022-06-21 15:53:52 GMT 50.860928 -3.252182 37,000 199 436 0
2022-06-21 15:53:50 GMT 50.864418 -3.250275 37,000 199 436 64
2022-06-21 15:53:47 GMT 50.870003 -3.247375 37,000 199 436 64
2022-06-21 15:53:45 GMT 50.874008 -3.245239 37,000 199 436 0
2022-06-21 15:53:42 GMT 50.881210 -3.241412 37,000 199 436 64
2022-06-21 15:53:39 GMT 50.885925 -3.238888 37,000 199 436 0
2022-06-21 15:53:37 GMT 50.889744 -3.236847 37,000 199 436 0
2022-06-21 15:53:33 GMT 50.896866 -3.233098 37,000 199 436 0
2022-06-21 15:53:30 GMT 50.903595 -3.229535 37,000 199 436 0
2022-06-21 15:53:27 GMT 50.908596 -3.226852 37,000 199 436 0
2022-06-21 15:53:24 GMT 50.914928 -3.223495 37,000 199 435 0
2022-06-21 15:53:21 GMT 50.918884 -3.221370 37,000 199 436 0
2022-06-21 15:53:19 GMT 50.923737 -3.218846 37,000 199 436 0
2022-06-21 15:53:16 GMT 50.928452 -3.216396 37,000 199 436 0
2022-06-21 15:53:14 GMT 50.933258 -3.213798 37,000 199 436 0
2022-06-21 15:53:12 GMT 50.937057 -3.211794 37,000 199 434 0
2022-06-21 15:53:10 GMT 50.940113 -3.210220 37,000 199 436 64
2022-06-21 15:53:08 GMT 50.943787 -3.208231 37,000 199 435 0
2022-06-21 15:53:05 GMT 50.949554 -3.205261 37,000 199 435 0
2022-06-21 15:53:03 GMT 50.953518 -3.203125 37,000 199 434 0
2022-06-21 15:53:01 GMT 50.957657 -3.200956 37,000 199 435 0
2022-06-21 15:52:59 GMT 50.962738 -3.198283 37,000 199 434 0
2022-06-21 15:52:55 GMT 50.969254 -3.194885 37,000 199 434 0
2022-06-21 15:52:53 GMT 50.973038 -3.192864 37,000 199 434 0
2022-06-21 15:52:50 GMT 50.978703 -3.189850 37,000 199 434 64
2022-06-21 15:52:47 GMT 50.988808 -3.184586 37,000 199 433 0
2022-06-21 15:52:44 GMT 50.988808 -3.184586 37,000 199 433 0
2022-06-21 15:52:42 GMT 50.996765 -3.180313 37,000 199 433 0
2022-06-21 15:52:40 GMT 51.001095 -3.178024 37,000 199 433 -64
2022-06-21 15:52:38 GMT 51.001095 -3.178024 37,000 199 433 -64
2022-06-21 15:52:35 GMT 51.007893 -3.174438 37,000 199 433 0
2022-06-21 15:52:32 GMT 51.014690 -3.170853 37,000 199 433 0
2022-06-21 15:52:29 GMT 51.019390 -3.168259 37,000 199 433 0
2022-06-21 15:52:26 GMT 51.027630 -3.163910 37,000 199 433 0
2022-06-21 15:52:24 GMT 51.027630 -3.163910 37,000 199 433 0
2022-06-21 15:52:22 GMT 51.031868 -3.161697 37,000 199 433 0
2022-06-21 15:52:20 GMT 51.035706 -3.159609 37,000 199 432 0
2022-06-21 15:52:17 GMT 51.042297 -3.156120 37,000 199 432 0
2022-06-21 15:52:14 GMT 51.047508 -3.153305 37,000 199 432 0
2022-06-21 15:52:11 GMT 51.053280 -3.150253 37,000 199 431 0
2022-06-21 15:52:08 GMT 51.058685 -3.147360 37,000 199 432 0
2022-06-21 15:52:05 GMT 51.065414 -3.143797 37,000 199 430 0
2022-06-21 15:52:02 GMT 51.068317 -3.142242 37,000 199 430 0
2022-06-21 15:51:59 GMT 51.077766 -3.137207 37,000 199 430 0
2022-06-21 15:51:56 GMT 51.081585 -3.135147 37,000 199 430 0
2022-06-21 15:51:54 GMT 51.085373 -3.133108 36,950 199 427 832
2022-06-21 15:51:52 GMT 51.087265 -3.132095 37,000 199 429 -64
2022-06-21 15:51:49 GMT 51.094391 -3.128357 37,000 199 429 -64
2022-06-21 15:51:46 GMT 51.100296 -3.125165 37,000 199 428 -128
2022-06-21 15:51:43 GMT 51.104782 -3.122790 37,025 199 428 -64
2022-06-21 15:51:40 GMT 51.109749 -3.120193 37,000 199 426 640
2022-06-21 15:51:37 GMT 51.116730 -3.116455 36,950 199 426 896
2022-06-21 15:51:34 GMT 51.122223 -3.113556 36,850 199 426 896
2022-06-21 15:51:32 GMT 51.126041 -3.111496 36,900 199 426 896
2022-06-21 15:51:29 GMT 51.132698 -3.108063 36,850 199 427 832
2022-06-21 15:51:26 GMT 51.137539 -3.105469 36,800 199 427 832
2022-06-21 15:51:23 GMT 51.143509 -3.102302 36,775 199 428 896
2022-06-21 15:51:20 GMT 51.148621 -3.099594 36,725 199 428 896
2022-06-21 15:51:18 GMT 51.152298 -3.097610 36,625 199 430 960
2022-06-21 15:51:15 GMT 51.157013 -3.095101 36,625 199 430 960
2022-06-21 15:51:13 GMT 51.161701 -3.092651 36,575 199 430 960
2022-06-21 15:51:10 GMT 51.171429 -3.087463 36,475 199 431 960
2022-06-21 15:51:08 GMT 51.171429 -3.087463 36,525 199 431 960
2022-06-21 15:51:05 GMT 51.176514 -3.084783 36,500 199 432 1024
2022-06-21 15:51:02 GMT 51.182278 -3.081665 36,450 199 432 1024
2022-06-21 15:51:00 GMT 51.184891 -3.080329 36,425 199 434 896
2022-06-21 15:50:58 GMT 51.190659 -3.077285 36,325 199 433 896
2022-06-21 15:50:55 GMT 51.195328 -3.074761 36,325 199 433 896
2022-06-21 15:50:53 GMT 51.203201 -3.070530 36,250 199 434 896
2022-06-21 15:50:51 GMT 51.203201 -3.070530 36,250 199 434 896
2022-06-21 15:50:49 GMT 51.206726 -3.068674 36,200 199 434 832
2022-06-21 15:50:47 GMT 51.210480 -3.066670 36,225 199 434 832
2022-06-21 15:50:44 GMT 51.215561 -3.063998 36,175 199 434 832
2022-06-21 15:50:42 GMT 51.219131 -3.062068 36,175 199 434 832
2022-06-21 15:50:40 GMT 51.223709 -3.059616 36,125 199 434 832
2022-06-21 15:50:38 GMT 51.233253 -3.054581 35,975 199 435 1024
2022-06-21 15:50:35 GMT 51.236324 -3.052902 36,025 199 435 1024
2022-06-21 15:50:31 GMT 51.242237 -3.049774 35,825 199 437 1664
2022-06-21 15:50:28 GMT 51.252197 -3.044434 35,825 199 437 1664
2022-06-21 15:50:25 GMT 51.252197 -3.044434 35,825 199 438 1664
2022-06-21 15:50:23 GMT 51.256210 -3.042248 35,775 199 438 1664
2022-06-21 15:50:21 GMT 51.260925 -3.039650 35,700 199 439 1664
2022-06-21 15:50:18 GMT 51.266258 -3.036804 35,625 199 440 1600
2022-06-21 15:50:15 GMT 51.272873 -3.033266 35,525 197 442 1792
2022-06-21 15:50:12 GMT 51.277359 -3.030965 35,450 197 441 1728
2022-06-21 15:50:09 GMT 51.284691 -3.027496 35,325 196 443 1792
2022-06-21 15:50:06 GMT 51.291046 -3.024729 35,225 194 445 1408
2022-06-21 15:50:03 GMT 51.296036 -3.022651 35,175 193 444 1216
2022-06-21 15:50:01 GMT 51.298702 -3.021622 35,075 193 444 1216
2022-06-21 15:49:58 GMT 51.304058 -3.019638 35,075 193 445 1088
2022-06-21 15:49:55 GMT 51.312881 -3.016712 35,000 188 444 0
2022-06-21 15:49:52 GMT 51.316681 -3.015524 35,025 190 444 448
2022-06-21 15:49:50 GMT 51.323318 -3.013743 35,025 189 445 128
2022-06-21 15:49:47 GMT 51.327164 -3.012778 35,000 188 444 64
2022-06-21 15:49:44 GMT 51.333759 -3.011398 35,000 188 444 0
2022-06-21 15:49:42 GMT 51.336868 -3.010774 35,000 187 444 0
2022-06-21 15:49:40 GMT 51.346344 -3.008992 35,000 187 444 0
2022-06-21 15:49:37 GMT 51.346344 -3.008992 35,000 187 444 0
2022-06-21 15:49:34 GMT 51.359482 -3.006542 35,000 187 444 0
2022-06-21 15:49:31 GMT 51.359482 -3.006542 35,000 187 444 0
2022-06-21 15:49:28 GMT 51.365982 -3.005280 35,000 187 444 0
2022-06-21 15:49:25 GMT 51.374863 -3.003647 35,000 187 443 0
2022-06-21 15:49:22 GMT 51.380722 -3.002534 35,000 187 443 0
2022-06-21 15:49:19 GMT 51.384430 -3.001866 35,000 187 443 0
2022-06-21 15:49:17 GMT 51.389053 -3.001049 35,000 187 443 0
2022-06-21 15:49:14 GMT 51.394638 -3.000010 35,000 187 443 0
2022-06-21 15:49:12 GMT 51.399815 -2.999039 35,000 187 443 0
2022-06-21 15:49:09 GMT 51.411034 -2.996979 35,000 187 443 0
2022-06-21 15:49:06 GMT 51.411034 -2.996979 35,000 187 443 0
2022-06-21 15:49:04 GMT 51.415970 -2.996076 35,000 187 443 0
2022-06-21 15:49:01 GMT 51.421230 -2.995148 35,000 187 443 0
2022-06-21 15:48:58 GMT 51.429050 -2.993698 35,000 187 443 0
2022-06-21 15:48:55 GMT 51.434544 -2.992706 35,000 187 442 0
2022-06-21 15:48:52 GMT 51.443985 -2.991028 35,000 187 442 0
2022-06-21 15:48:50 GMT 51.443985 -2.991028 35,000 187 442 0
2022-06-21 15:48:48 GMT 51.447006 -2.990508 35,000 187 442 0
2022-06-21 15:48:45 GMT 51.454842 -2.989044 35,000 187 442 0
2022-06-21 15:48:43 GMT 51.459000 -2.988281 35,000 187 442 0
2022-06-21 15:48:40 GMT 51.467697 -2.986722 35,000 187 442 0
2022-06-21 15:48:36 GMT 51.471542 -2.986054 35,000 187 442 0
2022-06-21 15:48:33 GMT 51.476578 -2.985089 35,000 187 442 0
2022-06-21 15:48:31 GMT 51.483078 -2.983902 35,000 187 442 0
2022-06-21 15:48:28 GMT 51.487053 -2.983170 35,000 187 442 0
2022-06-21 15:48:26 GMT 51.493286 -2.982046 35,000 187 443 0
2022-06-21 15:48:23 GMT 51.497528 -2.981262 35,000 187 443 0
2022-06-21 15:48:21 GMT 51.502853 -2.980338 35,000 187 443 0
2022-06-21 15:48:18 GMT 51.508049 -2.979355 35,000 187 443 0
2022-06-21 15:48:16 GMT 51.513123 -2.978439 35,000 187 443 0
2022-06-21 15:48:13 GMT 51.519058 -2.977369 35,000 187 443 0
2022-06-21 15:48:11 GMT 51.522434 -2.976761 35,000 187 443 0
2022-06-21 15:48:09 GMT 51.525375 -2.976256 35,000 187 443 0
2022-06-21 15:48:07 GMT 51.529953 -2.975365 35,000 187 443 0
2022-06-21 15:48:05 GMT 51.536026 -2.974243 35,000 187 443 0
2022-06-21 15:48:03 GMT 51.539703 -2.973633 35,000 187 443 0
2022-06-21 15:48:00 GMT 51.551620 -2.971420 35,000 187 443 0
2022-06-21 15:47:57 GMT 51.551620 -2.971420 35,000 187 443 0
2022-06-21 15:47:54 GMT 51.562004 -2.969513 35,000 187 443 0
2022-06-21 15:47:49 GMT 51.567993 -2.968387 35,000 187 443 0
2022-06-21 15:47:46 GMT 51.574036 -2.967274 35,000 187 443 -64
2022-06-21 15:47:43 GMT 51.579460 -2.966232 35,000 187 443 -64
2022-06-21 15:47:41 GMT 51.582718 -2.965622 35,000 187 443 -64
2022-06-21 15:47:38 GMT 51.590790 -2.964082 35,000 187 442 320
2022-06-21 15:47:35 GMT 51.596832 -2.962968 35,000 187 444 -64
2022-06-21 15:47:33 GMT 51.600922 -2.962189 35,000 187 442 1280
2022-06-21 15:47:30 GMT 51.612854 -2.959999 35,000 187 442 576
2022-06-21 15:47:27 GMT 51.612854 -2.959999 34,975 187 441 896
2022-06-21 15:47:25 GMT 51.616936 -2.959213 34,950 187 441 896
2022-06-21 15:47:23 GMT 51.621185 -2.958440 34,875 187 442 1216
2022-06-21 15:47:20 GMT 51.627731 -2.957178 34,825 187 442 1280
2022-06-21 15:47:17 GMT 51.634953 -2.955856 34,775 187 445 1344
2022-06-21 15:47:14 GMT 51.641655 -2.954636 34,725 187 443 1216
2022-06-21 15:47:10 GMT 51.647285 -2.953568 34,650 187 443 1216
2022-06-21 15:47:07 GMT 51.653992 -2.952347 34,550 187 443 1280
2022-06-21 15:47:04 GMT 51.659317 -2.951388 34,525 187 443 1216
2022-06-21 15:47:01 GMT 51.665543 -2.950274 34,425 187 444 1280
2022-06-21 15:46:58 GMT 51.671814 -2.949087 34,400 187 444 1280
2022-06-21 15:46:56 GMT 51.675545 -2.948380 34,375 187 444 1280
2022-06-21 15:46:53 GMT 51.681644 -2.947235 34,325 187 445 1344
2022-06-21 15:46:51 GMT 51.685970 -2.946396 34,250 187 445 1344
2022-06-21 15:46:49 GMT 51.689930 -2.945709 34,175 187 445 1344
2022-06-21 15:46:46 GMT 51.695560 -2.944565 34,150 183 447 1280
2022-06-21 15:46:43 GMT 51.701939 -2.943420 34,025 186 445 1344
2022-06-21 15:46:40 GMT 51.707478 -2.942505 34,000 186 446 1344
2022-06-21 15:46:38 GMT 51.710598 -2.942123 33,950 185 446 1280
2022-06-21 15:46:36 GMT 51.716976 -2.941437 33,700 183 447 1280
2022-06-21 15:46:33 GMT 51.723129 -2.940921 33,875 183 447 1280
2022-06-21 15:46:30 GMT 51.729401 -2.940402 33,825 183 447 1344
2022-06-21 15:46:28 GMT 51.731689 -2.940179 33,650 183 448 1344
2022-06-21 15:46:26 GMT 51.743408 -2.939214 33,650 183 447 1344
2022-06-21 15:46:23 GMT 51.747189 -2.938919 33,475 183 447 1280
2022-06-21 15:46:21 GMT 51.755894 -2.938232 33,450 183 448 1344
2022-06-21 15:46:18 GMT 51.755894 -2.938232 33,475 183 448 1344
2022-06-21 15:46:15 GMT 51.760391 -2.937878 33,300 183 448 1280
2022-06-21 15:46:12 GMT 51.766693 -2.937317 33,275 183 448 1344
2022-06-21 15:46:09 GMT 51.772888 -2.936839 33,275 183 448 1344
2022-06-21 15:46:06 GMT 51.779984 -2.936245 33,200 183 449 1408
2022-06-21 15:46:03 GMT 51.785034 -2.935867 33,200 183 449 1408
2022-06-21 15:46:01 GMT 51.789551 -2.935486 33,125 183 449 1408
2022-06-21 15:45:58 GMT 51.796921 -2.934834 32,975 183 449 1408
2022-06-21 15:45:55 GMT 51.803143 -2.934341 32,925 183 449 1408
2022-06-21 15:45:52 GMT 51.807037 -2.934018 32,900 183 450 1408
2022-06-21 15:45:50 GMT 51.812222 -2.933578 32,875 183 450 1408
2022-06-21 15:45:48 GMT 51.815002 -2.933424 32,850 183 450 1408
2022-06-21 15:45:46 GMT 51.820862 -2.932904 32,775 183 450 1408
2022-06-21 15:45:43 GMT 51.827118 -2.932434 32,700 183 450 1408
2022-06-21 15:45:41 GMT 51.831253 -2.932088 32,650 183 450 1408
2022-06-21 15:45:38 GMT 51.842651 -2.931123 32,600 183 450 1408
2022-06-21 15:45:35 GMT 51.842651 -2.931123 32,475 183 451 1408
2022-06-21 15:45:32 GMT 51.856750 -2.930009 32,350 183 451 1408
2022-06-21 15:45:29 GMT 51.856750 -2.930009 32,350 183 451 1408
2022-06-21 15:45:26 GMT 51.861847 -2.929611 32,325 183 451 1408
2022-06-21 15:45:24 GMT 51.866180 -2.929267 32,225 183 451 1408
2022-06-21 15:45:21 GMT 51.871262 -2.928821 32,225 183 451 1408
2022-06-21 15:45:19 GMT 51.875702 -2.928450 32,000 183 452 1472
2022-06-21 15:45:17 GMT 51.878632 -2.928228 32,000 183 452 1472
2022-06-21 15:45:15 GMT 51.885448 -2.927704 32,025 183 452 1472
2022-06-21 15:45:12 GMT 51.890671 -2.927263 32,000 183 452 1408
2022-06-21 15:45:09 GMT 51.898903 -2.926679 31,875 183 452 1472
2022-06-21 15:45:06 GMT 51.904209 -2.926208 31,800 183 452 1472
2022-06-21 15:45:03 GMT 51.909515 -2.925816 31,775 183 452 1472
2022-06-21 15:45:01 GMT 51.912231 -2.925568 31,750 183 452 1536
2022-06-21 15:44:59 GMT 51.921204 -2.924881 31,650 183 453 1600
2022-06-21 15:44:57 GMT 51.926697 -2.924423 31,575 183 453 1600
2022-06-21 15:44:55 GMT 51.926697 -2.924423 31,425 183 453 1600
2022-06-21 15:44:52 GMT 51.932465 -2.924011 31,475 183 453 1536
2022-06-21 15:44:49 GMT 51.942940 -2.923148 31,400 183 454 1600
2022-06-21 15:44:47 GMT 51.942940 -2.923148 31,350 183 454 1600
2022-06-21 15:44:44 GMT 51.950016 -2.922599 31,225 183 454 1600
2022-06-21 15:44:41 GMT 51.955509 -2.922128 31,200 183 454 1728
2022-06-21 15:44:38 GMT 51.961842 -2.921657 31,150 183 454 1600
2022-06-21 15:44:35 GMT 51.965984 -2.921343 31,050 183 454 1728
2022-06-21 15:44:33 GMT 51.972382 -2.920761 30,975 183 455 1728
2022-06-21 15:44:31 GMT 51.975494 -2.920532 30,875 183 456 1728
2022-06-21 15:44:28 GMT 51.983459 -2.919922 30,750 183 456 1664
2022-06-21 15:44:25 GMT 51.987946 -2.919540 30,750 183 456 1664
2022-06-21 15:44:23 GMT 51.993576 -2.919083 30,675 183 456 1728
2022-06-21 15:44:21 GMT 51.998058 -2.918753 30,625 183 457 1728
2022-06-21 15:44:19 GMT 52.002110 -2.918440 30,575 183 457 1728
2022-06-21 15:44:16 GMT 52.010330 -2.917786 30,425 183 457 1728
2022-06-21 15:44:13 GMT 52.017929 -2.917175 30,350 183 458 1728
2022-06-21 15:44:11 GMT 52.023422 -2.916718 30,325 183 458 1728
2022-06-21 15:44:09 GMT 52.023422 -2.916718 30,275 183 458 1792
2022-06-21 15:44:06 GMT 52.033905 -2.915878 30,150 183 459 1728
2022-06-21 15:44:03 GMT 52.033905 -2.915878 30,125 183 459 1728
2022-06-21 15:44:01 GMT 52.039993 -2.915344 30,075 183 459 1600
2022-06-21 15:43:59 GMT 52.048569 -2.914673 29,975 183 459 1280
2022-06-21 15:43:56 GMT 52.048569 -2.914673 29,950 183 459 1216
2022-06-21 15:43:54 GMT 52.052765 -2.914352 29,900 183 458 1216
2022-06-21 15:43:52 GMT 52.063797 -2.913437 29,850 183 458 1216
2022-06-21 15:43:50 GMT 52.063797 -2.913437 29,725 183 458 1280
2022-06-21 15:43:47 GMT 52.070389 -2.912903 29,650 183 457 1344
2022-06-21 15:43:44 GMT 52.076477 -2.912369 29,675 183 458 1344
2022-06-21 15:43:41 GMT 52.083160 -2.911835 29,575 183 457 1280
2022-06-21 15:43:38 GMT 52.087254 -2.911534 29,550 183 457 1280
2022-06-21 15:43:36 GMT 52.092049 -2.911063 29,550 183 456 1280
2022-06-21 15:43:33 GMT 52.097633 -2.910671 29,450 183 456 1280
2022-06-21 15:43:31 GMT 52.106232 -2.909927 29,400 183 456 1344
2022-06-21 15:43:29 GMT 52.106232 -2.909927 29,325 183 456 1408
2022-06-21 15:43:27 GMT 52.110764 -2.909546 29,200 183 456 1408
2022-06-21 15:43:24 GMT 52.117218 -2.909012 29,250 183 456 1344
2022-06-21 15:43:21 GMT 52.123749 -2.908473 29,125 183 455 1216
2022-06-21 15:43:19 GMT 52.127193 -2.908160 29,150 183 455 1152
2022-06-21 15:43:17 GMT 52.136307 -2.907410 29,075 183 454 1344
2022-06-21 15:43:15 GMT 52.136307 -2.907410 28,875 183 454 1344
2022-06-21 15:43:12 GMT 52.142624 -2.906876 29,000 183 454 1408
2022-06-21 15:43:10 GMT 52.148563 -2.906433 28,975 183 454 1344
2022-06-21 15:43:07 GMT 52.154194 -2.905962 28,875 183 453 1280
2022-06-21 15:43:04 GMT 52.159286 -2.905502 28,825 184 453 1216
2022-06-21 15:43:02 GMT 52.164001 -2.905121 28,750 183 452 1344
2022-06-21 15:42:59 GMT 52.170208 -2.904550 28,700 183 452 1344
2022-06-21 15:42:57 GMT 52.174988 -2.904205 28,700 183 452 1344
2022-06-21 15:42:54 GMT 52.181240 -2.903687 28,575 183 452 1344
2022-06-21 15:42:51 GMT 52.187572 -2.903137 28,525 183 451 1344
2022-06-21 15:42:49 GMT 52.189545 -2.902985 28,425 183 451 1280
2022-06-21 15:42:47 GMT 52.194927 -2.902509 28,425 183 451 1344
2022-06-21 15:42:44 GMT 52.200119 -2.902069 28,075 183 451 1344
2022-06-21 15:42:41 GMT 52.208542 -2.901382 28,300 183 450 1408
2022-06-21 15:42:38 GMT 52.214386 -2.900940 28,225 183 450 1344
2022-06-21 15:42:35 GMT 52.220856 -2.900391 28,075 183 449 1280
2022-06-21 15:42:32 GMT 52.225479 -2.900009 28,050 183 447 1472
2022-06-21 15:42:30 GMT 52.231613 -2.899475 28,025 183 448 1408
2022-06-21 15:42:27 GMT 52.237663 -2.898978 27,900 183 447 1344
2022-06-21 15:42:24 GMT 52.244457 -2.898429 27,900 183 447 1344
2022-06-21 15:42:21 GMT 52.249626 -2.897958 27,825 183 448 1408
2022-06-21 15:42:19 GMT 52.252934 -2.897723 27,800 183 447 1344
2022-06-21 15:42:17 GMT 52.257797 -2.897263 27,750 183 447 1344
2022-06-21 15:42:14 GMT 52.262878 -2.896881 27,675 183 447 1472
2022-06-21 15:42:12 GMT 52.271439 -2.896118 27,600 183 446 1472
2022-06-21 15:42:10 GMT 52.271439 -2.896118 27,575 183 446 1472
2022-06-21 15:42:06 GMT 52.280628 -2.895368 27,475 183 445 1472
2022-06-21 15:42:03 GMT 52.286030 -2.894897 27,425 183 445 1472
2022-06-21 15:42:01 GMT 52.290482 -2.894516 27,375 183 445 1408
2022-06-21 15:41:59 GMT 52.294785 -2.894135 27,250 183 444 1344
2022-06-21 15:41:57 GMT 52.304581 -2.893295 27,075 183 443 1280
2022-06-21 15:41:54 GMT 52.304581 -2.893295 27,225 183 443 1280
2022-06-21 15:41:52 GMT 52.308983 -2.892936 27,175 183 443 1280
2022-06-21 15:41:50 GMT 52.314514 -2.892456 27,050 183 441 1408
2022-06-21 15:41:47 GMT 52.326050 -2.891464 26,875 183 440 1408
2022-06-21 15:41:44 GMT 52.331177 -2.891006 26,950 183 441 1408
2022-06-21 15:41:41 GMT 52.336399 -2.890581 26,900 183 441 1408
2022-06-21 15:41:39 GMT 52.336399 -2.890581 26,850 183 440 1408
2022-06-21 15:41:36 GMT 52.347382 -2.889633 26,775 183 440 1408
2022-06-21 15:41:33 GMT 52.347382 -2.889633 26,675 183 439 1408
2022-06-21 15:41:30 GMT 52.357040 -2.888870 26,575 184 438 1152
2022-06-21 15:41:28 GMT 52.357040 -2.888870 26,625 184 438 1216
2022-06-21 15:41:26 GMT 52.361305 -2.888463 26,600 184 438 1152
2022-06-21 15:41:23 GMT 52.369965 -2.887756 26,450 183 434 1472
2022-06-21 15:41:20 GMT 52.373199 -2.887497 26,475 184 436 1408
2022-06-21 15:41:18 GMT 52.380203 -2.886887 26,400 184 435 1472
2022-06-21 15:41:16 GMT 52.380203 -2.886887 26,375 184 435 1472
2022-06-21 15:41:14 GMT 52.386257 -2.886344 26,075 183 434 1472
2022-06-21 15:41:12 GMT 52.391518 -2.885951 26,225 183 434 1472
2022-06-21 15:41:09 GMT 52.401199 -2.885088 26,150 183 433 1472
2022-06-21 15:41:06 GMT 52.401199 -2.885088 26,150 183 433 1472
2022-06-21 15:41:04 GMT 52.405949 -2.884696 26,075 183 432 1472
2022-06-21 15:41:02 GMT 52.409775 -2.884369 26,025 183 432 1472
2022-06-21 15:41:00 GMT 52.412796 -2.884140 25,950 183 432 1408
2022-06-21 15:40:58 GMT 52.417912 -2.883754 25,925 183 431 1344
2022-06-21 15:40:56 GMT 52.423050 -2.883301 25,850 183 428 1472
2022-06-21 15:40:53 GMT 52.435417 -2.882263 25,775 183 430 1344
2022-06-21 15:40:50 GMT 52.435417 -2.882263 25,675 183 427 1472
2022-06-21 15:40:47 GMT 52.440399 -2.881851 25,650 183 429 1472
2022-06-21 15:40:45 GMT 52.443466 -2.881622 25,575 183 426 1472
2022-06-21 15:40:43 GMT 52.448124 -2.881243 25,475 183 427 1472
2022-06-21 15:40:40 GMT 52.454037 -2.880772 25,525 183 427 1472
2022-06-21 15:40:37 GMT 52.460358 -2.880249 25,425 183 426 1472
2022-06-21 15:40:33 GMT 52.468609 -2.879517 25,300 183 424 1536
2022-06-21 15:40:30 GMT 52.472260 -2.879257 25,225 183 424 1536
2022-06-21 15:40:28 GMT 52.478432 -2.878732 25,200 184 422 1536
2022-06-21 15:40:25 GMT 52.482296 -2.878339 25,150 183 423 1536
2022-06-21 15:40:23 GMT 52.490845 -2.877655 25,000 184 422 1536
2022-06-21 15:40:21 GMT 52.490845 -2.877655 25,025 184 422 1536
2022-06-21 15:40:19 GMT 52.492813 -2.877426 25,000 183 422 1536
2022-06-21 15:40:17 GMT 52.497658 -2.877005 24,925 183 421 1600
2022-06-21 15:40:15 GMT 52.501614 -2.876692 24,875 182 421 1664
2022-06-21 15:40:13 GMT 52.510483 -2.876358 24,725 181 421 1792
2022-06-21 15:40:11 GMT 52.510483 -2.876358 24,750 181 421 1792
2022-06-21 15:40:09 GMT 52.513504 -2.876282 24,725 181 421 1792
2022-06-21 15:40:06 GMT 52.519501 -2.876358 24,600 177 420 1664
2022-06-21 15:40:04 GMT 52.524399 -2.876587 24,500 177 419 1664
2022-06-21 15:40:01 GMT 52.529404 -2.876848 24,450 177 419 1664
2022-06-21 15:39:59 GMT 52.532043 -2.877045 24,150 177 417 1856
2022-06-21 15:39:57 GMT 52.536804 -2.877350 24,250 177 418 1792
2022-06-21 15:39:55 GMT 52.541702 -2.877579 24,275 177 418 1792
2022-06-21 15:39:52 GMT 52.547333 -2.877960 24,125 177 418 1856
2022-06-21 15:39:49 GMT 52.551910 -2.878189 24,075 177 417 1856
2022-06-21 15:39:47 GMT 52.560596 -2.878732 23,975 177 417 1792
2022-06-21 15:39:45 GMT 52.560596 -2.878732 23,950 177 416 1920
2022-06-21 15:39:43 GMT 52.564224 -2.878952 23,600 177 416 1792
2022-06-21 15:39:41 GMT 52.568207 -2.879181 23,850 177 416 1856
2022-06-21 15:39:39 GMT 52.571350 -2.879360 23,700 177 416 1984
2022-06-21 15:39:36 GMT 52.578098 -2.879752 23,675 177 416 2048
2022-06-21 15:39:34 GMT 52.581161 -2.879944 23,625 177 415 2048
2022-06-21 15:39:32 GMT 52.591003 -2.880554 23,525 177 413 1984
2022-06-21 15:39:29 GMT 52.591003 -2.880554 23,425 177 415 1984
2022-06-21 15:39:26 GMT 52.596905 -2.880929 23,375 177 415 1920
2022-06-21 15:39:24 GMT 52.600819 -2.881165 23,300 177 414 1920
2022-06-21 15:39:22 GMT 52.609707 -2.881714 23,200 177 412 1920
2022-06-21 15:39:19 GMT 52.609707 -2.881714 23,050 177 413 1984
2022-06-21 15:39:17 GMT 52.614552 -2.881949 22,925 177 411 1920
2022-06-21 15:39:14 GMT 52.620071 -2.882309 22,975 177 412 1920
2022-06-21 15:39:12 GMT 52.623672 -2.882577 22,925 177 412 1920
2022-06-21 15:39:09 GMT 52.629227 -2.882919 22,825 177 411 1856
2022-06-21 15:39:07 GMT 52.633850 -2.883224 22,725 177 411 1856
2022-06-21 15:39:03 GMT 52.639969 -2.883597 22,600 177 410 1920
2022-06-21 15:39:01 GMT 52.644066 -2.883833 22,600 177 409 1984
2022-06-21 15:38:58 GMT 52.655319 -2.884598 22,400 177 409 1984
2022-06-21 15:38:55 GMT 52.655319 -2.884598 22,275 177 408 1920
2022-06-21 15:38:52 GMT 52.660591 -2.884931 22,300 177 408 1920
2022-06-21 15:38:50 GMT 52.664173 -2.885167 22,100 177 407 1920
2022-06-21 15:38:48 GMT 52.669785 -2.885513 22,125 177 407 1984
2022-06-21 15:38:45 GMT 52.675507 -2.885818 22,025 177 406 2112
2022-06-21 15:38:42 GMT 52.679535 -2.886108 21,875 177 406 2112
2022-06-21 15:38:40 GMT 52.683075 -2.886344 21,875 177 405 2112
2022-06-21 15:38:38 GMT 52.693314 -2.886963 21,725 177 403 2368
2022-06-21 15:38:35 GMT 52.693314 -2.886963 21,450 177 404 2112
2022-06-21 15:38:32 GMT 52.698441 -2.887268 20,875 177 403 2432
2022-06-21 15:38:29 GMT 52.705093 -2.887678 21,450 177 403 2176
2022-06-21 15:38:26 GMT 52.713409 -2.888260 21,325 177 403 2304
2022-06-21 15:38:21 GMT 52.718826 -2.888541 21,200 177 403 2432
2022-06-21 15:38:19 GMT 52.723709 -2.888870 21,075 177 403 2368
2022-06-21 15:38:15 GMT 52.730438 -2.889252 20,950 177 402 2176
2022-06-21 15:38:12 GMT 52.740009 -2.889875 20,750 177 402 2112
2022-06-21 15:38:10 GMT 52.744617 -2.890189 20,675 177 401 2304
2022-06-21 15:38:08 GMT 52.744617 -2.890189 20,650 177 401 2368
2022-06-21 15:38:05 GMT 52.750763 -2.890549 20,500 177 401 2368
2022-06-21 15:38:02 GMT 52.756439 -2.890854 20,275 177 399 1984
2022-06-21 15:37:59 GMT 52.761421 -2.891209 20,300 177 400 2048
2022-06-21 15:37:57 GMT 52.765091 -2.891464 19,950 177 398 2048
2022-06-21 15:37:54 GMT 52.770630 -2.891769 20,200 177 399 1984
2022-06-21 15:37:51 GMT 52.784409 -2.892609 20,025 177 397 2240
2022-06-21 15:37:48 GMT 52.784409 -2.892609 19,875 177 397 2368
2022-06-21 15:37:45 GMT 52.787933 -2.892838 19,675 177 392 2176
2022-06-21 15:37:42 GMT 52.791367 -2.893066 19,725 177 396 2240
2022-06-21 15:37:40 GMT 52.795406 -2.893328 19,650 177 395 2112
2022-06-21 15:37:37 GMT 52.807461 -2.894113 19,425 177 394 2048
2022-06-21 15:37:34 GMT 52.807461 -2.894113 19,425 177 393 2048
2022-06-21 15:37:31 GMT 52.811188 -2.894348 19,375 177 393 2112
2022-06-21 15:37:29 GMT 52.813793 -2.894505 19,225 177 392 2496
2022-06-21 15:37:27 GMT 52.818237 -2.894745 18,850 177 392 2624
2022-06-21 15:37:24 GMT 52.824417 -2.895126 18,975 177 392 2624
2022-06-21 15:37:21 GMT 52.830879 -2.895525 18,850 177 392 2368
2022-06-21 15:37:18 GMT 52.837051 -2.895966 18,775 177 391 1920
2022-06-21 15:37:15 GMT 52.840302 -2.896118 18,675 177 391 1600
2022-06-21 15:37:12 GMT 52.846474 -2.896545 18,650 177 390 1280
2022-06-21 15:37:10 GMT 52.854851 -2.897016 18,575 177 390 1088
2022-06-21 15:37:07 GMT 52.854851 -2.897016 18,525 177 389 1024
2022-06-21 15:37:04 GMT 52.862438 -2.897487 18,475 177 389 1024
2022-06-21 15:37:01 GMT 52.865002 -2.897644 18,450 177 389 1024
2022-06-21 15:36:59 GMT 52.868027 -2.897879 18,425 177 389 1024
2022-06-21 15:36:57 GMT 52.872299 -2.898102 18,275 178 389 1024
2022-06-21 15:36:54 GMT 52.878571 -2.898560 18,275 177 389 1024
2022-06-21 15:36:51 GMT 52.885345 -2.898978 18,250 178 389 1024
2022-06-21 15:36:48 GMT 52.892422 -2.899135 18,200 181 388 1024
2022-06-21 15:36:46 GMT 52.892422 -2.899135 18,200 182 387 1024
2022-06-21 15:36:43 GMT 52.903610 -2.898788 18,125 183 387 1024
2022-06-21 15:36:40 GMT 52.903610 -2.898788 18,100 183 386 960
2022-06-21 15:36:38 GMT 52.907730 -2.898483 18,050 183 386 960
2022-06-21 15:36:36 GMT 52.910248 -2.898254 18,000 183 385 896
2022-06-21 15:36:33 GMT 52.920586 -2.897330 17,950 183 385 896
2022-06-21 15:36:30 GMT 52.920586 -2.897330 17,900 184 385 1024
2022-06-21 15:36:27 GMT 52.927368 -2.896729 17,850 184 384 1856
2022-06-21 15:36:24 GMT 52.932735 -2.896232 17,800 184 384 1472
2022-06-21 15:36:21 GMT 52.936459 -2.895918 17,750 184 384 1792
2022-06-21 15:36:19 GMT 52.940598 -2.895584 17,625 184 384 1856
2022-06-21 15:36:16 GMT 52.946457 -2.895050 17,450 184 384 1856
2022-06-21 15:36:13 GMT 52.951218 -2.894592 17,450 184 384 1856
2022-06-21 15:36:10 GMT 52.956757 -2.894135 17,450 184 384 1856
2022-06-21 15:36:07 GMT 52.961105 -2.893677 17,325 183 382 1856
2022-06-21 15:36:05 GMT 52.970215 -2.892914 17,175 184 380 1856
2022-06-21 15:36:02 GMT 52.970215 -2.892914 17,075 183 379 1984
2022-06-21 15:35:59 GMT 52.975845 -2.892456 17,025 183 378 2112
2022-06-21 15:35:56 GMT 52.981941 -2.891915 16,925 183 377 2432
2022-06-21 15:35:54 GMT 52.990631 -2.891312 16,800 183 376 2624
2022-06-21 15:35:51 GMT 52.990631 -2.891312 16,775 183 376 2688
2022-06-21 15:35:48 GMT 52.994751 -2.891006 16,600 183 376 2816
2022-06-21 15:35:46 GMT 52.998871 -2.890701 16,425 183 375 2880
2022-06-21 15:35:43 GMT 53.004330 -2.890346 16,325 183 375 2880
2022-06-21 15:35:40 GMT 53.009827 -2.889954 16,225 183 375 3008
2022-06-21 15:35:37 GMT 53.014481 -2.889633 16,000 183 375 3008
2022-06-21 15:35:35 GMT 53.018784 -2.889328 15,925 183 375 2880
2022-06-21 15:35:32 GMT 53.028538 -2.888541 14,325 198 367 2816
2022-06-21 15:35:29 GMT 53.028538 -2.888541 15,675 183 374 2496
2022-06-21 15:35:27 GMT 53.033157 -2.888184 15,550 183 374 2496
2022-06-21 15:35:24 GMT 53.035755 -2.887992 14,675 183 373 2624
2022-06-21 15:35:22 GMT 53.040298 -2.887650 14,675 200 367 2816
2022-06-21 15:35:20 GMT 53.043667 -2.887364 15,225 186 371 2816
2022-06-21 15:35:17 GMT 53.048676 -2.886658 15,125 188 371 2624
2022-06-21 15:35:15 GMT 53.053574 -2.885590 14,975 194 368 2496
2022-06-21 15:35:12 GMT 53.057728 -2.884225 14,925 194 368 2496
2022-06-21 15:35:09 GMT 53.062363 -2.882309 14,800 198 367 2816
2022-06-21 15:35:07 GMT 53.065338 -2.880783 14,700 200 367 2816
2022-06-21 15:35:05 GMT 53.072708 -2.876358 14,550 203 366 2944
2022-06-21 15:35:02 GMT 53.072708 -2.876358 14,475 206 366 3008
2022-06-21 15:35:00 GMT 53.076534 -2.873396 14,325 208 365 2688
2022-06-21 15:34:57 GMT 53.081841 -2.868766 14,200 217 362 2112
2022-06-21 15:34:54 GMT 53.085938 -2.864450 14,100 216 362 2112
2022-06-21 15:34:51 GMT 53.089291 -2.860526 13,975 220 360 2432
2022-06-21 15:34:48 GMT 53.095367 -2.852286 13,850 222 359 2560
2022-06-21 15:34:46 GMT 53.095367 -2.852286 13,725 225 357 2624
2022-06-21 15:34:44 GMT 53.097668 -2.848771 13,650 225 357 2624
2022-06-21 15:34:41 GMT 53.101318 -2.842869 13,625 226 357 2624
2022-06-21 15:34:39 GMT 53.103378 -2.839417 13,300 226 357 2624
2022-06-21 15:34:37 GMT 53.106468 -2.834230 13,425 226 356 2624
2022-06-21 15:34:35 GMT 53.113358 -2.822623 13,275 226 354 2560
2022-06-21 15:34:32 GMT 53.115646 -2.818699 13,150 226 353 2624
2022-06-21 15:34:29 GMT 53.115646 -2.818699 13,025 226 352 2688
2022-06-21 15:34:26 GMT 53.118942 -2.813128 12,950 226 352 2752
2022-06-21 15:34:24 GMT 53.121506 -2.808812 12,775 226 350 2688
2022-06-21 15:34:21 GMT 53.125320 -2.802321 12,700 226 350 2688
2022-06-21 15:34:19 GMT 53.126358 -2.800572 12,650 226 350 2688
2022-06-21 15:34:16 GMT 53.130440 -2.793678 12,425 226 348 2816
2022-06-21 15:34:13 GMT 53.133499 -2.788565 12,175 226 347 3008
2022-06-21 15:34:10 GMT 53.136887 -2.782837 12,200 226 347 3200
2022-06-21 15:34:08 GMT 53.139610 -2.778329 12,075 226 347 3136
2022-06-21 15:34:06 GMT 53.141830 -2.774519 11,975 226 347 2944
2022-06-21 15:34:04 GMT 53.145103 -2.769120 11,850 226 345 2624
2022-06-21 15:34:01 GMT 53.146774 -2.766279 11,775 226 346 2624
2022-06-21 15:33:58 GMT 53.150665 -2.759687 11,650 226 344 2432
2022-06-21 15:33:55 GMT 53.153297 -2.755226 11,550 226 342 2560
2022-06-21 15:33:53 GMT 53.156742 -2.749490 11,325 226 340 2944
2022-06-21 15:33:50 GMT 53.159500 -2.744856 11,175 226 340 3008
2022-06-21 15:33:47 GMT 53.162750 -2.739392 11,150 226 340 2944
2022-06-21 15:33:44 GMT 53.165680 -2.734303 11,050 226 339 2560
2022-06-21 15:33:41 GMT 53.169571 -2.727748 10,875 226 335 1216
2022-06-21 15:33:38 GMT 53.172989 -2.721944 10,000 227 314 1024
2022-06-21 15:33:36 GMT 53.174248 -2.719762 10,850 226 330 1088
2022-06-21 15:33:34 GMT 53.177582 -2.714094 10,750 226 324 1024
2022-06-21 15:33:31 GMT 53.180328 -2.709385 10,700 226 321 960
2022-06-21 15:33:28 GMT 53.183899 -2.703265 10,675 226 318 896
2022-06-21 15:33:25 GMT 53.185886 -2.699890 10,625 227 314 1024
2022-06-21 15:33:23 GMT 53.188980 -2.694554 10,600 227 309 1152
2022-06-21 15:33:20 GMT 53.193375 -2.686942 10,525 226 306 1408
2022-06-21 15:33:18 GMT 53.195938 -2.682603 10,475 226 303 1664
2022-06-21 15:33:15 GMT 53.195938 -2.682603 10,450 226 302 1792
2022-06-21 15:33:13 GMT 53.198181 -2.678781 10,300 226 298 2368
2022-06-21 15:33:10 GMT 53.201385 -2.673366 10,175 226 296 2432
2022-06-21 15:33:07 GMT 53.203354 -2.670070 10,175 226 296 2432
2022-06-21 15:33:05 GMT 53.205917 -2.665676 10,000 226 294 2432
2022-06-21 15:33:03 GMT 53.207718 -2.662650 9,850 226 292 2752
2022-06-21 15:33:00 GMT 53.212887 -2.653844 9,725 226 289 2560
2022-06-21 15:32:57 GMT 53.212887 -2.653844 9,700 226 289 2560
2022-06-21 15:32:55 GMT 53.218735 -2.643860 9,500 226 288 2560
2022-06-21 15:32:52 GMT 53.221024 -2.640015 9,275 226 285 2880
2022-06-21 15:32:49 GMT 53.221024 -2.640015 9,300 226 284 2944
2022-06-21 15:32:46 GMT 53.223587 -2.635620 9,150 226 284 3136
2022-06-21 15:32:43 GMT 53.226807 -2.630175 8,975 226 284 3328
2022-06-21 15:32:40 GMT 53.228806 -2.626753 8,850 226 284 3264
2022-06-21 15:32:37 GMT 53.231461 -2.622259 8,750 226 282 3200
2022-06-21 15:32:35 GMT 53.233795 -2.618277 8,550 226 282 3136
2022-06-21 15:32:32 GMT 53.237228 -2.612470 8,250 226 280 3136
2022-06-21 15:32:29 GMT 53.239372 -2.608849 8,150 226 281 3136
2022-06-21 15:32:27 GMT 53.240753 -2.606428 8,150 226 280 3136
2022-06-21 15:32:25 GMT 53.243423 -2.601983 8,000 226 280 3136
2022-06-21 15:32:23 GMT 53.244644 -2.599836 7,875 226 279 3072
2022-06-21 15:32:20 GMT 53.247482 -2.594971 7,725 227 277 3136
2022-06-21 15:32:17 GMT 53.250175 -2.590350 7,625 227 277 3200
2022-06-21 15:32:15 GMT 53.252361 -2.586553 7,550 226 277 3328
2022-06-21 15:32:13 GMT 53.253937 -2.583906 7,325 226 276 3264
2022-06-21 15:32:10 GMT 53.255714 -2.580818 7,175 226 276 3008
2022-06-21 15:32:07 GMT 53.261490 -2.570879 7,000 226 275 2880
2022-06-21 15:32:04 GMT 53.261490 -2.570879 6,900 226 273 3008
2022-06-21 15:32:01 GMT 53.264740 -2.565308 6,775 226 272 3264
2022-06-21 15:31:57 GMT 53.270187 -2.556126 6,450 225 271 3072
2022-06-21 15:31:54 GMT 53.270187 -2.556126 6,450 225 271 3072
2022-06-21 15:31:51 GMT 53.273804 -2.550084 6,225 225 271 2816
2022-06-21 15:31:48 GMT 53.276058 -2.546324 5,975 224 266 3200
2022-06-21 15:31:45 GMT 53.277966 -2.543173 6,025 225 270 2816
2022-06-21 15:31:43 GMT 53.283417 -2.534154 5,850 225 269 3264
2022-06-21 15:31:40 GMT 53.283417 -2.534154 5,500 224 268 2688
2022-06-21 15:31:36 GMT 53.290115 -2.523301 5,400 224 270 3072
2022-06-21 15:31:33 GMT 53.290115 -2.523301 5,300 224 269 2752
2022-06-21 15:31:30 GMT 53.292068 -2.520185 5,000 224 269 2688
2022-06-21 15:31:27 GMT 53.294724 -2.515948 5,025 224 267 2624
2022-06-21 15:31:24 GMT 53.298798 -2.509434 4,850 226 250 1408
2022-06-21 15:31:22 GMT 53.301361 -2.505354 4,850 226 250 1408
2022-06-21 15:31:19 GMT 53.301361 -2.505354 4,775 225 259 1024
2022-06-21 15:31:16 GMT 53.303787 -2.501351 4,725 225 256 1152
2022-06-21 15:31:13 GMT 53.306671 -2.496722 4,650 228 248 1472
2022-06-21 15:31:10 GMT 53.309250 -2.492442 4,625 228 248 1408
2022-06-21 15:31:06 GMT 53.312164 -2.486912 4,500 237 237 1600
2022-06-21 15:31:03 GMT 53.314590 -2.481419 4,425 240 234 1792
2022-06-21 15:31:00 GMT 53.315952 -2.477740 4,225 246 232 1856
2022-06-21 15:30:56 GMT 53.318161 -2.470511 4,175 251 232 1984
2022-06-21 15:30:52 GMT 53.319489 -2.464469 4,075 257 232 2112
2022-06-21 15:30:49 GMT 53.320312 -2.459446 4,000 261 232 2048
2022-06-21 15:30:46 GMT 53.321117 -2.452698 3,800 264 230 1920
2022-06-21 15:30:43 GMT 53.321411 -2.448931 3,825 265 230 1920
2022-06-21 15:30:41 GMT 53.321594 -2.445478 3,800 265 230 1920
2022-06-21 15:30:38 GMT 53.321770 -2.439853 3,600 272 229 1984
2022-06-21 15:30:35 GMT 53.321724 -2.434441 3,525 274 229 1984
2022-06-21 15:30:33 GMT 53.321548 -2.430176 3,425 277 229 1920
2022-06-21 15:30:30 GMT 53.321117 -2.423536 3,325 280 228 1984
2022-06-21 15:30:27 GMT 53.320862 -2.420288 3,175 283 229 2112
2022-06-21 15:30:23 GMT 53.320141 -2.414165 3,100 284 227 2176
2022-06-21 15:30:21 GMT 53.319538 -2.410045 2,975 284 226 2304
2022-06-21 15:30:18 GMT 53.318115 -2.400356 2,750 284 220 2304
2022-06-21 15:30:15 GMT 53.318115 -2.400356 2,750 284 220 2304
2022-06-21 15:30:12 GMT 53.317383 -2.394941 2,725 284 224 2880
2022-06-21 15:30:09 GMT 53.316650 -2.389849 2,500 284 220 2304
2022-06-21 15:30:06 GMT 53.316010 -2.385132 2,375 284 217 1792
2022-06-21 15:30:03 GMT 53.315208 -2.379671 2,325 284 216 1792
2022-06-21 15:30:00 GMT 53.314323 -2.373532 2,225 283 210 1664
2022-06-21 15:29:56 GMT 53.313812 -2.369516 2,100 278 209 1920
2022-06-21 15:29:53 GMT 53.313347 -2.361657 2,000 267 206 1600
2022-06-21 15:29:51 GMT 53.313400 -2.360020 1,975 267 206 1664
2022-06-21 15:29:49 GMT 53.313530 -2.356971 1,900 264 205 1984
2022-06-21 15:29:46 GMT 53.313812 -2.353821 1,825 256 202 2304
2022-06-21 15:29:45 GMT 53.313995 -2.352286 1,800 253 202 2176
2022-06-21 15:29:43 GMT 53.314602 -2.349135 1,725 248 200 1856
2022-06-21 15:29:42 GMT 53.315643 -2.345267 1,650 243 200 1600
2022-06-21 15:29:39 GMT 53.316792 -2.341865 1,600 238 197 1152
2022-06-21 15:29:38 GMT 53.316792 -2.341865 1,600 236 195 1088
2022-06-21 15:29:35 GMT 53.318375 -2.338230 1,550 234 192 1152
2022-06-21 15:29:34 GMT 53.318802 -2.337184 1,525 232 189 1600
2022-06-21 15:29:33 GMT 53.319351 -2.336007 1,500 232 187 1600
2022-06-21 15:29:31 GMT 53.320587 -2.333496 1,425 232 184 1152
2022-06-21 15:29:30 GMT 53.321117 -2.332414 1,425 232 184 1152
2022-06-21 15:29:28 GMT 53.322098 -2.330394 1,375 232 181 1024
2022-06-21 15:29:25 GMT 53.323700 -2.327061 1,325 232 173 1600
2022-06-21 15:29:24 GMT 53.324799 -2.324786 1,275 232 173 1600
2022-06-21 15:29:19 GMT 53.327965 -2.318196 1,050 231 168 2432
2022-06-21 15:29:16 GMT 53.327965 -2.318196 1,050 231 168 2432
2022-06-21 15:29:13 GMT 53.332031 -2.310111 900 230 167 2688
2022-06-21 15:29:09 GMT 53.332031 -2.310111 675 230 167 2752
2022-06-21 15:29:06 GMT 53.333038 -2.308149 575 230 168 3264
2022-06-21 15:29:01 GMT 53.335739 -2.302813 325 231 172 2368
2022-06-21 15:28:51 GMT 53.340958 -2.292062 200 231 144 -64
2022-06-21 15:28:35 GMT 53.346371 -2.280879 225 232 113 -64
2022-06-21 15:28:31 GMT 53.347458 -2.278643 0 230 70
2022-06-21 15:27:47 GMT 53.349190 -2.275079 0 230 0
2022-06-21 15:27:02 GMT 53.349186 -2.275072 0 230 0
2022-06-21 15:26:20 GMT 53.349190 -2.275079 0 230 0
2022-06-21 15:26:10 GMT 53.349266 -2.274915 0 222 5
2022-06-21 15:25:59 GMT 53.349434 -2.274675 0 191 5
2022-06-21 15:25:49 GMT 53.349632 -2.274634 0 171 6
2022-06-21 15:25:35 GMT 53.350098 -2.274735 0 171 9
2022-06-21 15:25:29 GMT 53.350285 -2.274798 0 168 8
2022-06-21 15:25:18 GMT 53.350616 -2.274896 0 165 5
2022-06-21 15:25:05 GMT 53.350857 -2.274994 0 157 4
2022-06-21 15:24:59 GMT 53.350925 -2.275038 0 157 3
2022-06-21 15:24:49 GMT 53.351063 -2.275139 0 177 6
2022-06-21 15:24:37 GMT 53.351498 -2.274935 0 230 11
2022-06-21 15:24:27 GMT 53.351833 -2.274251 0 230 16
2022-06-21 15:24:17 GMT 53.352299 -2.273287 0 230 15
2022-06-21 15:24:06 GMT 53.352764 -2.272332 0 230 14
2022-06-21 15:24:01 GMT 53.352951 -2.271953 0 230 13
2022-06-21 15:23:58 GMT 53.353065 -2.271718 0 230 13
2022-06-21 15:23:49 GMT 53.353374 -2.271070 0 230 13
2022-06-21 15:23:36 GMT 53.353882 -2.270010 0 230 14
2022-06-21 15:23:28 GMT 53.354275 -2.269222 0 230 17
2022-06-21 15:23:22 GMT 53.354496 -2.268755 0 230 18
2022-06-21 15:23:18 GMT 53.354706 -2.268313 0 230 18
2022-06-21 15:23:11 GMT 53.355068 -2.267559 0 233 17
2022-06-21 15:23:07 GMT 53.355251 -2.267186 0 233 17
2022-06-21 15:23:01 GMT 53.355503 -2.266695 0 222 16
2022-06-21 15:22:56 GMT 53.355846 -2.266323 0 194 16
2022-06-21 15:22:53 GMT 53.356041 -2.266244 0 182 17
2022-06-21 15:22:47 GMT 53.356544 -2.266323 0 168 20
2022-06-21 15:22:42 GMT 53.356930 -2.266435 0 168 22
2022-06-21 15:22:33 GMT 53.357967 -2.266738 0 168 24
2022-06-21 15:22:26 GMT 53.358616 -2.266931 0 171 19
2022-06-21 15:22:17 GMT 53.359119 -2.267362 0 118 9
2022-06-21 15:22:11 GMT 53.359200 -2.267676 0 112 4
2022-06-21 15:21:58 GMT 53.359234 -2.267768 0 112 0
2022-06-21 15:21:48 GMT 53.359234 -2.267774 0 112 0
2022-06-21 15:21:38 GMT 53.359234 -2.267768 0 112 0
2022-06-21 15:21:28 GMT 53.359234 -2.267774 0 112 0

Making use of Plane Finder data

You are free to use the raw flight data, aircraft information and images provided in this report for your own purposes provided the data is correctly attributed to Plane Finder. We ask that you please credit Plane Finder and link to planefinder.net in close proximity to the content.

Optionally one of the following logos (no smaller then 150x24px) can be used and must link to planefinder.net

Embedding the Plane Finder map

You are welcome to embed the Plane Finder playback map on your website to offer visitors a more interactive experience. We suggest using the following HTML code:

<iframe src="//planefinder.net/data/report/FR9058-EI-DCL-7700-squawk-2022-06-21/map" width="800" height="600" seamless="seamless"></iframe>

Where our data comes from

Plane Finder has a global network of data feeds and antenna radars that receive data broadcast directly from aircraft. The primary technologies used are ADS-B and MLAT. We also show feeds from the FAA and a FLARM glider feed.

Click here to find out more about the Plane Finder network.

How we collect our data